<?xml version="1.0" encoding="UTF-8" standalone="no" ?>
<gpx xmlns="http://www.topografix.com/GPX/1/1" xmlns:xsi="http://www.w3.org/2001/XMLSchema-instance" xsi:schemaLocation="http://www.topografix.com/GPX/1/1 http://www.topografix.com/GPX/1/1/gpx.xsd" version="1.1" creator="VisuGPX - https://www.visugpx.com">
  <metadata>
    <name>Plan-de-Croix - Col de Savalène</name>
    <desc><![CDATA[RandoSki 29.12.12

De la route de Plan-de-Croix au Col de Savalène par Blancsec et retour.]]></desc>
  </metadata>
  <trk>
    <name><![CDATA[29 déc. 2012 12:15:40]]></name>
    <trkseg>
      <trkpt lat="46.31459" lon="6.85058">
        <ele>1256</ele>
        <time>2012-12-29T12:15:40+01:00</time>
      </trkpt>
      <trkpt lat="46.31459" lon="6.85047">
        <ele>1256</ele>
        <time>2012-12-29T12:16:32+01:00</time>
      </trkpt>
      <trkpt lat="46.31462" lon="6.85041">
        <ele>1257</ele>
        <time>2012-12-29T12:16:36+01:00</time>
      </trkpt>
      <trkpt lat="46.31466" lon="6.85034">
        <ele>1260</ele>
        <time>2012-12-29T12:16:58+01:00</time>
      </trkpt>
      <trkpt lat="46.31469" lon="6.8503">
        <ele>1260</ele>
        <time>2012-12-29T12:17:38+01:00</time>
      </trkpt>
      <trkpt lat="46.31472" lon="6.85021">
        <ele>1260</ele>
        <time>2012-12-29T12:17:50+01:00</time>
      </trkpt>
      <trkpt lat="46.31477" lon="6.85013">
        <ele>1263</ele>
        <time>2012-12-29T12:18:02+01:00</time>
      </trkpt>
      <trkpt lat="46.31479" lon="6.85004">
        <ele>1264</ele>
        <time>2012-12-29T12:19:12+01:00</time>
      </trkpt>
      <trkpt lat="46.31482" lon="6.85">
        <ele>1264</ele>
        <time>2012-12-29T12:19:22+01:00</time>
      </trkpt>
      <trkpt lat="46.31484" lon="6.84987">
        <ele>1265</ele>
        <time>2012-12-29T12:20:00+01:00</time>
      </trkpt>
      <trkpt lat="46.31488" lon="6.84983">
        <ele>1264</ele>
        <time>2012-12-29T12:20:38+01:00</time>
      </trkpt>
      <trkpt lat="46.31491" lon="6.84978">
        <ele>1264</ele>
        <time>2012-12-29T12:20:41+01:00</time>
      </trkpt>
      <trkpt lat="46.31496" lon="6.8497">
        <ele>1264</ele>
        <time>2012-12-29T12:20:46+01:00</time>
      </trkpt>
      <trkpt lat="46.31499" lon="6.84963">
        <ele>1264</ele>
        <time>2012-12-29T12:20:55+01:00</time>
      </trkpt>
      <trkpt lat="46.31501" lon="6.84957">
        <ele>1264</ele>
        <time>2012-12-29T12:20:58+01:00</time>
      </trkpt>
      <trkpt lat="46.31504" lon="6.84953">
        <ele>1265</ele>
        <time>2012-12-29T12:20:59+01:00</time>
      </trkpt>
      <trkpt lat="46.31509" lon="6.84948">
        <ele>1265</ele>
        <time>2012-12-29T12:21:10+01:00</time>
      </trkpt>
      <trkpt lat="46.31513" lon="6.84944">
        <ele>1263</ele>
        <time>2012-12-29T12:21:15+01:00</time>
      </trkpt>
      <trkpt lat="46.31512" lon="6.84937">
        <ele>1263</ele>
        <time>2012-12-29T12:22:24+01:00</time>
      </trkpt>
      <trkpt lat="46.31506" lon="6.84933">
        <ele>1263</ele>
        <time>2012-12-29T12:22:35+01:00</time>
      </trkpt>
      <trkpt lat="46.3151" lon="6.84929">
        <ele>1264</ele>
        <time>2012-12-29T12:24:04+01:00</time>
      </trkpt>
      <trkpt lat="46.31514" lon="6.84922">
        <ele>1264</ele>
        <time>2012-12-29T12:24:28+01:00</time>
      </trkpt>
      <trkpt lat="46.31518" lon="6.84916">
        <ele>1264</ele>
        <time>2012-12-29T12:24:36+01:00</time>
      </trkpt>
      <trkpt lat="46.31522" lon="6.8491">
        <ele>1265</ele>
        <time>2012-12-29T12:25:41+01:00</time>
      </trkpt>
      <trkpt lat="46.31522" lon="6.84903">
        <ele>1265</ele>
        <time>2012-12-29T12:25:54+01:00</time>
      </trkpt>
      <trkpt lat="46.31527" lon="6.84899">
        <ele>1265</ele>
        <time>2012-12-29T12:26:01+01:00</time>
      </trkpt>
      <trkpt lat="46.3153" lon="6.84892">
        <ele>1265</ele>
        <time>2012-12-29T12:26:11+01:00</time>
      </trkpt>
      <trkpt lat="46.31533" lon="6.84888">
        <ele>1265</ele>
        <time>2012-12-29T12:26:15+01:00</time>
      </trkpt>
      <trkpt lat="46.31535" lon="6.84882">
        <ele>1265</ele>
        <time>2012-12-29T12:26:32+01:00</time>
      </trkpt>
      <trkpt lat="46.31539" lon="6.84875">
        <ele>1266</ele>
        <time>2012-12-29T12:26:56+01:00</time>
      </trkpt>
      <trkpt lat="46.31542" lon="6.84867">
        <ele>1267</ele>
        <time>2012-12-29T12:27:11+01:00</time>
      </trkpt>
      <trkpt lat="46.31548" lon="6.84858">
        <ele>1267</ele>
        <time>2012-12-29T12:27:20+01:00</time>
      </trkpt>
      <trkpt lat="46.3155" lon="6.84852">
        <ele>1267</ele>
        <time>2012-12-29T12:27:25+01:00</time>
      </trkpt>
      <trkpt lat="46.31553" lon="6.84845">
        <ele>1268</ele>
        <time>2012-12-29T12:27:44+01:00</time>
      </trkpt>
      <trkpt lat="46.31553" lon="6.84837">
        <ele>1268</ele>
        <time>2012-12-29T12:27:55+01:00</time>
      </trkpt>
      <trkpt lat="46.31557" lon="6.84826">
        <ele>1269</ele>
        <time>2012-12-29T12:28:21+01:00</time>
      </trkpt>
      <trkpt lat="46.31559" lon="6.84817">
        <ele>1269</ele>
        <time>2012-12-29T12:28:33+01:00</time>
      </trkpt>
      <trkpt lat="46.31561" lon="6.84811">
        <ele>1270</ele>
        <time>2012-12-29T12:28:49+01:00</time>
      </trkpt>
      <trkpt lat="46.31561" lon="6.84802">
        <ele>1269</ele>
        <time>2012-12-29T12:29:01+01:00</time>
      </trkpt>
      <trkpt lat="46.31567" lon="6.84798">
        <ele>1269</ele>
        <time>2012-12-29T12:31:59+01:00</time>
      </trkpt>
      <trkpt lat="46.31564" lon="6.84785">
        <ele>1270</ele>
        <time>2012-12-29T12:32:10+01:00</time>
      </trkpt>
      <trkpt lat="46.31576" lon="6.84768">
        <ele>1270</ele>
        <time>2012-12-29T12:32:12+01:00</time>
      </trkpt>
      <trkpt lat="46.31581" lon="6.84759">
        <ele>1270</ele>
        <time>2012-12-29T12:32:14+01:00</time>
      </trkpt>
      <trkpt lat="46.3158" lon="6.84753">
        <ele>1271</ele>
        <time>2012-12-29T12:32:37+01:00</time>
      </trkpt>
      <trkpt lat="46.31583" lon="6.84747">
        <ele>1271</ele>
        <time>2012-12-29T12:32:44+01:00</time>
      </trkpt>
      <trkpt lat="46.31588" lon="6.84742">
        <ele>1272</ele>
        <time>2012-12-29T12:32:51+01:00</time>
      </trkpt>
      <trkpt lat="46.31592" lon="6.84738">
        <ele>1272</ele>
        <time>2012-12-29T12:33:09+01:00</time>
      </trkpt>
      <trkpt lat="46.31591" lon="6.84732">
        <ele>1275</ele>
        <time>2012-12-29T12:33:18+01:00</time>
      </trkpt>
      <trkpt lat="46.31594" lon="6.84725">
        <ele>1275</ele>
        <time>2012-12-29T12:33:21+01:00</time>
      </trkpt>
      <trkpt lat="46.316" lon="6.84725">
        <ele>1275</ele>
        <time>2012-12-29T12:33:40+01:00</time>
      </trkpt>
      <trkpt lat="46.31601" lon="6.84719">
        <ele>1276</ele>
        <time>2012-12-29T12:33:50+01:00</time>
      </trkpt>
      <trkpt lat="46.31601" lon="6.8471">
        <ele>1277</ele>
        <time>2012-12-29T12:34:01+01:00</time>
      </trkpt>
      <trkpt lat="46.31602" lon="6.84704">
        <ele>1278</ele>
        <time>2012-12-29T12:34:26+01:00</time>
      </trkpt>
      <trkpt lat="46.31605" lon="6.84697">
        <ele>1279</ele>
        <time>2012-12-29T12:34:35+01:00</time>
      </trkpt>
      <trkpt lat="46.31608" lon="6.84691">
        <ele>1280</ele>
        <time>2012-12-29T12:34:43+01:00</time>
      </trkpt>
      <trkpt lat="46.31608" lon="6.84684">
        <ele>1280</ele>
        <time>2012-12-29T12:34:48+01:00</time>
      </trkpt>
      <trkpt lat="46.31612" lon="6.8468">
        <ele>1282</ele>
        <time>2012-12-29T12:35:29+01:00</time>
      </trkpt>
      <trkpt lat="46.31616" lon="6.84676">
        <ele>1282</ele>
        <time>2012-12-29T12:35:36+01:00</time>
      </trkpt>
      <trkpt lat="46.31625" lon="6.84669">
        <ele>1284</ele>
        <time>2012-12-29T12:35:54+01:00</time>
      </trkpt>
      <trkpt lat="46.31627" lon="6.84663">
        <ele>1284</ele>
        <time>2012-12-29T12:36:15+01:00</time>
      </trkpt>
      <trkpt lat="46.31627" lon="6.84652">
        <ele>1285</ele>
        <time>2012-12-29T12:36:24+01:00</time>
      </trkpt>
      <trkpt lat="46.3162" lon="6.84654">
        <ele>1286</ele>
        <time>2012-12-29T12:38:22+01:00</time>
      </trkpt>
      <trkpt lat="46.31625" lon="6.84652">
        <ele>1286</ele>
        <time>2012-12-29T12:38:32+01:00</time>
      </trkpt>
      <trkpt lat="46.31629" lon="6.84646">
        <ele>1287</ele>
        <time>2012-12-29T12:38:52+01:00</time>
      </trkpt>
      <trkpt lat="46.3163" lon="6.84637">
        <ele>1287</ele>
        <time>2012-12-29T12:39:18+01:00</time>
      </trkpt>
      <trkpt lat="46.31633" lon="6.84631">
        <ele>1287</ele>
        <time>2012-12-29T12:39:44+01:00</time>
      </trkpt>
      <trkpt lat="46.31635" lon="6.84624">
        <ele>1287</ele>
        <time>2012-12-29T12:39:52+01:00</time>
      </trkpt>
      <trkpt lat="46.31639" lon="6.8462">
        <ele>1289</ele>
        <time>2012-12-29T12:40:25+01:00</time>
      </trkpt>
      <trkpt lat="46.31646" lon="6.84618">
        <ele>1290</ele>
        <time>2012-12-29T12:40:47+01:00</time>
      </trkpt>
      <trkpt lat="46.31648" lon="6.84611">
        <ele>1293</ele>
        <time>2012-12-29T12:41:15+01:00</time>
      </trkpt>
      <trkpt lat="46.31654" lon="6.84605">
        <ele>1294</ele>
        <time>2012-12-29T12:41:26+01:00</time>
      </trkpt>
      <trkpt lat="46.3166" lon="6.84601">
        <ele>1294</ele>
        <time>2012-12-29T12:41:38+01:00</time>
      </trkpt>
      <trkpt lat="46.31664" lon="6.84594">
        <ele>1294</ele>
        <time>2012-12-29T12:41:43+01:00</time>
      </trkpt>
      <trkpt lat="46.3167" lon="6.84594">
        <ele>1295</ele>
        <time>2012-12-29T12:41:58+01:00</time>
      </trkpt>
      <trkpt lat="46.3167" lon="6.84584">
        <ele>1295</ele>
        <time>2012-12-29T12:42:01+01:00</time>
      </trkpt>
      <trkpt lat="46.31674" lon="6.84577">
        <ele>1295</ele>
        <time>2012-12-29T12:42:22+01:00</time>
      </trkpt>
      <trkpt lat="46.31677" lon="6.84571">
        <ele>1301</ele>
        <time>2012-12-29T12:43:09+01:00</time>
      </trkpt>
      <trkpt lat="46.31673" lon="6.84564">
        <ele>1303</ele>
        <time>2012-12-29T12:43:28+01:00</time>
      </trkpt>
      <trkpt lat="46.31677" lon="6.84568">
        <ele>1303</ele>
        <time>2012-12-29T12:43:41+01:00</time>
      </trkpt>
      <trkpt lat="46.3167" lon="6.84554">
        <ele>1303</ele>
        <time>2012-12-29T12:43:46+01:00</time>
      </trkpt>
      <trkpt lat="46.31666" lon="6.84545">
        <ele>1302</ele>
        <time>2012-12-29T12:43:55+01:00</time>
      </trkpt>
      <trkpt lat="46.31665" lon="6.84551">
        <ele>1303</ele>
        <time>2012-12-29T12:44:15+01:00</time>
      </trkpt>
      <trkpt lat="46.31667" lon="6.84543">
        <ele>1303</ele>
        <time>2012-12-29T12:44:19+01:00</time>
      </trkpt>
      <trkpt lat="46.31662" lon="6.84543">
        <ele>1307</ele>
        <time>2012-12-29T12:44:33+01:00</time>
      </trkpt>
      <trkpt lat="46.31655" lon="6.84541">
        <ele>1308</ele>
        <time>2012-12-29T12:45:24+01:00</time>
      </trkpt>
      <trkpt lat="46.31649" lon="6.84532">
        <ele>1307</ele>
        <time>2012-12-29T12:45:32+01:00</time>
      </trkpt>
      <trkpt lat="46.31644" lon="6.84524">
        <ele>1308</ele>
        <time>2012-12-29T12:45:35+01:00</time>
      </trkpt>
      <trkpt lat="46.3164" lon="6.84519">
        <ele>1309</ele>
        <time>2012-12-29T12:45:39+01:00</time>
      </trkpt>
      <trkpt lat="46.31633" lon="6.84521">
        <ele>1308</ele>
        <time>2012-12-29T12:45:46+01:00</time>
      </trkpt>
      <trkpt lat="46.31628" lon="6.84519">
        <ele>1309</ele>
        <time>2012-12-29T12:45:59+01:00</time>
      </trkpt>
      <trkpt lat="46.31622" lon="6.84519">
        <ele>1310</ele>
        <time>2012-12-29T12:46:14+01:00</time>
      </trkpt>
      <trkpt lat="46.31621" lon="6.84525">
        <ele>1310</ele>
        <time>2012-12-29T12:46:25+01:00</time>
      </trkpt>
      <trkpt lat="46.31616" lon="6.84526">
        <ele>1310</ele>
        <time>2012-12-29T12:46:30+01:00</time>
      </trkpt>
      <trkpt lat="46.3161" lon="6.84523">
        <ele>1312</ele>
        <time>2012-12-29T12:46:48+01:00</time>
      </trkpt>
      <trkpt lat="46.31607" lon="6.84515">
        <ele>1312</ele>
        <time>2012-12-29T12:46:51+01:00</time>
      </trkpt>
      <trkpt lat="46.31599" lon="6.84513">
        <ele>1314</ele>
        <time>2012-12-29T12:47:12+01:00</time>
      </trkpt>
      <trkpt lat="46.3159" lon="6.84513">
        <ele>1319</ele>
        <time>2012-12-29T12:47:18+01:00</time>
      </trkpt>
      <trkpt lat="46.31586" lon="6.84513">
        <ele>1321</ele>
        <time>2012-12-29T12:47:38+01:00</time>
      </trkpt>
      <trkpt lat="46.3158" lon="6.84506">
        <ele>1321</ele>
        <time>2012-12-29T12:47:44+01:00</time>
      </trkpt>
      <trkpt lat="46.31575" lon="6.84506">
        <ele>1327</ele>
        <time>2012-12-29T12:48:35+01:00</time>
      </trkpt>
      <trkpt lat="46.31571" lon="6.84502">
        <ele>1329</ele>
        <time>2012-12-29T12:48:49+01:00</time>
      </trkpt>
      <trkpt lat="46.31567" lon="6.84498">
        <ele>1333</ele>
        <time>2012-12-29T12:49:16+01:00</time>
      </trkpt>
      <trkpt lat="46.31563" lon="6.84491">
        <ele>1334</ele>
        <time>2012-12-29T12:49:26+01:00</time>
      </trkpt>
      <trkpt lat="46.31559" lon="6.84485">
        <ele>1336</ele>
        <time>2012-12-29T12:49:49+01:00</time>
      </trkpt>
      <trkpt lat="46.31551" lon="6.84466">
        <ele>1338</ele>
        <time>2012-12-29T12:49:55+01:00</time>
      </trkpt>
      <trkpt lat="46.31547" lon="6.84459">
        <ele>1339</ele>
        <time>2012-12-29T12:49:59+01:00</time>
      </trkpt>
      <trkpt lat="46.31543" lon="6.84455">
        <ele>1339</ele>
        <time>2012-12-29T12:50:15+01:00</time>
      </trkpt>
      <trkpt lat="46.31548" lon="6.8445">
        <ele>1340</ele>
        <time>2012-12-29T12:50:35+01:00</time>
      </trkpt>
      <trkpt lat="46.31553" lon="6.84448">
        <ele>1341</ele>
        <time>2012-12-29T12:50:37+01:00</time>
      </trkpt>
      <trkpt lat="46.31564" lon="6.84444">
        <ele>1343</ele>
        <time>2012-12-29T12:50:53+01:00</time>
      </trkpt>
      <trkpt lat="46.31572" lon="6.84442">
        <ele>1343</ele>
        <time>2012-12-29T12:51:12+01:00</time>
      </trkpt>
      <trkpt lat="46.31576" lon="6.84438">
        <ele>1343</ele>
        <time>2012-12-29T12:51:14+01:00</time>
      </trkpt>
      <trkpt lat="46.31584" lon="6.84431">
        <ele>1344</ele>
        <time>2012-12-29T12:51:40+01:00</time>
      </trkpt>
      <trkpt lat="46.31591" lon="6.84427">
        <ele>1346</ele>
        <time>2012-12-29T12:51:47+01:00</time>
      </trkpt>
      <trkpt lat="46.31596" lon="6.84429">
        <ele>1348</ele>
        <time>2012-12-29T12:51:53+01:00</time>
      </trkpt>
      <trkpt lat="46.31595" lon="6.84435">
        <ele>1348</ele>
        <time>2012-12-29T12:52:00+01:00</time>
      </trkpt>
      <trkpt lat="46.316" lon="6.84433">
        <ele>1351</ele>
        <time>2012-12-29T12:52:27+01:00</time>
      </trkpt>
      <trkpt lat="46.31605" lon="6.84431">
        <ele>1352</ele>
        <time>2012-12-29T12:52:51+01:00</time>
      </trkpt>
      <trkpt lat="46.31611" lon="6.84428">
        <ele>1352</ele>
        <time>2012-12-29T12:52:52+01:00</time>
      </trkpt>
      <trkpt lat="46.31621" lon="6.84427">
        <ele>1352</ele>
        <time>2012-12-29T12:53:15+01:00</time>
      </trkpt>
      <trkpt lat="46.31625" lon="6.84423">
        <ele>1353</ele>
        <time>2012-12-29T12:53:20+01:00</time>
      </trkpt>
      <trkpt lat="46.31632" lon="6.84418">
        <ele>1354</ele>
        <time>2012-12-29T12:53:23+01:00</time>
      </trkpt>
      <trkpt lat="46.31636" lon="6.84416">
        <ele>1354</ele>
        <time>2012-12-29T12:53:26+01:00</time>
      </trkpt>
      <trkpt lat="46.31642" lon="6.8442">
        <ele>1355</ele>
        <time>2012-12-29T12:53:52+01:00</time>
      </trkpt>
      <trkpt lat="46.31645" lon="6.84417">
        <ele>1355</ele>
        <time>2012-12-29T12:53:53+01:00</time>
      </trkpt>
      <trkpt lat="46.3165" lon="6.84412">
        <ele>1355</ele>
        <time>2012-12-29T12:54:04+01:00</time>
      </trkpt>
      <trkpt lat="46.31651" lon="6.84405">
        <ele>1355</ele>
        <time>2012-12-29T12:54:13+01:00</time>
      </trkpt>
      <trkpt lat="46.31654" lon="6.84412">
        <ele>1355</ele>
        <time>2012-12-29T12:54:20+01:00</time>
      </trkpt>
      <trkpt lat="46.31658" lon="6.84416">
        <ele>1355</ele>
        <time>2012-12-29T12:54:33+01:00</time>
      </trkpt>
      <trkpt lat="46.31665" lon="6.8441">
        <ele>1356</ele>
        <time>2012-12-29T12:54:40+01:00</time>
      </trkpt>
      <trkpt lat="46.31672" lon="6.8441">
        <ele>1356</ele>
        <time>2012-12-29T12:54:50+01:00</time>
      </trkpt>
      <trkpt lat="46.31677" lon="6.84412">
        <ele>1356</ele>
        <time>2012-12-29T12:55:04+01:00</time>
      </trkpt>
      <trkpt lat="46.31677" lon="6.84419">
        <ele>1357</ele>
        <time>2012-12-29T12:55:06+01:00</time>
      </trkpt>
      <trkpt lat="46.31686" lon="6.84415">
        <ele>1358</ele>
        <time>2012-12-29T12:55:09+01:00</time>
      </trkpt>
      <trkpt lat="46.31696" lon="6.84412">
        <ele>1358</ele>
        <time>2012-12-29T12:55:16+01:00</time>
      </trkpt>
      <trkpt lat="46.317" lon="6.84416">
        <ele>1359</ele>
        <time>2012-12-29T12:55:28+01:00</time>
      </trkpt>
      <trkpt lat="46.31704" lon="6.8441">
        <ele>1360</ele>
        <time>2012-12-29T12:55:32+01:00</time>
      </trkpt>
      <trkpt lat="46.3171" lon="6.84412">
        <ele>1363</ele>
        <time>2012-12-29T12:55:53+01:00</time>
      </trkpt>
      <trkpt lat="46.31715" lon="6.84414">
        <ele>1364</ele>
        <time>2012-12-29T12:55:55+01:00</time>
      </trkpt>
      <trkpt lat="46.31721" lon="6.84414">
        <ele>1364</ele>
        <time>2012-12-29T12:55:59+01:00</time>
      </trkpt>
      <trkpt lat="46.31727" lon="6.84414">
        <ele>1364</ele>
        <time>2012-12-29T12:56:05+01:00</time>
      </trkpt>
      <trkpt lat="46.31733" lon="6.84416">
        <ele>1364</ele>
        <time>2012-12-29T12:56:09+01:00</time>
      </trkpt>
      <trkpt lat="46.31743" lon="6.84416">
        <ele>1364</ele>
        <time>2012-12-29T12:56:26+01:00</time>
      </trkpt>
      <trkpt lat="46.31746" lon="6.84422">
        <ele>1365</ele>
        <time>2012-12-29T12:56:31+01:00</time>
      </trkpt>
      <trkpt lat="46.31749" lon="6.84423">
        <ele>1365</ele>
        <time>2012-12-29T12:56:32+01:00</time>
      </trkpt>
      <trkpt lat="46.31757" lon="6.84425">
        <ele>1365</ele>
        <time>2012-12-29T12:56:35+01:00</time>
      </trkpt>
      <trkpt lat="46.31762" lon="6.84425">
        <ele>1365</ele>
        <time>2012-12-29T12:56:42+01:00</time>
      </trkpt>
      <trkpt lat="46.31767" lon="6.84425">
        <ele>1367</ele>
        <time>2012-12-29T12:56:59+01:00</time>
      </trkpt>
      <trkpt lat="46.31773" lon="6.84422">
        <ele>1368</ele>
        <time>2012-12-29T12:57:23+01:00</time>
      </trkpt>
      <trkpt lat="46.31779" lon="6.84422">
        <ele>1368</ele>
        <time>2012-12-29T12:57:29+01:00</time>
      </trkpt>
      <trkpt lat="46.3179" lon="6.84422">
        <ele>1368</ele>
        <time>2012-12-29T12:57:36+01:00</time>
      </trkpt>
      <trkpt lat="46.31796" lon="6.84421">
        <ele>1368</ele>
        <time>2012-12-29T12:57:38+01:00</time>
      </trkpt>
      <trkpt lat="46.31803" lon="6.84422">
        <ele>1368</ele>
        <time>2012-12-29T12:57:41+01:00</time>
      </trkpt>
      <trkpt lat="46.3181" lon="6.84423">
        <ele>1369</ele>
        <time>2012-12-29T12:57:45+01:00</time>
      </trkpt>
      <trkpt lat="46.31815" lon="6.84421">
        <ele>1369</ele>
        <time>2012-12-29T12:57:47+01:00</time>
      </trkpt>
      <trkpt lat="46.31822" lon="6.8442">
        <ele>1370</ele>
        <time>2012-12-29T12:58:14+01:00</time>
      </trkpt>
      <trkpt lat="46.31828" lon="6.8442">
        <ele>1370</ele>
        <time>2012-12-29T12:58:27+01:00</time>
      </trkpt>
      <trkpt lat="46.31834" lon="6.84422">
        <ele>1370</ele>
        <time>2012-12-29T12:58:37+01:00</time>
      </trkpt>
      <trkpt lat="46.31839" lon="6.84423">
        <ele>1371</ele>
        <time>2012-12-29T12:58:42+01:00</time>
      </trkpt>
      <trkpt lat="46.31846" lon="6.84422">
        <ele>1372</ele>
        <time>2012-12-29T12:59:07+01:00</time>
      </trkpt>
      <trkpt lat="46.31851" lon="6.8442">
        <ele>1372</ele>
        <time>2012-12-29T12:59:19+01:00</time>
      </trkpt>
      <trkpt lat="46.31863" lon="6.8442">
        <ele>1372</ele>
        <time>2012-12-29T12:59:41+01:00</time>
      </trkpt>
      <trkpt lat="46.31868" lon="6.84422">
        <ele>1373</ele>
        <time>2012-12-29T12:59:46+01:00</time>
      </trkpt>
      <trkpt lat="46.31874" lon="6.84425">
        <ele>1373</ele>
        <time>2012-12-29T12:59:59+01:00</time>
      </trkpt>
      <trkpt lat="46.3188" lon="6.84429">
        <ele>1374</ele>
        <time>2012-12-29T13:00:08+01:00</time>
      </trkpt>
      <trkpt lat="46.31884" lon="6.84433">
        <ele>1374</ele>
        <time>2012-12-29T13:01:12+01:00</time>
      </trkpt>
      <trkpt lat="46.3189" lon="6.84433">
        <ele>1374</ele>
        <time>2012-12-29T13:01:15+01:00</time>
      </trkpt>
      <trkpt lat="46.319" lon="6.84437">
        <ele>1374</ele>
        <time>2012-12-29T13:01:27+01:00</time>
      </trkpt>
      <trkpt lat="46.31904" lon="6.84436">
        <ele>1375</ele>
        <time>2012-12-29T13:01:28+01:00</time>
      </trkpt>
      <trkpt lat="46.3191" lon="6.84435">
        <ele>1375</ele>
        <time>2012-12-29T13:01:38+01:00</time>
      </trkpt>
      <trkpt lat="46.31914" lon="6.8444">
        <ele>1375</ele>
        <time>2012-12-29T13:01:44+01:00</time>
      </trkpt>
      <trkpt lat="46.31919" lon="6.84442">
        <ele>1375</ele>
        <time>2012-12-29T13:02:30+01:00</time>
      </trkpt>
      <trkpt lat="46.31924" lon="6.84446">
        <ele>1375</ele>
        <time>2012-12-29T13:02:37+01:00</time>
      </trkpt>
      <trkpt lat="46.31927" lon="6.8445">
        <ele>1375</ele>
        <time>2012-12-29T13:02:48+01:00</time>
      </trkpt>
      <trkpt lat="46.31932" lon="6.84453">
        <ele>1375</ele>
        <time>2012-12-29T13:03:09+01:00</time>
      </trkpt>
      <trkpt lat="46.31937" lon="6.84457">
        <ele>1374</ele>
        <time>2012-12-29T13:03:35+01:00</time>
      </trkpt>
      <trkpt lat="46.31941" lon="6.84461">
        <ele>1374</ele>
        <time>2012-12-29T13:03:58+01:00</time>
      </trkpt>
      <trkpt lat="46.31944" lon="6.84465">
        <ele>1374</ele>
        <time>2012-12-29T13:04:03+01:00</time>
      </trkpt>
      <trkpt lat="46.3195" lon="6.84468">
        <ele>1374</ele>
        <time>2012-12-29T13:04:21+01:00</time>
      </trkpt>
      <trkpt lat="46.31955" lon="6.84476">
        <ele>1375</ele>
        <time>2012-12-29T13:04:27+01:00</time>
      </trkpt>
      <trkpt lat="46.31962" lon="6.8448">
        <ele>1376</ele>
        <time>2012-12-29T13:04:31+01:00</time>
      </trkpt>
      <trkpt lat="46.31964" lon="6.84486">
        <ele>1378</ele>
        <time>2012-12-29T13:04:32+01:00</time>
      </trkpt>
      <trkpt lat="46.31967" lon="6.84491">
        <ele>1378</ele>
        <time>2012-12-29T13:04:39+01:00</time>
      </trkpt>
      <trkpt lat="46.31971" lon="6.84495">
        <ele>1377</ele>
        <time>2012-12-29T13:04:54+01:00</time>
      </trkpt>
      <trkpt lat="46.31973" lon="6.84501">
        <ele>1378</ele>
        <time>2012-12-29T13:04:57+01:00</time>
      </trkpt>
      <trkpt lat="46.31975" lon="6.84508">
        <ele>1378</ele>
        <time>2012-12-29T13:05:31+01:00</time>
      </trkpt>
      <trkpt lat="46.31978" lon="6.84512">
        <ele>1378</ele>
        <time>2012-12-29T13:05:33+01:00</time>
      </trkpt>
      <trkpt lat="46.31983" lon="6.84517">
        <ele>1378</ele>
        <time>2012-12-29T13:06:07+01:00</time>
      </trkpt>
      <trkpt lat="46.31988" lon="6.84517">
        <ele>1378</ele>
        <time>2012-12-29T13:06:37+01:00</time>
      </trkpt>
      <trkpt lat="46.31996" lon="6.84513">
        <ele>1379</ele>
        <time>2012-12-29T13:06:49+01:00</time>
      </trkpt>
      <trkpt lat="46.3199" lon="6.84517">
        <ele>1379</ele>
        <time>2012-12-29T13:06:53+01:00</time>
      </trkpt>
      <trkpt lat="46.31993" lon="6.84523">
        <ele>1380</ele>
        <time>2012-12-29T13:07:39+01:00</time>
      </trkpt>
      <trkpt lat="46.31999" lon="6.84528">
        <ele>1381</ele>
        <time>2012-12-29T13:07:58+01:00</time>
      </trkpt>
      <trkpt lat="46.32002" lon="6.84532">
        <ele>1380</ele>
        <time>2012-12-29T13:08:05+01:00</time>
      </trkpt>
      <trkpt lat="46.32006" lon="6.84538">
        <ele>1381</ele>
        <time>2012-12-29T13:08:16+01:00</time>
      </trkpt>
      <trkpt lat="46.32008" lon="6.84545">
        <ele>1385</ele>
        <time>2012-12-29T13:08:20+01:00</time>
      </trkpt>
      <trkpt lat="46.32007" lon="6.84551">
        <ele>1388</ele>
        <time>2012-12-29T13:08:26+01:00</time>
      </trkpt>
      <trkpt lat="46.32013" lon="6.84556">
        <ele>1389</ele>
        <time>2012-12-29T13:08:34+01:00</time>
      </trkpt>
      <trkpt lat="46.32012" lon="6.84562">
        <ele>1392</ele>
        <time>2012-12-29T13:08:37+01:00</time>
      </trkpt>
      <trkpt lat="46.32011" lon="6.84568">
        <ele>1396</ele>
        <time>2012-12-29T13:08:41+01:00</time>
      </trkpt>
      <trkpt lat="46.32012" lon="6.84577">
        <ele>1401</ele>
        <time>2012-12-29T13:09:05+01:00</time>
      </trkpt>
      <trkpt lat="46.3201" lon="6.84586">
        <ele>1408</ele>
        <time>2012-12-29T13:09:27+01:00</time>
      </trkpt>
      <trkpt lat="46.32013" lon="6.84592">
        <ele>1408</ele>
        <time>2012-12-29T13:09:35+01:00</time>
      </trkpt>
      <trkpt lat="46.32012" lon="6.84598">
        <ele>1410</ele>
        <time>2012-12-29T13:10:51+01:00</time>
      </trkpt>
      <trkpt lat="46.32013" lon="6.84605">
        <ele>1410</ele>
        <time>2012-12-29T13:12:32+01:00</time>
      </trkpt>
      <trkpt lat="46.32017" lon="6.84609">
        <ele>1410</ele>
        <time>2012-12-29T13:13:08+01:00</time>
      </trkpt>
      <trkpt lat="46.3202" lon="6.84618">
        <ele>1410</ele>
        <time>2012-12-29T13:13:18+01:00</time>
      </trkpt>
      <trkpt lat="46.32022" lon="6.84626">
        <ele>1410</ele>
        <time>2012-12-29T13:13:55+01:00</time>
      </trkpt>
      <trkpt lat="46.32037" lon="6.84626">
        <ele>1410</ele>
        <time>2012-12-29T13:14:00+01:00</time>
      </trkpt>
      <trkpt lat="46.32043" lon="6.84628">
        <ele>1410</ele>
        <time>2012-12-29T13:14:03+01:00</time>
      </trkpt>
      <trkpt lat="46.32049" lon="6.84631">
        <ele>1410</ele>
        <time>2012-12-29T13:14:11+01:00</time>
      </trkpt>
      <trkpt lat="46.32048" lon="6.84639">
        <ele>1410</ele>
        <time>2012-12-29T13:14:19+01:00</time>
      </trkpt>
      <trkpt lat="46.32049" lon="6.84646">
        <ele>1410</ele>
        <time>2012-12-29T13:14:37+01:00</time>
      </trkpt>
      <trkpt lat="46.32053" lon="6.84652">
        <ele>1410</ele>
        <time>2012-12-29T13:14:46+01:00</time>
      </trkpt>
      <trkpt lat="46.32058" lon="6.84656">
        <ele>1410</ele>
        <time>2012-12-29T13:15:20+01:00</time>
      </trkpt>
      <trkpt lat="46.32062" lon="6.84661">
        <ele>1410</ele>
        <time>2012-12-29T13:15:33+01:00</time>
      </trkpt>
      <trkpt lat="46.32063" lon="6.84671">
        <ele>1410</ele>
        <time>2012-12-29T13:15:41+01:00</time>
      </trkpt>
      <trkpt lat="46.32062" lon="6.84678">
        <ele>1410</ele>
        <time>2012-12-29T13:15:51+01:00</time>
      </trkpt>
      <trkpt lat="46.32058" lon="6.84688">
        <ele>1409</ele>
        <time>2012-12-29T13:15:54+01:00</time>
      </trkpt>
      <trkpt lat="46.32055" lon="6.84694">
        <ele>1410</ele>
        <time>2012-12-29T13:15:54+01:00</time>
      </trkpt>
      <trkpt lat="46.32063" lon="6.84699">
        <ele>1412</ele>
        <time>2012-12-29T13:16:17+01:00</time>
      </trkpt>
      <trkpt lat="46.32071" lon="6.84695">
        <ele>1417</ele>
        <time>2012-12-29T13:17:21+01:00</time>
      </trkpt>
      <trkpt lat="46.3207" lon="6.84689">
        <ele>1415</ele>
        <time>2012-12-29T13:17:22+01:00</time>
      </trkpt>
      <trkpt lat="46.32075" lon="6.84688">
        <ele>1418</ele>
        <time>2012-12-29T13:17:29+01:00</time>
      </trkpt>
      <trkpt lat="46.32077" lon="6.84682">
        <ele>1420</ele>
        <time>2012-12-29T13:17:42+01:00</time>
      </trkpt>
      <trkpt lat="46.32082" lon="6.84674">
        <ele>1422</ele>
        <time>2012-12-29T13:18:15+01:00</time>
      </trkpt>
      <trkpt lat="46.3208" lon="6.84665">
        <ele>1422</ele>
        <time>2012-12-29T13:18:39+01:00</time>
      </trkpt>
      <trkpt lat="46.3208" lon="6.84656">
        <ele>1422</ele>
        <time>2012-12-29T13:18:46+01:00</time>
      </trkpt>
      <trkpt lat="46.32085" lon="6.8465">
        <ele>1423</ele>
        <time>2012-12-29T13:18:59+01:00</time>
      </trkpt>
      <trkpt lat="46.32087" lon="6.84644">
        <ele>1423</ele>
        <time>2012-12-29T13:19:11+01:00</time>
      </trkpt>
      <trkpt lat="46.32087" lon="6.84635">
        <ele>1423</ele>
        <time>2012-12-29T13:19:16+01:00</time>
      </trkpt>
      <trkpt lat="46.32091" lon="6.84631">
        <ele>1423</ele>
        <time>2012-12-29T13:19:21+01:00</time>
      </trkpt>
      <trkpt lat="46.32093" lon="6.84624">
        <ele>1423</ele>
        <time>2012-12-29T13:19:31+01:00</time>
      </trkpt>
      <trkpt lat="46.321" lon="6.8462">
        <ele>1423</ele>
        <time>2012-12-29T13:19:38+01:00</time>
      </trkpt>
      <trkpt lat="46.32103" lon="6.84613">
        <ele>1422</ele>
        <time>2012-12-29T13:19:47+01:00</time>
      </trkpt>
      <trkpt lat="46.32119" lon="6.84623">
        <ele>1423</ele>
        <time>2012-12-29T13:19:50+01:00</time>
      </trkpt>
      <trkpt lat="46.32127" lon="6.8462">
        <ele>1424</ele>
        <time>2012-12-29T13:19:59+01:00</time>
      </trkpt>
      <trkpt lat="46.32137" lon="6.8462">
        <ele>1424</ele>
        <time>2012-12-29T13:20:19+01:00</time>
      </trkpt>
      <trkpt lat="46.32144" lon="6.84622">
        <ele>1423</ele>
        <time>2012-12-29T13:20:29+01:00</time>
      </trkpt>
      <trkpt lat="46.32149" lon="6.84622">
        <ele>1424</ele>
        <time>2012-12-29T13:20:35+01:00</time>
      </trkpt>
      <trkpt lat="46.32153" lon="6.84626">
        <ele>1424</ele>
        <time>2012-12-29T13:20:39+01:00</time>
      </trkpt>
      <trkpt lat="46.32156" lon="6.8462">
        <ele>1424</ele>
        <time>2012-12-29T13:21:56+01:00</time>
      </trkpt>
      <trkpt lat="46.32159" lon="6.84614">
        <ele>1424</ele>
        <time>2012-12-29T13:22:02+01:00</time>
      </trkpt>
      <trkpt lat="46.32158" lon="6.84607">
        <ele>1424</ele>
        <time>2012-12-29T13:22:12+01:00</time>
      </trkpt>
      <trkpt lat="46.32163" lon="6.84603">
        <ele>1424</ele>
        <time>2012-12-29T13:23:03+01:00</time>
      </trkpt>
      <trkpt lat="46.32164" lon="6.84596">
        <ele>1424</ele>
        <time>2012-12-29T13:23:29+01:00</time>
      </trkpt>
      <trkpt lat="46.32167" lon="6.846">
        <ele>1424</ele>
        <time>2012-12-29T13:23:31+01:00</time>
      </trkpt>
      <trkpt lat="46.32174" lon="6.84605">
        <ele>1424</ele>
        <time>2012-12-29T13:23:34+01:00</time>
      </trkpt>
      <trkpt lat="46.32177" lon="6.84599">
        <ele>1424</ele>
        <time>2012-12-29T13:23:44+01:00</time>
      </trkpt>
      <trkpt lat="46.32178" lon="6.84592">
        <ele>1424</ele>
        <time>2012-12-29T13:23:53+01:00</time>
      </trkpt>
      <trkpt lat="46.32183" lon="6.84596">
        <ele>1426</ele>
        <time>2012-12-29T13:24:37+01:00</time>
      </trkpt>
      <trkpt lat="46.3218" lon="6.84588">
        <ele>1426</ele>
        <time>2012-12-29T13:24:58+01:00</time>
      </trkpt>
      <trkpt lat="46.32175" lon="6.84584">
        <ele>1426</ele>
        <time>2012-12-29T13:25:01+01:00</time>
      </trkpt>
      <trkpt lat="46.3217" lon="6.84579">
        <ele>1426</ele>
        <time>2012-12-29T13:25:12+01:00</time>
      </trkpt>
      <trkpt lat="46.32157" lon="6.84568">
        <ele>1427</ele>
        <time>2012-12-29T13:25:14+01:00</time>
      </trkpt>
      <trkpt lat="46.32152" lon="6.84561">
        <ele>1427</ele>
        <time>2012-12-29T13:25:14+01:00</time>
      </trkpt>
      <trkpt lat="46.32153" lon="6.84553">
        <ele>1426</ele>
        <time>2012-12-29T13:25:22+01:00</time>
      </trkpt>
      <trkpt lat="46.32156" lon="6.84547">
        <ele>1426</ele>
        <time>2012-12-29T13:25:29+01:00</time>
      </trkpt>
      <trkpt lat="46.32158" lon="6.84541">
        <ele>1426</ele>
        <time>2012-12-29T13:25:34+01:00</time>
      </trkpt>
      <trkpt lat="46.3216" lon="6.84534">
        <ele>1425</ele>
        <time>2012-12-29T13:25:40+01:00</time>
      </trkpt>
      <trkpt lat="46.32161" lon="6.84528">
        <ele>1425</ele>
        <time>2012-12-29T13:25:46+01:00</time>
      </trkpt>
      <trkpt lat="46.32162" lon="6.84521">
        <ele>1425</ele>
        <time>2012-12-29T13:25:50+01:00</time>
      </trkpt>
      <trkpt lat="46.32163" lon="6.84515">
        <ele>1425</ele>
        <time>2012-12-29T13:25:57+01:00</time>
      </trkpt>
      <trkpt lat="46.32163" lon="6.84506">
        <ele>1425</ele>
        <time>2012-12-29T13:26:05+01:00</time>
      </trkpt>
      <trkpt lat="46.32165" lon="6.845">
        <ele>1424</ele>
        <time>2012-12-29T13:26:11+01:00</time>
      </trkpt>
      <trkpt lat="46.32167" lon="6.84493">
        <ele>1424</ele>
        <time>2012-12-29T13:26:15+01:00</time>
      </trkpt>
      <trkpt lat="46.32169" lon="6.84487">
        <ele>1424</ele>
        <time>2012-12-29T13:26:19+01:00</time>
      </trkpt>
      <trkpt lat="46.32168" lon="6.8448">
        <ele>1424</ele>
        <time>2012-12-29T13:26:23+01:00</time>
      </trkpt>
      <trkpt lat="46.32169" lon="6.84474">
        <ele>1424</ele>
        <time>2012-12-29T13:26:28+01:00</time>
      </trkpt>
      <trkpt lat="46.32169" lon="6.84468">
        <ele>1424</ele>
        <time>2012-12-29T13:26:33+01:00</time>
      </trkpt>
      <trkpt lat="46.32169" lon="6.84461">
        <ele>1424</ele>
        <time>2012-12-29T13:26:37+01:00</time>
      </trkpt>
      <trkpt lat="46.32169" lon="6.84455">
        <ele>1424</ele>
        <time>2012-12-29T13:26:41+01:00</time>
      </trkpt>
      <trkpt lat="46.32169" lon="6.84446">
        <ele>1424</ele>
        <time>2012-12-29T13:26:48+01:00</time>
      </trkpt>
      <trkpt lat="46.32172" lon="6.8444">
        <ele>1424</ele>
        <time>2012-12-29T13:26:54+01:00</time>
      </trkpt>
      <trkpt lat="46.32173" lon="6.84433">
        <ele>1424</ele>
        <time>2012-12-29T13:26:59+01:00</time>
      </trkpt>
      <trkpt lat="46.32172" lon="6.84425">
        <ele>1424</ele>
        <time>2012-12-29T13:27:08+01:00</time>
      </trkpt>
      <trkpt lat="46.32173" lon="6.84418">
        <ele>1424</ele>
        <time>2012-12-29T13:27:12+01:00</time>
      </trkpt>
      <trkpt lat="46.32175" lon="6.84412">
        <ele>1424</ele>
        <time>2012-12-29T13:27:17+01:00</time>
      </trkpt>
      <trkpt lat="46.32175" lon="6.84403">
        <ele>1424</ele>
        <time>2012-12-29T13:27:22+01:00</time>
      </trkpt>
      <trkpt lat="46.32176" lon="6.84397">
        <ele>1423</ele>
        <time>2012-12-29T13:27:26+01:00</time>
      </trkpt>
      <trkpt lat="46.32174" lon="6.8439">
        <ele>1423</ele>
        <time>2012-12-29T13:27:33+01:00</time>
      </trkpt>
      <trkpt lat="46.32173" lon="6.84384">
        <ele>1423</ele>
        <time>2012-12-29T13:27:43+01:00</time>
      </trkpt>
      <trkpt lat="46.32172" lon="6.84377">
        <ele>1423</ele>
        <time>2012-12-29T13:27:50+01:00</time>
      </trkpt>
      <trkpt lat="46.32172" lon="6.84369">
        <ele>1423</ele>
        <time>2012-12-29T13:28:01+01:00</time>
      </trkpt>
      <trkpt lat="46.32171" lon="6.84363">
        <ele>1423</ele>
        <time>2012-12-29T13:28:04+01:00</time>
      </trkpt>
      <trkpt lat="46.32169" lon="6.84356">
        <ele>1423</ele>
        <time>2012-12-29T13:28:10+01:00</time>
      </trkpt>
      <trkpt lat="46.32169" lon="6.84347">
        <ele>1422</ele>
        <time>2012-12-29T13:28:25+01:00</time>
      </trkpt>
      <trkpt lat="46.32169" lon="6.84341">
        <ele>1422</ele>
        <time>2012-12-29T13:28:40+01:00</time>
      </trkpt>
      <trkpt lat="46.32169" lon="6.84335">
        <ele>1422</ele>
        <time>2012-12-29T13:28:48+01:00</time>
      </trkpt>
      <trkpt lat="46.32166" lon="6.84329">
        <ele>1422</ele>
        <time>2012-12-29T13:28:49+01:00</time>
      </trkpt>
      <trkpt lat="46.32162" lon="6.84322">
        <ele>1422</ele>
        <time>2012-12-29T13:28:57+01:00</time>
      </trkpt>
      <trkpt lat="46.3216" lon="6.84315">
        <ele>1422</ele>
        <time>2012-12-29T13:29:02+01:00</time>
      </trkpt>
      <trkpt lat="46.32157" lon="6.84309">
        <ele>1422</ele>
        <time>2012-12-29T13:29:05+01:00</time>
      </trkpt>
      <trkpt lat="46.32154" lon="6.84302">
        <ele>1422</ele>
        <time>2012-12-29T13:29:16+01:00</time>
      </trkpt>
      <trkpt lat="46.32154" lon="6.84292">
        <ele>1422</ele>
        <time>2012-12-29T13:29:21+01:00</time>
      </trkpt>
      <trkpt lat="46.32153" lon="6.84285">
        <ele>1421</ele>
        <time>2012-12-29T13:29:32+01:00</time>
      </trkpt>
      <trkpt lat="46.3215" lon="6.84279">
        <ele>1421</ele>
        <time>2012-12-29T13:29:39+01:00</time>
      </trkpt>
      <trkpt lat="46.32149" lon="6.84272">
        <ele>1421</ele>
        <time>2012-12-29T13:29:47+01:00</time>
      </trkpt>
      <trkpt lat="46.32148" lon="6.84266">
        <ele>1421</ele>
        <time>2012-12-29T13:29:58+01:00</time>
      </trkpt>
      <trkpt lat="46.32149" lon="6.84259">
        <ele>1421</ele>
        <time>2012-12-29T13:30:06+01:00</time>
      </trkpt>
      <trkpt lat="46.32148" lon="6.84251">
        <ele>1421</ele>
        <time>2012-12-29T13:30:14+01:00</time>
      </trkpt>
      <trkpt lat="46.32145" lon="6.84245">
        <ele>1421</ele>
        <time>2012-12-29T13:30:16+01:00</time>
      </trkpt>
      <trkpt lat="46.32143" lon="6.84236">
        <ele>1421</ele>
        <time>2012-12-29T13:30:21+01:00</time>
      </trkpt>
      <trkpt lat="46.32141" lon="6.84229">
        <ele>1421</ele>
        <time>2012-12-29T13:30:26+01:00</time>
      </trkpt>
      <trkpt lat="46.32138" lon="6.84223">
        <ele>1421</ele>
        <time>2012-12-29T13:30:32+01:00</time>
      </trkpt>
      <trkpt lat="46.32137" lon="6.84217">
        <ele>1421</ele>
        <time>2012-12-29T13:30:36+01:00</time>
      </trkpt>
      <trkpt lat="46.32132" lon="6.84204">
        <ele>1421</ele>
        <time>2012-12-29T13:30:44+01:00</time>
      </trkpt>
      <trkpt lat="46.3213" lon="6.84193">
        <ele>1421</ele>
        <time>2012-12-29T13:30:50+01:00</time>
      </trkpt>
      <trkpt lat="46.32129" lon="6.84186">
        <ele>1421</ele>
        <time>2012-12-29T13:31:05+01:00</time>
      </trkpt>
      <trkpt lat="46.3213" lon="6.8418">
        <ele>1421</ele>
        <time>2012-12-29T13:31:14+01:00</time>
      </trkpt>
      <trkpt lat="46.32127" lon="6.84174">
        <ele>1421</ele>
        <time>2012-12-29T13:31:24+01:00</time>
      </trkpt>
      <trkpt lat="46.32125" lon="6.84168">
        <ele>1420</ele>
        <time>2012-12-29T13:31:26+01:00</time>
      </trkpt>
      <trkpt lat="46.32122" lon="6.84159">
        <ele>1420</ele>
        <time>2012-12-29T13:31:29+01:00</time>
      </trkpt>
      <trkpt lat="46.32123" lon="6.84152">
        <ele>1420</ele>
        <time>2012-12-29T13:31:33+01:00</time>
      </trkpt>
      <trkpt lat="46.32122" lon="6.84144">
        <ele>1420</ele>
        <time>2012-12-29T13:31:36+01:00</time>
      </trkpt>
      <trkpt lat="46.32122" lon="6.84135">
        <ele>1420</ele>
        <time>2012-12-29T13:31:42+01:00</time>
      </trkpt>
      <trkpt lat="46.32125" lon="6.84129">
        <ele>1420</ele>
        <time>2012-12-29T13:31:46+01:00</time>
      </trkpt>
      <trkpt lat="46.32129" lon="6.84124">
        <ele>1420</ele>
        <time>2012-12-29T13:31:48+01:00</time>
      </trkpt>
      <trkpt lat="46.32134" lon="6.8412">
        <ele>1420</ele>
        <time>2012-12-29T13:31:49+01:00</time>
      </trkpt>
      <trkpt lat="46.32137" lon="6.84113">
        <ele>1420</ele>
        <time>2012-12-29T13:31:56+01:00</time>
      </trkpt>
      <trkpt lat="46.32142" lon="6.84112">
        <ele>1420</ele>
        <time>2012-12-29T13:31:57+01:00</time>
      </trkpt>
      <trkpt lat="46.32146" lon="6.84107">
        <ele>1423</ele>
        <time>2012-12-29T13:32:12+01:00</time>
      </trkpt>
      <trkpt lat="46.32147" lon="6.84101">
        <ele>1428</ele>
        <time>2012-12-29T13:32:14+01:00</time>
      </trkpt>
      <trkpt lat="46.32146" lon="6.84095">
        <ele>1433</ele>
        <time>2012-12-29T13:32:16+01:00</time>
      </trkpt>
      <trkpt lat="46.32145" lon="6.84088">
        <ele>1439</ele>
        <time>2012-12-29T13:32:18+01:00</time>
      </trkpt>
      <trkpt lat="46.32152" lon="6.84083">
        <ele>1452</ele>
        <time>2012-12-29T13:32:22+01:00</time>
      </trkpt>
      <trkpt lat="46.32157" lon="6.84079">
        <ele>1458</ele>
        <time>2012-12-29T13:32:26+01:00</time>
      </trkpt>
      <trkpt lat="46.32162" lon="6.84077">
        <ele>1470</ele>
        <time>2012-12-29T13:32:32+01:00</time>
      </trkpt>
      <trkpt lat="46.32165" lon="6.84071">
        <ele>1471</ele>
        <time>2012-12-29T13:32:55+01:00</time>
      </trkpt>
      <trkpt lat="46.32164" lon="6.84064">
        <ele>1470</ele>
        <time>2012-12-29T13:33:02+01:00</time>
      </trkpt>
      <trkpt lat="46.32166" lon="6.84058">
        <ele>1470</ele>
        <time>2012-12-29T13:33:11+01:00</time>
      </trkpt>
      <trkpt lat="46.32167" lon="6.84051">
        <ele>1470</ele>
        <time>2012-12-29T13:33:27+01:00</time>
      </trkpt>
      <trkpt lat="46.32169" lon="6.84045">
        <ele>1469</ele>
        <time>2012-12-29T13:33:36+01:00</time>
      </trkpt>
      <trkpt lat="46.32167" lon="6.84038">
        <ele>1468</ele>
        <time>2012-12-29T13:33:48+01:00</time>
      </trkpt>
      <trkpt lat="46.32175" lon="6.84035">
        <ele>1468</ele>
        <time>2012-12-29T13:33:50+01:00</time>
      </trkpt>
      <trkpt lat="46.32179" lon="6.84028">
        <ele>1468</ele>
        <time>2012-12-29T13:33:52+01:00</time>
      </trkpt>
      <trkpt lat="46.32178" lon="6.84021">
        <ele>1467</ele>
        <time>2012-12-29T13:33:56+01:00</time>
      </trkpt>
      <trkpt lat="46.3218" lon="6.84015">
        <ele>1466</ele>
        <time>2012-12-29T13:33:58+01:00</time>
      </trkpt>
      <trkpt lat="46.32177" lon="6.8401">
        <ele>1467</ele>
        <time>2012-12-29T13:34:00+01:00</time>
      </trkpt>
      <trkpt lat="46.32181" lon="6.84006">
        <ele>1466</ele>
        <time>2012-12-29T13:34:05+01:00</time>
      </trkpt>
      <trkpt lat="46.32183" lon="6.84">
        <ele>1466</ele>
        <time>2012-12-29T13:34:07+01:00</time>
      </trkpt>
      <trkpt lat="46.32189" lon="6.83999">
        <ele>1465</ele>
        <time>2012-12-29T13:34:08+01:00</time>
      </trkpt>
      <trkpt lat="46.32194" lon="6.83996">
        <ele>1463</ele>
        <time>2012-12-29T13:34:10+01:00</time>
      </trkpt>
      <trkpt lat="46.32193" lon="6.83989">
        <ele>1464</ele>
        <time>2012-12-29T13:34:22+01:00</time>
      </trkpt>
      <trkpt lat="46.32197" lon="6.83989">
        <ele>1463</ele>
        <time>2012-12-29T13:34:26+01:00</time>
      </trkpt>
      <trkpt lat="46.32198" lon="6.83983">
        <ele>1461</ele>
        <time>2012-12-29T13:34:45+01:00</time>
      </trkpt>
      <trkpt lat="46.32199" lon="6.83976">
        <ele>1460</ele>
        <time>2012-12-29T13:34:50+01:00</time>
      </trkpt>
      <trkpt lat="46.32202" lon="6.8397">
        <ele>1460</ele>
        <time>2012-12-29T13:35:05+01:00</time>
      </trkpt>
      <trkpt lat="46.32203" lon="6.83964">
        <ele>1459</ele>
        <time>2012-12-29T13:35:08+01:00</time>
      </trkpt>
      <trkpt lat="46.32203" lon="6.83955">
        <ele>1460</ele>
        <time>2012-12-29T13:35:20+01:00</time>
      </trkpt>
      <trkpt lat="46.32203" lon="6.83946">
        <ele>1459</ele>
        <time>2012-12-29T13:35:26+01:00</time>
      </trkpt>
      <trkpt lat="46.32204" lon="6.8394">
        <ele>1459</ele>
        <time>2012-12-29T13:35:33+01:00</time>
      </trkpt>
      <trkpt lat="46.32204" lon="6.83931">
        <ele>1458</ele>
        <time>2012-12-29T13:35:45+01:00</time>
      </trkpt>
      <trkpt lat="46.32205" lon="6.83922">
        <ele>1459</ele>
        <time>2012-12-29T13:35:47+01:00</time>
      </trkpt>
      <trkpt lat="46.32203" lon="6.83914">
        <ele>1458</ele>
        <time>2012-12-29T13:35:56+01:00</time>
      </trkpt>
      <trkpt lat="46.32202" lon="6.83908">
        <ele>1458</ele>
        <time>2012-12-29T13:36:02+01:00</time>
      </trkpt>
      <trkpt lat="46.32199" lon="6.83899">
        <ele>1457</ele>
        <time>2012-12-29T13:36:16+01:00</time>
      </trkpt>
      <trkpt lat="46.32192" lon="6.83886">
        <ele>1463</ele>
        <time>2012-12-29T13:36:51+01:00</time>
      </trkpt>
      <trkpt lat="46.3219" lon="6.83874">
        <ele>1472</ele>
        <time>2012-12-29T13:36:55+01:00</time>
      </trkpt>
      <trkpt lat="46.32187" lon="6.83863">
        <ele>1477</ele>
        <time>2012-12-29T13:36:57+01:00</time>
      </trkpt>
      <trkpt lat="46.32182" lon="6.83854">
        <ele>1478</ele>
        <time>2012-12-29T13:37:26+01:00</time>
      </trkpt>
      <trkpt lat="46.3218" lon="6.83845">
        <ele>1480</ele>
        <time>2012-12-29T13:37:28+01:00</time>
      </trkpt>
      <trkpt lat="46.32176" lon="6.83839">
        <ele>1480</ele>
        <time>2012-12-29T13:38:09+01:00</time>
      </trkpt>
      <trkpt lat="46.32175" lon="6.8383">
        <ele>1479</ele>
        <time>2012-12-29T13:38:23+01:00</time>
      </trkpt>
      <trkpt lat="46.32174" lon="6.8382">
        <ele>1479</ele>
        <time>2012-12-29T13:38:27+01:00</time>
      </trkpt>
      <trkpt lat="46.32171" lon="6.83808">
        <ele>1478</ele>
        <time>2012-12-29T13:38:29+01:00</time>
      </trkpt>
      <trkpt lat="46.32169" lon="6.83801">
        <ele>1477</ele>
        <time>2012-12-29T13:38:30+01:00</time>
      </trkpt>
      <trkpt lat="46.3217" lon="6.83791">
        <ele>1479</ele>
        <time>2012-12-29T13:38:39+01:00</time>
      </trkpt>
      <trkpt lat="46.32173" lon="6.83783">
        <ele>1479</ele>
        <time>2012-12-29T13:38:45+01:00</time>
      </trkpt>
      <trkpt lat="46.32166" lon="6.83764">
        <ele>1480</ele>
        <time>2012-12-29T13:38:47+01:00</time>
      </trkpt>
      <trkpt lat="46.32164" lon="6.8375">
        <ele>1480</ele>
        <time>2012-12-29T13:38:54+01:00</time>
      </trkpt>
      <trkpt lat="46.32162" lon="6.83745">
        <ele>1481</ele>
        <time>2012-12-29T13:38:55+01:00</time>
      </trkpt>
      <trkpt lat="46.3216" lon="6.83738">
        <ele>1480</ele>
        <time>2012-12-29T13:38:57+01:00</time>
      </trkpt>
      <trkpt lat="46.32157" lon="6.83727">
        <ele>1479</ele>
        <time>2012-12-29T13:39:02+01:00</time>
      </trkpt>
      <trkpt lat="46.32159" lon="6.83721">
        <ele>1479</ele>
        <time>2012-12-29T13:39:27+01:00</time>
      </trkpt>
      <trkpt lat="46.32161" lon="6.83712">
        <ele>1480</ele>
        <time>2012-12-29T13:39:32+01:00</time>
      </trkpt>
      <trkpt lat="46.32159" lon="6.83706">
        <ele>1479</ele>
        <time>2012-12-29T13:39:34+01:00</time>
      </trkpt>
      <trkpt lat="46.32161" lon="6.83695">
        <ele>1480</ele>
        <time>2012-12-29T13:39:53+01:00</time>
      </trkpt>
      <trkpt lat="46.32165" lon="6.8368">
        <ele>1480</ele>
        <time>2012-12-29T13:40:02+01:00</time>
      </trkpt>
      <trkpt lat="46.32169" lon="6.83671">
        <ele>1483</ele>
        <time>2012-12-29T13:40:15+01:00</time>
      </trkpt>
      <trkpt lat="46.32172" lon="6.8365">
        <ele>1492</ele>
        <time>2012-12-29T13:40:28+01:00</time>
      </trkpt>
      <trkpt lat="46.32169" lon="6.83637">
        <ele>1503</ele>
        <time>2012-12-29T13:41:10+01:00</time>
      </trkpt>
      <trkpt lat="46.32177" lon="6.83616">
        <ele>1506</ele>
        <time>2012-12-29T13:41:34+01:00</time>
      </trkpt>
      <trkpt lat="46.32178" lon="6.83608">
        <ele>1506</ele>
        <time>2012-12-29T13:41:36+01:00</time>
      </trkpt>
      <trkpt lat="46.32177" lon="6.83598">
        <ele>1507</ele>
        <time>2012-12-29T13:41:43+01:00</time>
      </trkpt>
      <trkpt lat="46.32175" lon="6.83575">
        <ele>1512</ele>
        <time>2012-12-29T13:43:08+01:00</time>
      </trkpt>
      <trkpt lat="46.32176" lon="6.83565">
        <ele>1513</ele>
        <time>2012-12-29T13:43:09+01:00</time>
      </trkpt>
      <trkpt lat="46.32178" lon="6.83555">
        <ele>1513</ele>
        <time>2012-12-29T13:43:22+01:00</time>
      </trkpt>
      <trkpt lat="46.3218" lon="6.83549">
        <ele>1513</ele>
        <time>2012-12-29T13:43:23+01:00</time>
      </trkpt>
      <trkpt lat="46.32179" lon="6.83532">
        <ele>1518</ele>
        <time>2012-12-29T13:44:35+01:00</time>
      </trkpt>
      <trkpt lat="46.32181" lon="6.83513">
        <ele>1519</ele>
        <time>2012-12-29T13:44:40+01:00</time>
      </trkpt>
      <trkpt lat="46.32182" lon="6.83502">
        <ele>1523</ele>
        <time>2012-12-29T13:44:51+01:00</time>
      </trkpt>
      <trkpt lat="46.32183" lon="6.83489">
        <ele>1524</ele>
        <time>2012-12-29T13:45:01+01:00</time>
      </trkpt>
      <trkpt lat="46.32183" lon="6.83484">
        <ele>1526</ele>
        <time>2012-12-29T13:45:02+01:00</time>
      </trkpt>
      <trkpt lat="46.32186" lon="6.8347">
        <ele>1526</ele>
        <time>2012-12-29T13:45:22+01:00</time>
      </trkpt>
      <trkpt lat="46.32183" lon="6.83459">
        <ele>1526</ele>
        <time>2012-12-29T13:45:34+01:00</time>
      </trkpt>
      <trkpt lat="46.32183" lon="6.83454">
        <ele>1526</ele>
        <time>2012-12-29T13:45:35+01:00</time>
      </trkpt>
      <trkpt lat="46.32181" lon="6.83444">
        <ele>1525</ele>
        <time>2012-12-29T13:45:41+01:00</time>
      </trkpt>
      <trkpt lat="46.32181" lon="6.83435">
        <ele>1525</ele>
        <time>2012-12-29T13:45:49+01:00</time>
      </trkpt>
      <trkpt lat="46.32182" lon="6.83428">
        <ele>1527</ele>
        <time>2012-12-29T13:45:51+01:00</time>
      </trkpt>
      <trkpt lat="46.32183" lon="6.83421">
        <ele>1528</ele>
        <time>2012-12-29T13:45:52+01:00</time>
      </trkpt>
      <trkpt lat="46.32184" lon="6.83412">
        <ele>1531</ele>
        <time>2012-12-29T13:45:54+01:00</time>
      </trkpt>
      <trkpt lat="46.32181" lon="6.83403">
        <ele>1529</ele>
        <time>2012-12-29T13:45:57+01:00</time>
      </trkpt>
      <trkpt lat="46.32179" lon="6.83397">
        <ele>1529</ele>
        <time>2012-12-29T13:46:02+01:00</time>
      </trkpt>
      <trkpt lat="46.32177" lon="6.8339">
        <ele>1530</ele>
        <time>2012-12-29T13:47:11+01:00</time>
      </trkpt>
      <trkpt lat="46.32176" lon="6.83384">
        <ele>1530</ele>
        <time>2012-12-29T13:47:15+01:00</time>
      </trkpt>
      <trkpt lat="46.32177" lon="6.83378">
        <ele>1529</ele>
        <time>2012-12-29T13:47:19+01:00</time>
      </trkpt>
      <trkpt lat="46.32175" lon="6.83369">
        <ele>1529</ele>
        <time>2012-12-29T13:47:23+01:00</time>
      </trkpt>
      <trkpt lat="46.32175" lon="6.8336">
        <ele>1529</ele>
        <time>2012-12-29T13:47:31+01:00</time>
      </trkpt>
      <trkpt lat="46.32175" lon="6.83352">
        <ele>1529</ele>
        <time>2012-12-29T13:47:36+01:00</time>
      </trkpt>
      <trkpt lat="46.32174" lon="6.83346">
        <ele>1529</ele>
        <time>2012-12-29T13:47:38+01:00</time>
      </trkpt>
      <trkpt lat="46.32175" lon="6.83339">
        <ele>1529</ele>
        <time>2012-12-29T13:47:43+01:00</time>
      </trkpt>
      <trkpt lat="46.32176" lon="6.83332">
        <ele>1529</ele>
        <time>2012-12-29T13:47:47+01:00</time>
      </trkpt>
      <trkpt lat="46.32175" lon="6.83326">
        <ele>1529</ele>
        <time>2012-12-29T13:47:50+01:00</time>
      </trkpt>
      <trkpt lat="46.32176" lon="6.8332">
        <ele>1529</ele>
        <time>2012-12-29T13:47:54+01:00</time>
      </trkpt>
      <trkpt lat="46.32175" lon="6.83313">
        <ele>1529</ele>
        <time>2012-12-29T13:47:56+01:00</time>
      </trkpt>
      <trkpt lat="46.32174" lon="6.83302">
        <ele>1528</ele>
        <time>2012-12-29T13:48:00+01:00</time>
      </trkpt>
      <trkpt lat="46.32173" lon="6.83296">
        <ele>1529</ele>
        <time>2012-12-29T13:48:02+01:00</time>
      </trkpt>
      <trkpt lat="46.32172" lon="6.8329">
        <ele>1529</ele>
        <time>2012-12-29T13:48:03+01:00</time>
      </trkpt>
      <trkpt lat="46.3217" lon="6.83283">
        <ele>1529</ele>
        <time>2012-12-29T13:48:07+01:00</time>
      </trkpt>
      <trkpt lat="46.32169" lon="6.83277">
        <ele>1530</ele>
        <time>2012-12-29T13:48:14+01:00</time>
      </trkpt>
      <trkpt lat="46.32169" lon="6.8327">
        <ele>1532</ele>
        <time>2012-12-29T13:48:27+01:00</time>
      </trkpt>
      <trkpt lat="46.32167" lon="6.83264">
        <ele>1533</ele>
        <time>2012-12-29T13:48:36+01:00</time>
      </trkpt>
      <trkpt lat="46.32166" lon="6.83257">
        <ele>1534</ele>
        <time>2012-12-29T13:48:44+01:00</time>
      </trkpt>
      <trkpt lat="46.32164" lon="6.83249">
        <ele>1533</ele>
        <time>2012-12-29T13:48:48+01:00</time>
      </trkpt>
      <trkpt lat="46.32163" lon="6.83243">
        <ele>1533</ele>
        <time>2012-12-29T13:48:50+01:00</time>
      </trkpt>
      <trkpt lat="46.32164" lon="6.83236">
        <ele>1534</ele>
        <time>2012-12-29T13:49:07+01:00</time>
      </trkpt>
      <trkpt lat="46.32162" lon="6.8323">
        <ele>1535</ele>
        <time>2012-12-29T13:49:10+01:00</time>
      </trkpt>
      <trkpt lat="46.32161" lon="6.83221">
        <ele>1538</ele>
        <time>2012-12-29T13:49:14+01:00</time>
      </trkpt>
      <trkpt lat="46.32162" lon="6.83214">
        <ele>1544</ele>
        <time>2012-12-29T13:49:18+01:00</time>
      </trkpt>
      <trkpt lat="46.32163" lon="6.83206">
        <ele>1550</ele>
        <time>2012-12-29T13:49:24+01:00</time>
      </trkpt>
      <trkpt lat="46.32164" lon="6.83199">
        <ele>1555</ele>
        <time>2012-12-29T13:49:28+01:00</time>
      </trkpt>
      <trkpt lat="46.32165" lon="6.83193">
        <ele>1559</ele>
        <time>2012-12-29T13:49:34+01:00</time>
      </trkpt>
      <trkpt lat="46.32166" lon="6.83187">
        <ele>1562</ele>
        <time>2012-12-29T13:49:39+01:00</time>
      </trkpt>
      <trkpt lat="46.32169" lon="6.8318">
        <ele>1565</ele>
        <time>2012-12-29T13:49:44+01:00</time>
      </trkpt>
      <trkpt lat="46.32169" lon="6.83172">
        <ele>1565</ele>
        <time>2012-12-29T13:49:51+01:00</time>
      </trkpt>
      <trkpt lat="46.32169" lon="6.83163">
        <ele>1565</ele>
        <time>2012-12-29T13:49:57+01:00</time>
      </trkpt>
      <trkpt lat="46.32169" lon="6.83156">
        <ele>1567</ele>
        <time>2012-12-29T13:50:04+01:00</time>
      </trkpt>
      <trkpt lat="46.32169" lon="6.83148">
        <ele>1567</ele>
        <time>2012-12-29T13:50:11+01:00</time>
      </trkpt>
      <trkpt lat="46.32169" lon="6.83141">
        <ele>1569</ele>
        <time>2012-12-29T13:50:22+01:00</time>
      </trkpt>
      <trkpt lat="46.32169" lon="6.83135">
        <ele>1569</ele>
        <time>2012-12-29T13:50:26+01:00</time>
      </trkpt>
      <trkpt lat="46.3217" lon="6.83129">
        <ele>1570</ele>
        <time>2012-12-29T13:51:14+01:00</time>
      </trkpt>
      <trkpt lat="46.32173" lon="6.83122">
        <ele>1570</ele>
        <time>2012-12-29T13:51:24+01:00</time>
      </trkpt>
      <trkpt lat="46.32177" lon="6.83116">
        <ele>1569</ele>
        <time>2012-12-29T13:51:30+01:00</time>
      </trkpt>
      <trkpt lat="46.32179" lon="6.83109">
        <ele>1570</ele>
        <time>2012-12-29T13:51:36+01:00</time>
      </trkpt>
      <trkpt lat="46.32178" lon="6.83103">
        <ele>1570</ele>
        <time>2012-12-29T13:51:41+01:00</time>
      </trkpt>
      <trkpt lat="46.32179" lon="6.83096">
        <ele>1571</ele>
        <time>2012-12-29T13:51:45+01:00</time>
      </trkpt>
      <trkpt lat="46.32178" lon="6.8309">
        <ele>1571</ele>
        <time>2012-12-29T13:51:52+01:00</time>
      </trkpt>
      <trkpt lat="46.32179" lon="6.83081">
        <ele>1570</ele>
        <time>2012-12-29T13:52:00+01:00</time>
      </trkpt>
      <trkpt lat="46.32179" lon="6.83073">
        <ele>1570</ele>
        <time>2012-12-29T13:52:07+01:00</time>
      </trkpt>
      <trkpt lat="46.32181" lon="6.83066">
        <ele>1570</ele>
        <time>2012-12-29T13:52:13+01:00</time>
      </trkpt>
      <trkpt lat="46.32182" lon="6.8306">
        <ele>1570</ele>
        <time>2012-12-29T13:52:18+01:00</time>
      </trkpt>
      <trkpt lat="46.32182" lon="6.83051">
        <ele>1571</ele>
        <time>2012-12-29T13:52:25+01:00</time>
      </trkpt>
      <trkpt lat="46.32183" lon="6.83045">
        <ele>1573</ele>
        <time>2012-12-29T13:52:34+01:00</time>
      </trkpt>
      <trkpt lat="46.32186" lon="6.83038">
        <ele>1573</ele>
        <time>2012-12-29T13:52:41+01:00</time>
      </trkpt>
      <trkpt lat="46.32187" lon="6.83032">
        <ele>1572</ele>
        <time>2012-12-29T13:52:47+01:00</time>
      </trkpt>
      <trkpt lat="46.32187" lon="6.83023">
        <ele>1572</ele>
        <time>2012-12-29T13:52:55+01:00</time>
      </trkpt>
      <trkpt lat="46.32186" lon="6.83017">
        <ele>1572</ele>
        <time>2012-12-29T13:53:06+01:00</time>
      </trkpt>
      <trkpt lat="46.32186" lon="6.83011">
        <ele>1573</ele>
        <time>2012-12-29T13:53:13+01:00</time>
      </trkpt>
      <trkpt lat="46.32188" lon="6.83004">
        <ele>1574</ele>
        <time>2012-12-29T13:53:23+01:00</time>
      </trkpt>
      <trkpt lat="46.32188" lon="6.82996">
        <ele>1575</ele>
        <time>2012-12-29T13:53:34+01:00</time>
      </trkpt>
      <trkpt lat="46.3219" lon="6.82989">
        <ele>1575</ele>
        <time>2012-12-29T13:53:41+01:00</time>
      </trkpt>
      <trkpt lat="46.32191" lon="6.82983">
        <ele>1575</ele>
        <time>2012-12-29T13:53:50+01:00</time>
      </trkpt>
      <trkpt lat="46.32192" lon="6.82976">
        <ele>1576</ele>
        <time>2012-12-29T13:53:58+01:00</time>
      </trkpt>
      <trkpt lat="46.32191" lon="6.8297">
        <ele>1581</ele>
        <time>2012-12-29T13:54:11+01:00</time>
      </trkpt>
      <trkpt lat="46.3219" lon="6.82963">
        <ele>1582</ele>
        <time>2012-12-29T13:54:17+01:00</time>
      </trkpt>
      <trkpt lat="46.32192" lon="6.82957">
        <ele>1581</ele>
        <time>2012-12-29T13:54:49+01:00</time>
      </trkpt>
      <trkpt lat="46.32193" lon="6.82948">
        <ele>1582</ele>
        <time>2012-12-29T13:55:10+01:00</time>
      </trkpt>
      <trkpt lat="46.32194" lon="6.82942">
        <ele>1583</ele>
        <time>2012-12-29T13:55:18+01:00</time>
      </trkpt>
      <trkpt lat="46.32195" lon="6.82936">
        <ele>1583</ele>
        <time>2012-12-29T13:55:23+01:00</time>
      </trkpt>
      <trkpt lat="46.32196" lon="6.82929">
        <ele>1584</ele>
        <time>2012-12-29T13:55:32+01:00</time>
      </trkpt>
      <trkpt lat="46.32198" lon="6.82921">
        <ele>1586</ele>
        <time>2012-12-29T13:55:39+01:00</time>
      </trkpt>
      <trkpt lat="46.32198" lon="6.82912">
        <ele>1588</ele>
        <time>2012-12-29T13:55:48+01:00</time>
      </trkpt>
      <trkpt lat="46.32198" lon="6.82905">
        <ele>1588</ele>
        <time>2012-12-29T13:55:53+01:00</time>
      </trkpt>
      <trkpt lat="46.32196" lon="6.82899">
        <ele>1589</ele>
        <time>2012-12-29T13:55:59+01:00</time>
      </trkpt>
      <trkpt lat="46.32198" lon="6.82893">
        <ele>1589</ele>
        <time>2012-12-29T13:56:05+01:00</time>
      </trkpt>
      <trkpt lat="46.32202" lon="6.82888">
        <ele>1589</ele>
        <time>2012-12-29T13:56:12+01:00</time>
      </trkpt>
      <trkpt lat="46.32203" lon="6.82882">
        <ele>1589</ele>
        <time>2012-12-29T13:56:20+01:00</time>
      </trkpt>
      <trkpt lat="46.32206" lon="6.82875">
        <ele>1589</ele>
        <time>2012-12-29T13:56:26+01:00</time>
      </trkpt>
      <trkpt lat="46.32207" lon="6.82869">
        <ele>1589</ele>
        <time>2012-12-29T13:56:35+01:00</time>
      </trkpt>
      <trkpt lat="46.32211" lon="6.82865">
        <ele>1593</ele>
        <time>2012-12-29T13:56:42+01:00</time>
      </trkpt>
      <trkpt lat="46.32214" lon="6.82858">
        <ele>1593</ele>
        <time>2012-12-29T13:56:47+01:00</time>
      </trkpt>
      <trkpt lat="46.32217" lon="6.82852">
        <ele>1594</ele>
        <time>2012-12-29T13:56:57+01:00</time>
      </trkpt>
      <trkpt lat="46.3222" lon="6.82845">
        <ele>1593</ele>
        <time>2012-12-29T13:57:32+01:00</time>
      </trkpt>
      <trkpt lat="46.3222" lon="6.82837">
        <ele>1595</ele>
        <time>2012-12-29T13:57:47+01:00</time>
      </trkpt>
      <trkpt lat="46.32221" lon="6.8283">
        <ele>1595</ele>
        <time>2012-12-29T13:57:54+01:00</time>
      </trkpt>
      <trkpt lat="46.32222" lon="6.82824">
        <ele>1596</ele>
        <time>2012-12-29T13:57:59+01:00</time>
      </trkpt>
      <trkpt lat="46.32223" lon="6.82818">
        <ele>1596</ele>
        <time>2012-12-29T13:58:03+01:00</time>
      </trkpt>
      <trkpt lat="46.32224" lon="6.82811">
        <ele>1596</ele>
        <time>2012-12-29T13:58:09+01:00</time>
      </trkpt>
      <trkpt lat="46.32226" lon="6.82805">
        <ele>1597</ele>
        <time>2012-12-29T13:58:15+01:00</time>
      </trkpt>
      <trkpt lat="46.32225" lon="6.82798">
        <ele>1596</ele>
        <time>2012-12-29T13:58:34+01:00</time>
      </trkpt>
      <trkpt lat="46.32226" lon="6.8279">
        <ele>1596</ele>
        <time>2012-12-29T13:58:43+01:00</time>
      </trkpt>
      <trkpt lat="46.32227" lon="6.82783">
        <ele>1596</ele>
        <time>2012-12-29T13:58:47+01:00</time>
      </trkpt>
      <trkpt lat="46.32226" lon="6.82777">
        <ele>1597</ele>
        <time>2012-12-29T13:58:53+01:00</time>
      </trkpt>
      <trkpt lat="46.32224" lon="6.8277">
        <ele>1596</ele>
        <time>2012-12-29T13:59:05+01:00</time>
      </trkpt>
      <trkpt lat="46.32225" lon="6.82764">
        <ele>1597</ele>
        <time>2012-12-29T13:59:09+01:00</time>
      </trkpt>
      <trkpt lat="46.32226" lon="6.82757">
        <ele>1600</ele>
        <time>2012-12-29T13:59:20+01:00</time>
      </trkpt>
      <trkpt lat="46.32225" lon="6.82751">
        <ele>1599</ele>
        <time>2012-12-29T13:59:27+01:00</time>
      </trkpt>
      <trkpt lat="46.32225" lon="6.82742">
        <ele>1598</ele>
        <time>2012-12-29T13:59:35+01:00</time>
      </trkpt>
      <trkpt lat="46.32226" lon="6.82736">
        <ele>1598</ele>
        <time>2012-12-29T13:59:47+01:00</time>
      </trkpt>
      <trkpt lat="46.32226" lon="6.82727">
        <ele>1599</ele>
        <time>2012-12-29T14:00:53+01:00</time>
      </trkpt>
      <trkpt lat="46.32226" lon="6.82719">
        <ele>1601</ele>
        <time>2012-12-29T14:01:06+01:00</time>
      </trkpt>
      <trkpt lat="46.32225" lon="6.82712">
        <ele>1602</ele>
        <time>2012-12-29T14:01:11+01:00</time>
      </trkpt>
      <trkpt lat="46.32222" lon="6.82708">
        <ele>1604</ele>
        <time>2012-12-29T14:01:16+01:00</time>
      </trkpt>
      <trkpt lat="46.32223" lon="6.82702">
        <ele>1604</ele>
        <time>2012-12-29T14:01:25+01:00</time>
      </trkpt>
      <trkpt lat="46.32224" lon="6.82695">
        <ele>1603</ele>
        <time>2012-12-29T14:02:07+01:00</time>
      </trkpt>
      <trkpt lat="46.32224" lon="6.82687">
        <ele>1604</ele>
        <time>2012-12-29T14:02:23+01:00</time>
      </trkpt>
      <trkpt lat="46.32225" lon="6.8268">
        <ele>1604</ele>
        <time>2012-12-29T14:02:33+01:00</time>
      </trkpt>
      <trkpt lat="46.32228" lon="6.82674">
        <ele>1605</ele>
        <time>2012-12-29T14:02:53+01:00</time>
      </trkpt>
      <trkpt lat="46.3223" lon="6.82665">
        <ele>1605</ele>
        <time>2012-12-29T14:03:20+01:00</time>
      </trkpt>
      <trkpt lat="46.32231" lon="6.82659">
        <ele>1605</ele>
        <time>2012-12-29T14:03:26+01:00</time>
      </trkpt>
      <trkpt lat="46.32232" lon="6.82652">
        <ele>1604</ele>
        <time>2012-12-29T14:03:31+01:00</time>
      </trkpt>
      <trkpt lat="46.32233" lon="6.82644">
        <ele>1605</ele>
        <time>2012-12-29T14:03:47+01:00</time>
      </trkpt>
      <trkpt lat="46.32234" lon="6.82637">
        <ele>1605</ele>
        <time>2012-12-29T14:03:55+01:00</time>
      </trkpt>
      <trkpt lat="46.32238" lon="6.82631">
        <ele>1605</ele>
        <time>2012-12-29T14:04:36+01:00</time>
      </trkpt>
      <trkpt lat="46.32241" lon="6.82625">
        <ele>1606</ele>
        <time>2012-12-29T14:04:38+01:00</time>
      </trkpt>
      <trkpt lat="46.32244" lon="6.82618">
        <ele>1606</ele>
        <time>2012-12-29T14:04:41+01:00</time>
      </trkpt>
      <trkpt lat="46.32247" lon="6.82612">
        <ele>1606</ele>
        <time>2012-12-29T14:04:43+01:00</time>
      </trkpt>
      <trkpt lat="46.3225" lon="6.82605">
        <ele>1606</ele>
        <time>2012-12-29T14:04:48+01:00</time>
      </trkpt>
      <trkpt lat="46.32253" lon="6.82599">
        <ele>1606</ele>
        <time>2012-12-29T14:04:58+01:00</time>
      </trkpt>
      <trkpt lat="46.32256" lon="6.82592">
        <ele>1606</ele>
        <time>2012-12-29T14:05:05+01:00</time>
      </trkpt>
      <trkpt lat="46.32259" lon="6.82586">
        <ele>1607</ele>
        <time>2012-12-29T14:05:13+01:00</time>
      </trkpt>
      <trkpt lat="46.32258" lon="6.82579">
        <ele>1607</ele>
        <time>2012-12-29T14:05:22+01:00</time>
      </trkpt>
      <trkpt lat="46.32255" lon="6.82573">
        <ele>1607</ele>
        <time>2012-12-29T14:05:27+01:00</time>
      </trkpt>
      <trkpt lat="46.32255" lon="6.82564">
        <ele>1607</ele>
        <time>2012-12-29T14:05:35+01:00</time>
      </trkpt>
      <trkpt lat="46.32254" lon="6.82558">
        <ele>1607</ele>
        <time>2012-12-29T14:05:41+01:00</time>
      </trkpt>
      <trkpt lat="46.32255" lon="6.82551">
        <ele>1607</ele>
        <time>2012-12-29T14:05:46+01:00</time>
      </trkpt>
      <trkpt lat="46.32255" lon="6.82543">
        <ele>1608</ele>
        <time>2012-12-29T14:06:05+01:00</time>
      </trkpt>
      <trkpt lat="46.32253" lon="6.82536">
        <ele>1609</ele>
        <time>2012-12-29T14:06:37+01:00</time>
      </trkpt>
      <trkpt lat="46.32252" lon="6.8253">
        <ele>1608</ele>
        <time>2012-12-29T14:06:44+01:00</time>
      </trkpt>
      <trkpt lat="46.32251" lon="6.82523">
        <ele>1608</ele>
        <time>2012-12-29T14:06:51+01:00</time>
      </trkpt>
      <trkpt lat="46.3225" lon="6.82517">
        <ele>1608</ele>
        <time>2012-12-29T14:07:01+01:00</time>
      </trkpt>
      <trkpt lat="46.32251" lon="6.82511">
        <ele>1609</ele>
        <time>2012-12-29T14:07:18+01:00</time>
      </trkpt>
      <trkpt lat="46.32251" lon="6.82502">
        <ele>1609</ele>
        <time>2012-12-29T14:07:34+01:00</time>
      </trkpt>
      <trkpt lat="46.32252" lon="6.82493">
        <ele>1609</ele>
        <time>2012-12-29T14:07:46+01:00</time>
      </trkpt>
      <trkpt lat="46.32253" lon="6.82487">
        <ele>1611</ele>
        <time>2012-12-29T14:07:59+01:00</time>
      </trkpt>
      <trkpt lat="46.32252" lon="6.82481">
        <ele>1610</ele>
        <time>2012-12-29T14:08:14+01:00</time>
      </trkpt>
      <trkpt lat="46.32251" lon="6.8247">
        <ele>1611</ele>
        <time>2012-12-29T14:08:44+01:00</time>
      </trkpt>
      <trkpt lat="46.32251" lon="6.82461">
        <ele>1611</ele>
        <time>2012-12-29T14:08:55+01:00</time>
      </trkpt>
      <trkpt lat="46.3225" lon="6.82451">
        <ele>1612</ele>
        <time>2012-12-29T14:09:05+01:00</time>
      </trkpt>
      <trkpt lat="46.32252" lon="6.82444">
        <ele>1612</ele>
        <time>2012-12-29T14:09:17+01:00</time>
      </trkpt>
      <trkpt lat="46.32255" lon="6.82438">
        <ele>1612</ele>
        <time>2012-12-29T14:09:21+01:00</time>
      </trkpt>
      <trkpt lat="46.32254" lon="6.82431">
        <ele>1616</ele>
        <time>2012-12-29T14:09:31+01:00</time>
      </trkpt>
      <trkpt lat="46.32255" lon="6.82425">
        <ele>1617</ele>
        <time>2012-12-29T14:09:43+01:00</time>
      </trkpt>
      <trkpt lat="46.32255" lon="6.82416">
        <ele>1617</ele>
        <time>2012-12-29T14:09:50+01:00</time>
      </trkpt>
      <trkpt lat="46.32256" lon="6.8241">
        <ele>1617</ele>
        <time>2012-12-29T14:10:16+01:00</time>
      </trkpt>
      <trkpt lat="46.32257" lon="6.82403">
        <ele>1620</ele>
        <time>2012-12-29T14:10:32+01:00</time>
      </trkpt>
      <trkpt lat="46.3226" lon="6.82395">
        <ele>1623</ele>
        <time>2012-12-29T14:10:41+01:00</time>
      </trkpt>
      <trkpt lat="46.3226" lon="6.82386">
        <ele>1623</ele>
        <time>2012-12-29T14:10:47+01:00</time>
      </trkpt>
      <trkpt lat="46.32261" lon="6.8238">
        <ele>1624</ele>
        <time>2012-12-29T14:10:58+01:00</time>
      </trkpt>
      <trkpt lat="46.32262" lon="6.82373">
        <ele>1626</ele>
        <time>2012-12-29T14:11:08+01:00</time>
      </trkpt>
      <trkpt lat="46.32264" lon="6.82367">
        <ele>1631</ele>
        <time>2012-12-29T14:11:14+01:00</time>
      </trkpt>
      <trkpt lat="46.32267" lon="6.8236">
        <ele>1636</ele>
        <time>2012-12-29T14:11:21+01:00</time>
      </trkpt>
      <trkpt lat="46.3227" lon="6.82354">
        <ele>1635</ele>
        <time>2012-12-29T14:11:26+01:00</time>
      </trkpt>
      <trkpt lat="46.32275" lon="6.82347">
        <ele>1634</ele>
        <time>2012-12-29T14:11:33+01:00</time>
      </trkpt>
      <trkpt lat="46.32272" lon="6.82341">
        <ele>1634</ele>
        <time>2012-12-29T14:11:38+01:00</time>
      </trkpt>
      <trkpt lat="46.32272" lon="6.82335">
        <ele>1633</ele>
        <time>2012-12-29T14:11:44+01:00</time>
      </trkpt>
      <trkpt lat="46.32273" lon="6.82328">
        <ele>1633</ele>
        <time>2012-12-29T14:11:50+01:00</time>
      </trkpt>
      <trkpt lat="46.32272" lon="6.8232">
        <ele>1633</ele>
        <time>2012-12-29T14:12:34+01:00</time>
      </trkpt>
      <trkpt lat="46.32273" lon="6.82313">
        <ele>1636</ele>
        <time>2012-12-29T14:12:38+01:00</time>
      </trkpt>
      <trkpt lat="46.32275" lon="6.82307">
        <ele>1636</ele>
        <time>2012-12-29T14:12:49+01:00</time>
      </trkpt>
      <trkpt lat="46.3227" lon="6.823">
        <ele>1638</ele>
        <time>2012-12-29T14:12:59+01:00</time>
      </trkpt>
      <trkpt lat="46.32268" lon="6.82294">
        <ele>1636</ele>
        <time>2012-12-29T14:13:10+01:00</time>
      </trkpt>
      <trkpt lat="46.32267" lon="6.82287">
        <ele>1636</ele>
        <time>2012-12-29T14:13:18+01:00</time>
      </trkpt>
      <trkpt lat="46.32265" lon="6.82281">
        <ele>1636</ele>
        <time>2012-12-29T14:13:29+01:00</time>
      </trkpt>
      <trkpt lat="46.32264" lon="6.82275">
        <ele>1637</ele>
        <time>2012-12-29T14:14:02+01:00</time>
      </trkpt>
      <trkpt lat="46.32264" lon="6.82264">
        <ele>1637</ele>
        <time>2012-12-29T14:14:21+01:00</time>
      </trkpt>
      <trkpt lat="46.32263" lon="6.82256">
        <ele>1638</ele>
        <time>2012-12-29T14:14:24+01:00</time>
      </trkpt>
      <trkpt lat="46.32263" lon="6.82247">
        <ele>1640</ele>
        <time>2012-12-29T14:14:32+01:00</time>
      </trkpt>
      <trkpt lat="46.32262" lon="6.8224">
        <ele>1640</ele>
        <time>2012-12-29T14:14:38+01:00</time>
      </trkpt>
      <trkpt lat="46.32257" lon="6.82234">
        <ele>1641</ele>
        <time>2012-12-29T14:14:47+01:00</time>
      </trkpt>
      <trkpt lat="46.32255" lon="6.82227">
        <ele>1639</ele>
        <time>2012-12-29T14:15:08+01:00</time>
      </trkpt>
      <trkpt lat="46.32252" lon="6.82221">
        <ele>1640</ele>
        <time>2012-12-29T14:15:25+01:00</time>
      </trkpt>
      <trkpt lat="46.32249" lon="6.82215">
        <ele>1641</ele>
        <time>2012-12-29T14:15:41+01:00</time>
      </trkpt>
      <trkpt lat="46.32246" lon="6.82208">
        <ele>1643</ele>
        <time>2012-12-29T14:15:46+01:00</time>
      </trkpt>
      <trkpt lat="46.32243" lon="6.82202">
        <ele>1645</ele>
        <time>2012-12-29T14:15:53+01:00</time>
      </trkpt>
      <trkpt lat="46.3224" lon="6.82195">
        <ele>1646</ele>
        <time>2012-12-29T14:16:08+01:00</time>
      </trkpt>
      <trkpt lat="46.32239" lon="6.82189">
        <ele>1648</ele>
        <time>2012-12-29T14:16:16+01:00</time>
      </trkpt>
      <trkpt lat="46.32239" lon="6.8218">
        <ele>1648</ele>
        <time>2012-12-29T14:16:26+01:00</time>
      </trkpt>
      <trkpt lat="46.32237" lon="6.82174">
        <ele>1649</ele>
        <time>2012-12-29T14:16:34+01:00</time>
      </trkpt>
      <trkpt lat="46.32237" lon="6.82165">
        <ele>1649</ele>
        <time>2012-12-29T14:16:39+01:00</time>
      </trkpt>
      <trkpt lat="46.32238" lon="6.82157">
        <ele>1650</ele>
        <time>2012-12-29T14:16:48+01:00</time>
      </trkpt>
      <trkpt lat="46.3224" lon="6.8215">
        <ele>1651</ele>
        <time>2012-12-29T14:16:55+01:00</time>
      </trkpt>
      <trkpt lat="46.32241" lon="6.82144">
        <ele>1653</ele>
        <time>2012-12-29T14:17:04+01:00</time>
      </trkpt>
      <trkpt lat="46.32243" lon="6.82137">
        <ele>1654</ele>
        <time>2012-12-29T14:17:12+01:00</time>
      </trkpt>
      <trkpt lat="46.32243" lon="6.82131">
        <ele>1653</ele>
        <time>2012-12-29T14:17:19+01:00</time>
      </trkpt>
      <trkpt lat="46.32241" lon="6.82122">
        <ele>1658</ele>
        <time>2012-12-29T14:17:29+01:00</time>
      </trkpt>
      <trkpt lat="46.3224" lon="6.82116">
        <ele>1662</ele>
        <time>2012-12-29T14:17:36+01:00</time>
      </trkpt>
      <trkpt lat="46.32239" lon="6.82109">
        <ele>1664</ele>
        <time>2012-12-29T14:17:45+01:00</time>
      </trkpt>
      <trkpt lat="46.32238" lon="6.82103">
        <ele>1663</ele>
        <time>2012-12-29T14:17:53+01:00</time>
      </trkpt>
      <trkpt lat="46.32236" lon="6.82097">
        <ele>1664</ele>
        <time>2012-12-29T14:17:56+01:00</time>
      </trkpt>
      <trkpt lat="46.32235" lon="6.82088">
        <ele>1663</ele>
        <time>2012-12-29T14:18:15+01:00</time>
      </trkpt>
      <trkpt lat="46.32231" lon="6.82084">
        <ele>1664</ele>
        <time>2012-12-29T14:18:28+01:00</time>
      </trkpt>
      <trkpt lat="46.32228" lon="6.82075">
        <ele>1664</ele>
        <time>2012-12-29T14:19:01+01:00</time>
      </trkpt>
      <trkpt lat="46.32225" lon="6.82069">
        <ele>1664</ele>
        <time>2012-12-29T14:19:09+01:00</time>
      </trkpt>
      <trkpt lat="46.32223" lon="6.82062">
        <ele>1665</ele>
        <time>2012-12-29T14:19:18+01:00</time>
      </trkpt>
      <trkpt lat="46.32222" lon="6.82056">
        <ele>1667</ele>
        <time>2012-12-29T14:19:31+01:00</time>
      </trkpt>
      <trkpt lat="46.32218" lon="6.82051">
        <ele>1667</ele>
        <time>2012-12-29T14:19:36+01:00</time>
      </trkpt>
      <trkpt lat="46.32215" lon="6.82045">
        <ele>1667</ele>
        <time>2012-12-29T14:19:42+01:00</time>
      </trkpt>
      <trkpt lat="46.3221" lon="6.82041">
        <ele>1667</ele>
        <time>2012-12-29T14:19:58+01:00</time>
      </trkpt>
      <trkpt lat="46.32206" lon="6.82037">
        <ele>1667</ele>
        <time>2012-12-29T14:20:02+01:00</time>
      </trkpt>
      <trkpt lat="46.32201" lon="6.8203">
        <ele>1672</ele>
        <time>2012-12-29T14:20:15+01:00</time>
      </trkpt>
      <trkpt lat="46.32195" lon="6.82026">
        <ele>1676</ele>
        <time>2012-12-29T14:20:23+01:00</time>
      </trkpt>
      <trkpt lat="46.32191" lon="6.82021">
        <ele>1679</ele>
        <time>2012-12-29T14:20:35+01:00</time>
      </trkpt>
      <trkpt lat="46.32186" lon="6.82019">
        <ele>1682</ele>
        <time>2012-12-29T14:20:41+01:00</time>
      </trkpt>
      <trkpt lat="46.32191" lon="6.82019">
        <ele>1681</ele>
        <time>2012-12-29T14:21:21+01:00</time>
      </trkpt>
      <trkpt lat="46.32196" lon="6.82026">
        <ele>1682</ele>
        <time>2012-12-29T14:21:32+01:00</time>
      </trkpt>
      <trkpt lat="46.32203" lon="6.82024">
        <ele>1681</ele>
        <time>2012-12-29T14:22:00+01:00</time>
      </trkpt>
      <trkpt lat="46.32206" lon="6.82015">
        <ele>1681</ele>
        <time>2012-12-29T14:22:45+01:00</time>
      </trkpt>
      <trkpt lat="46.32208" lon="6.82009">
        <ele>1682</ele>
        <time>2012-12-29T14:22:53+01:00</time>
      </trkpt>
      <trkpt lat="46.32207" lon="6.82002">
        <ele>1682</ele>
        <time>2012-12-29T14:23:00+01:00</time>
      </trkpt>
      <trkpt lat="46.3221" lon="6.81996">
        <ele>1683</ele>
        <time>2012-12-29T14:23:23+01:00</time>
      </trkpt>
      <trkpt lat="46.32211" lon="6.81983">
        <ele>1685</ele>
        <time>2012-12-29T14:24:20+01:00</time>
      </trkpt>
      <trkpt lat="46.32211" lon="6.81974">
        <ele>1685</ele>
        <time>2012-12-29T14:24:38+01:00</time>
      </trkpt>
      <trkpt lat="46.32217" lon="6.81972">
        <ele>1687</ele>
        <time>2012-12-29T14:25:34+01:00</time>
      </trkpt>
      <trkpt lat="46.32223" lon="6.81972">
        <ele>1687</ele>
        <time>2012-12-29T14:25:53+01:00</time>
      </trkpt>
      <trkpt lat="46.32228" lon="6.81972">
        <ele>1688</ele>
        <time>2012-12-29T14:26:01+01:00</time>
      </trkpt>
      <trkpt lat="46.32235" lon="6.81974">
        <ele>1688</ele>
        <time>2012-12-29T14:26:59+01:00</time>
      </trkpt>
      <trkpt lat="46.3224" lon="6.81974">
        <ele>1689</ele>
        <time>2012-12-29T14:27:18+01:00</time>
      </trkpt>
      <trkpt lat="46.32248" lon="6.81972">
        <ele>1687</ele>
        <time>2012-12-29T14:27:46+01:00</time>
      </trkpt>
      <trkpt lat="46.32252" lon="6.81968">
        <ele>1687</ele>
        <time>2012-12-29T14:27:53+01:00</time>
      </trkpt>
      <trkpt lat="46.32255" lon="6.81961">
        <ele>1689</ele>
        <time>2012-12-29T14:27:58+01:00</time>
      </trkpt>
      <trkpt lat="46.32255" lon="6.81953">
        <ele>1690</ele>
        <time>2012-12-29T14:28:07+01:00</time>
      </trkpt>
      <trkpt lat="46.32257" lon="6.81946">
        <ele>1691</ele>
        <time>2012-12-29T14:28:14+01:00</time>
      </trkpt>
      <trkpt lat="46.32255" lon="6.8194">
        <ele>1691</ele>
        <time>2012-12-29T14:28:24+01:00</time>
      </trkpt>
      <trkpt lat="46.32253" lon="6.81933">
        <ele>1691</ele>
        <time>2012-12-29T14:28:31+01:00</time>
      </trkpt>
      <trkpt lat="46.32252" lon="6.81927">
        <ele>1692</ele>
        <time>2012-12-29T14:28:36+01:00</time>
      </trkpt>
      <trkpt lat="46.32249" lon="6.81921">
        <ele>1692</ele>
        <time>2012-12-29T14:28:40+01:00</time>
      </trkpt>
      <trkpt lat="46.32247" lon="6.81914">
        <ele>1693</ele>
        <time>2012-12-29T14:28:51+01:00</time>
      </trkpt>
      <trkpt lat="46.32243" lon="6.8191">
        <ele>1703</ele>
        <time>2012-12-29T14:29:10+01:00</time>
      </trkpt>
      <trkpt lat="46.32239" lon="6.81903">
        <ele>1707</ele>
        <time>2012-12-29T14:29:42+01:00</time>
      </trkpt>
      <trkpt lat="46.32237" lon="6.81897">
        <ele>1712</ele>
        <time>2012-12-29T14:30:02+01:00</time>
      </trkpt>
      <trkpt lat="46.32235" lon="6.81891">
        <ele>1716</ele>
        <time>2012-12-29T14:30:05+01:00</time>
      </trkpt>
      <trkpt lat="46.32231" lon="6.81886">
        <ele>1717</ele>
        <time>2012-12-29T14:30:08+01:00</time>
      </trkpt>
      <trkpt lat="46.32227" lon="6.8188">
        <ele>1717</ele>
        <time>2012-12-29T14:30:12+01:00</time>
      </trkpt>
      <trkpt lat="46.32224" lon="6.81873">
        <ele>1720</ele>
        <time>2012-12-29T14:30:16+01:00</time>
      </trkpt>
      <trkpt lat="46.3222" lon="6.81869">
        <ele>1724</ele>
        <time>2012-12-29T14:30:23+01:00</time>
      </trkpt>
      <trkpt lat="46.32217" lon="6.81865">
        <ele>1724</ele>
        <time>2012-12-29T14:30:29+01:00</time>
      </trkpt>
      <trkpt lat="46.32212" lon="6.81858">
        <ele>1724</ele>
        <time>2012-12-29T14:30:38+01:00</time>
      </trkpt>
      <trkpt lat="46.32209" lon="6.81854">
        <ele>1724</ele>
        <time>2012-12-29T14:30:42+01:00</time>
      </trkpt>
      <trkpt lat="46.32207" lon="6.81848">
        <ele>1725</ele>
        <time>2012-12-29T14:30:51+01:00</time>
      </trkpt>
      <trkpt lat="46.32202" lon="6.81843">
        <ele>1728</ele>
        <time>2012-12-29T14:31:01+01:00</time>
      </trkpt>
      <trkpt lat="46.32198" lon="6.81839">
        <ele>1727</ele>
        <time>2012-12-29T14:31:06+01:00</time>
      </trkpt>
      <trkpt lat="46.32195" lon="6.81833">
        <ele>1727</ele>
        <time>2012-12-29T14:31:11+01:00</time>
      </trkpt>
      <trkpt lat="46.32194" lon="6.81826">
        <ele>1725</ele>
        <time>2012-12-29T14:31:21+01:00</time>
      </trkpt>
      <trkpt lat="46.32192" lon="6.8182">
        <ele>1724</ele>
        <time>2012-12-29T14:31:31+01:00</time>
      </trkpt>
      <trkpt lat="46.32192" lon="6.81811">
        <ele>1725</ele>
        <time>2012-12-29T14:31:45+01:00</time>
      </trkpt>
      <trkpt lat="46.32189" lon="6.81805">
        <ele>1728</ele>
        <time>2012-12-29T14:31:49+01:00</time>
      </trkpt>
      <trkpt lat="46.3219" lon="6.81798">
        <ele>1728</ele>
        <time>2012-12-29T14:31:53+01:00</time>
      </trkpt>
      <trkpt lat="46.32188" lon="6.81792">
        <ele>1726</ele>
        <time>2012-12-29T14:32:01+01:00</time>
      </trkpt>
      <trkpt lat="46.32188" lon="6.81783">
        <ele>1729</ele>
        <time>2012-12-29T14:32:08+01:00</time>
      </trkpt>
      <trkpt lat="46.32189" lon="6.81775">
        <ele>1729</ele>
        <time>2012-12-29T14:32:24+01:00</time>
      </trkpt>
      <trkpt lat="46.3219" lon="6.81768">
        <ele>1728</ele>
        <time>2012-12-29T14:32:28+01:00</time>
      </trkpt>
      <trkpt lat="46.3219" lon="6.8176">
        <ele>1729</ele>
        <time>2012-12-29T14:32:34+01:00</time>
      </trkpt>
      <trkpt lat="46.3219" lon="6.81751">
        <ele>1729</ele>
        <time>2012-12-29T14:32:38+01:00</time>
      </trkpt>
      <trkpt lat="46.3219" lon="6.81742">
        <ele>1729</ele>
        <time>2012-12-29T14:32:42+01:00</time>
      </trkpt>
      <trkpt lat="46.32189" lon="6.81734">
        <ele>1729</ele>
        <time>2012-12-29T14:32:46+01:00</time>
      </trkpt>
      <trkpt lat="46.32188" lon="6.81727">
        <ele>1728</ele>
        <time>2012-12-29T14:32:54+01:00</time>
      </trkpt>
      <trkpt lat="46.32187" lon="6.81721">
        <ele>1727</ele>
        <time>2012-12-29T14:33:00+01:00</time>
      </trkpt>
      <trkpt lat="46.32186" lon="6.81714">
        <ele>1728</ele>
        <time>2012-12-29T14:33:14+01:00</time>
      </trkpt>
      <trkpt lat="46.32183" lon="6.81706">
        <ele>1729</ele>
        <time>2012-12-29T14:34:04+01:00</time>
      </trkpt>
      <trkpt lat="46.32182" lon="6.817">
        <ele>1728</ele>
        <time>2012-12-29T14:34:06+01:00</time>
      </trkpt>
      <trkpt lat="46.3218" lon="6.81693">
        <ele>1729</ele>
        <time>2012-12-29T14:35:10+01:00</time>
      </trkpt>
      <trkpt lat="46.32177" lon="6.81687">
        <ele>1730</ele>
        <time>2012-12-29T14:35:13+01:00</time>
      </trkpt>
      <trkpt lat="46.32174" lon="6.8168">
        <ele>1730</ele>
        <time>2012-12-29T14:35:24+01:00</time>
      </trkpt>
      <trkpt lat="46.3217" lon="6.81676">
        <ele>1730</ele>
        <time>2012-12-29T14:35:37+01:00</time>
      </trkpt>
      <trkpt lat="46.3217" lon="6.81669">
        <ele>1730</ele>
        <time>2012-12-29T14:35:38+01:00</time>
      </trkpt>
      <trkpt lat="46.32162" lon="6.81655">
        <ele>1733</ele>
        <time>2012-12-29T14:35:42+01:00</time>
      </trkpt>
      <trkpt lat="46.32161" lon="6.81648">
        <ele>1732</ele>
        <time>2012-12-29T14:35:44+01:00</time>
      </trkpt>
      <trkpt lat="46.32159" lon="6.81642">
        <ele>1734</ele>
        <time>2012-12-29T14:35:46+01:00</time>
      </trkpt>
      <trkpt lat="46.32157" lon="6.81635">
        <ele>1734</ele>
        <time>2012-12-29T14:36:31+01:00</time>
      </trkpt>
      <trkpt lat="46.32156" lon="6.81629">
        <ele>1733</ele>
        <time>2012-12-29T14:37:22+01:00</time>
      </trkpt>
      <trkpt lat="46.32152" lon="6.81622">
        <ele>1733</ele>
        <time>2012-12-29T14:37:27+01:00</time>
      </trkpt>
      <trkpt lat="46.32149" lon="6.81612">
        <ele>1738</ele>
        <time>2012-12-29T14:37:30+01:00</time>
      </trkpt>
      <trkpt lat="46.3215" lon="6.81601">
        <ele>1737</ele>
        <time>2012-12-29T14:37:33+01:00</time>
      </trkpt>
      <trkpt lat="46.32152" lon="6.81581">
        <ele>1740</ele>
        <time>2012-12-29T14:37:44+01:00</time>
      </trkpt>
      <trkpt lat="46.32149" lon="6.81575">
        <ele>1740</ele>
        <time>2012-12-29T14:37:57+01:00</time>
      </trkpt>
      <trkpt lat="46.32147" lon="6.81569">
        <ele>1741</ele>
        <time>2012-12-29T14:37:59+01:00</time>
      </trkpt>
      <trkpt lat="46.32146" lon="6.81563">
        <ele>1742</ele>
        <time>2012-12-29T14:38:00+01:00</time>
      </trkpt>
      <trkpt lat="46.32145" lon="6.81554">
        <ele>1743</ele>
        <time>2012-12-29T14:38:03+01:00</time>
      </trkpt>
      <trkpt lat="46.32142" lon="6.81547">
        <ele>1743</ele>
        <time>2012-12-29T14:38:07+01:00</time>
      </trkpt>
      <trkpt lat="46.3214" lon="6.81541">
        <ele>1743</ele>
        <time>2012-12-29T14:38:22+01:00</time>
      </trkpt>
      <trkpt lat="46.32136" lon="6.81536">
        <ele>1744</ele>
        <time>2012-12-29T14:38:44+01:00</time>
      </trkpt>
      <trkpt lat="46.32132" lon="6.8153">
        <ele>1746</ele>
        <time>2012-12-29T14:38:51+01:00</time>
      </trkpt>
      <trkpt lat="46.32129" lon="6.81524">
        <ele>1745</ele>
        <time>2012-12-29T14:38:56+01:00</time>
      </trkpt>
      <trkpt lat="46.32128" lon="6.81517">
        <ele>1745</ele>
        <time>2012-12-29T14:39:00+01:00</time>
      </trkpt>
      <trkpt lat="46.32124" lon="6.81513">
        <ele>1745</ele>
        <time>2012-12-29T14:39:05+01:00</time>
      </trkpt>
      <trkpt lat="46.32121" lon="6.81506">
        <ele>1746</ele>
        <time>2012-12-29T14:39:12+01:00</time>
      </trkpt>
      <trkpt lat="46.32117" lon="6.815">
        <ele>1746</ele>
        <time>2012-12-29T14:39:46+01:00</time>
      </trkpt>
      <trkpt lat="46.32114" lon="6.81496">
        <ele>1746</ele>
        <time>2012-12-29T14:40:20+01:00</time>
      </trkpt>
      <trkpt lat="46.32109" lon="6.81492">
        <ele>1747</ele>
        <time>2012-12-29T14:40:24+01:00</time>
      </trkpt>
      <trkpt lat="46.32104" lon="6.81487">
        <ele>1747</ele>
        <time>2012-12-29T14:40:27+01:00</time>
      </trkpt>
      <trkpt lat="46.32099" lon="6.81483">
        <ele>1747</ele>
        <time>2012-12-29T14:40:32+01:00</time>
      </trkpt>
      <trkpt lat="46.32093" lon="6.81481">
        <ele>1747</ele>
        <time>2012-12-29T14:40:36+01:00</time>
      </trkpt>
      <trkpt lat="46.32088" lon="6.81477">
        <ele>1747</ele>
        <time>2012-12-29T14:40:38+01:00</time>
      </trkpt>
      <trkpt lat="46.32086" lon="6.8147">
        <ele>1747</ele>
        <time>2012-12-29T14:40:41+01:00</time>
      </trkpt>
      <trkpt lat="46.32082" lon="6.81466">
        <ele>1748</ele>
        <time>2012-12-29T14:40:54+01:00</time>
      </trkpt>
      <trkpt lat="46.32077" lon="6.81461">
        <ele>1752</ele>
        <time>2012-12-29T14:41:09+01:00</time>
      </trkpt>
      <trkpt lat="46.32073" lon="6.81457">
        <ele>1754</ele>
        <time>2012-12-29T14:41:19+01:00</time>
      </trkpt>
      <trkpt lat="46.32068" lon="6.81455">
        <ele>1758</ele>
        <time>2012-12-29T14:41:28+01:00</time>
      </trkpt>
      <trkpt lat="46.32062" lon="6.81446">
        <ele>1760</ele>
        <time>2012-12-29T14:43:27+01:00</time>
      </trkpt>
      <trkpt lat="46.32058" lon="6.8144">
        <ele>1764</ele>
        <time>2012-12-29T14:43:57+01:00</time>
      </trkpt>
      <trkpt lat="46.32056" lon="6.81432">
        <ele>1765</ele>
        <time>2012-12-29T14:44:01+01:00</time>
      </trkpt>
      <trkpt lat="46.32054" lon="6.81416">
        <ele>1768</ele>
        <time>2012-12-29T14:44:37+01:00</time>
      </trkpt>
      <trkpt lat="46.32054" lon="6.81408">
        <ele>1769</ele>
        <time>2012-12-29T14:44:50+01:00</time>
      </trkpt>
      <trkpt lat="46.32053" lon="6.81399">
        <ele>1770</ele>
        <time>2012-12-29T14:46:07+01:00</time>
      </trkpt>
      <trkpt lat="46.32051" lon="6.81391">
        <ele>1771</ele>
        <time>2012-12-29T14:46:30+01:00</time>
      </trkpt>
      <trkpt lat="46.32047" lon="6.8138">
        <ele>1771</ele>
        <time>2012-12-29T14:46:59+01:00</time>
      </trkpt>
      <trkpt lat="46.32045" lon="6.81373">
        <ele>1770</ele>
        <time>2012-12-29T14:47:20+01:00</time>
      </trkpt>
      <trkpt lat="46.32044" lon="6.81365">
        <ele>1772</ele>
        <time>2012-12-29T14:48:07+01:00</time>
      </trkpt>
      <trkpt lat="46.32045" lon="6.81356">
        <ele>1773</ele>
        <time>2012-12-29T14:50:27+01:00</time>
      </trkpt>
      <trkpt lat="46.3204" lon="6.81348">
        <ele>1774</ele>
        <time>2012-12-29T14:51:50+01:00</time>
      </trkpt>
      <trkpt lat="46.32037" lon="6.81341">
        <ele>1777</ele>
        <time>2012-12-29T14:51:54+01:00</time>
      </trkpt>
      <trkpt lat="46.32033" lon="6.81338">
        <ele>1782</ele>
        <time>2012-12-29T14:51:55+01:00</time>
      </trkpt>
      <trkpt lat="46.32033" lon="6.81326">
        <ele>1783</ele>
        <time>2012-12-29T14:53:55+01:00</time>
      </trkpt>
      <trkpt lat="46.32031" lon="6.8132">
        <ele>1788</ele>
        <time>2012-12-29T15:00:13+01:00</time>
      </trkpt>
      <trkpt lat="46.32029" lon="6.81313">
        <ele>1788</ele>
        <time>2012-12-29T15:00:14+01:00</time>
      </trkpt>
      <trkpt lat="46.32025" lon="6.81303">
        <ele>1790</ele>
        <time>2012-12-29T15:02:12+01:00</time>
      </trkpt>
      <trkpt lat="46.32026" lon="6.81298">
        <ele>1790</ele>
        <time>2012-12-29T15:02:13+01:00</time>
      </trkpt>
      <trkpt lat="46.32024" lon="6.8129">
        <ele>1791</ele>
        <time>2012-12-29T15:04:55+01:00</time>
      </trkpt>
      <trkpt lat="46.32005" lon="6.81264">
        <ele>1802</ele>
        <time>2012-12-29T15:05:45+01:00</time>
      </trkpt>
      <trkpt lat="46.31993" lon="6.81249">
        <ele>1803</ele>
        <time>2012-12-29T15:05:51+01:00</time>
      </trkpt>
      <trkpt lat="46.31988" lon="6.81245">
        <ele>1810</ele>
        <time>2012-12-29T15:06:38+01:00</time>
      </trkpt>
      <trkpt lat="46.31988" lon="6.81236">
        <ele>1815</ele>
        <time>2012-12-29T15:11:40+01:00</time>
      </trkpt>
      <trkpt lat="46.31992" lon="6.81232">
        <ele>1820</ele>
        <time>2012-12-29T15:11:52+01:00</time>
      </trkpt>
      <trkpt lat="46.31993" lon="6.81225">
        <ele>1822</ele>
        <time>2012-12-29T15:13:18+01:00</time>
      </trkpt>
      <trkpt lat="46.31993" lon="6.81215">
        <ele>1823</ele>
        <time>2012-12-29T15:15:39+01:00</time>
      </trkpt>
      <trkpt lat="46.31993" lon="6.81197">
        <ele>1823</ele>
        <time>2012-12-29T15:17:03+01:00</time>
      </trkpt>
      <trkpt lat="46.31992" lon="6.81191">
        <ele>1825</ele>
        <time>2012-12-29T15:17:26+01:00</time>
      </trkpt>
      <trkpt lat="46.3199" lon="6.81185">
        <ele>1829</ele>
        <time>2012-12-29T15:18:05+01:00</time>
      </trkpt>
      <trkpt lat="46.31987" lon="6.81172">
        <ele>1834</ele>
        <time>2012-12-29T15:18:29+01:00</time>
      </trkpt>
      <trkpt lat="46.31985" lon="6.81157">
        <ele>1840</ele>
        <time>2012-12-29T15:18:52+01:00</time>
      </trkpt>
      <trkpt lat="46.31983" lon="6.8115">
        <ele>1843</ele>
        <time>2012-12-29T15:19:28+01:00</time>
      </trkpt>
      <trkpt lat="46.31981" lon="6.81144">
        <ele>1846</ele>
        <time>2012-12-29T15:19:49+01:00</time>
      </trkpt>
      <trkpt lat="46.3198" lon="6.81137">
        <ele>1854</ele>
        <time>2012-12-29T15:20:56+01:00</time>
      </trkpt>
      <trkpt lat="46.31986" lon="6.81122">
        <ele>1860</ele>
        <time>2012-12-29T15:21:06+01:00</time>
      </trkpt>
      <trkpt lat="46.31985" lon="6.81116">
        <ele>1861</ele>
        <time>2012-12-29T15:21:08+01:00</time>
      </trkpt>
      <trkpt lat="46.31983" lon="6.81109">
        <ele>1863</ele>
        <time>2012-12-29T15:22:23+01:00</time>
      </trkpt>
      <trkpt lat="46.31981" lon="6.81103">
        <ele>1867</ele>
        <time>2012-12-29T15:23:16+01:00</time>
      </trkpt>
      <trkpt lat="46.3198" lon="6.81097">
        <ele>1870</ele>
        <time>2012-12-29T15:24:35+01:00</time>
      </trkpt>
      <trkpt lat="46.31975" lon="6.81094">
        <ele>1873</ele>
        <time>2012-12-29T15:25:24+01:00</time>
      </trkpt>
      <trkpt lat="46.31971" lon="6.8109">
        <ele>1878</ele>
        <time>2012-12-29T15:26:28+01:00</time>
      </trkpt>
      <trkpt lat="46.31967" lon="6.81086">
        <ele>1881</ele>
        <time>2012-12-29T15:27:51+01:00</time>
      </trkpt>
      <trkpt lat="46.31964" lon="6.81079">
        <ele>1883</ele>
        <time>2012-12-29T15:28:39+01:00</time>
      </trkpt>
      <trkpt lat="46.31963" lon="6.81073">
        <ele>1886</ele>
        <time>2012-12-29T15:28:46+01:00</time>
      </trkpt>
      <trkpt lat="46.31958" lon="6.81064">
        <ele>1892</ele>
        <time>2012-12-29T15:29:51+01:00</time>
      </trkpt>
      <trkpt lat="46.31954" lon="6.81058">
        <ele>1900</ele>
        <time>2012-12-29T15:30:57+01:00</time>
      </trkpt>
      <trkpt lat="46.3195" lon="6.81054">
        <ele>1905</ele>
        <time>2012-12-29T15:32:01+01:00</time>
      </trkpt>
      <trkpt lat="46.31946" lon="6.81049">
        <ele>1908</ele>
        <time>2012-12-29T15:33:24+01:00</time>
      </trkpt>
      <trkpt lat="46.31942" lon="6.81045">
        <ele>1910</ele>
        <time>2012-12-29T15:34:47+01:00</time>
      </trkpt>
      <trkpt lat="46.31946" lon="6.81041">
        <ele>1910</ele>
        <time>2012-12-29T15:56:38+01:00</time>
      </trkpt>
      <trkpt lat="46.3195" lon="6.81039">
        <ele>1907</ele>
        <time>2012-12-29T15:56:41+01:00</time>
      </trkpt>
      <trkpt lat="46.31956" lon="6.81032">
        <ele>1908</ele>
        <time>2012-12-29T15:56:45+01:00</time>
      </trkpt>
      <trkpt lat="46.31958" lon="6.81026">
        <ele>1909</ele>
        <time>2012-12-29T15:56:59+01:00</time>
      </trkpt>
      <trkpt lat="46.31961" lon="6.81021">
        <ele>1909</ele>
        <time>2012-12-29T15:57:09+01:00</time>
      </trkpt>
      <trkpt lat="46.31967" lon="6.81017">
        <ele>1910</ele>
        <time>2012-12-29T15:57:12+01:00</time>
      </trkpt>
      <trkpt lat="46.31972" lon="6.81025">
        <ele>1909</ele>
        <time>2012-12-29T15:57:14+01:00</time>
      </trkpt>
      <trkpt lat="46.31978" lon="6.81034">
        <ele>1906</ele>
        <time>2012-12-29T15:57:18+01:00</time>
      </trkpt>
      <trkpt lat="46.31983" lon="6.81043">
        <ele>1898</ele>
        <time>2012-12-29T15:57:21+01:00</time>
      </trkpt>
      <trkpt lat="46.31985" lon="6.81049">
        <ele>1889</ele>
        <time>2012-12-29T15:57:24+01:00</time>
      </trkpt>
      <trkpt lat="46.3199" lon="6.81053">
        <ele>1895</ele>
        <time>2012-12-29T15:57:25+01:00</time>
      </trkpt>
      <trkpt lat="46.31996" lon="6.81054">
        <ele>1895</ele>
        <time>2012-12-29T15:58:29+01:00</time>
      </trkpt>
      <trkpt lat="46.32001" lon="6.81056">
        <ele>1894</ele>
        <time>2012-12-29T15:58:34+01:00</time>
      </trkpt>
      <trkpt lat="46.31997" lon="6.81062">
        <ele>1895</ele>
        <time>2012-12-29T15:58:37+01:00</time>
      </trkpt>
      <trkpt lat="46.31992" lon="6.81066">
        <ele>1893</ele>
        <time>2012-12-29T15:58:39+01:00</time>
      </trkpt>
      <trkpt lat="46.31993" lon="6.81075">
        <ele>1885</ele>
        <time>2012-12-29T15:58:42+01:00</time>
      </trkpt>
      <trkpt lat="46.31991" lon="6.81083">
        <ele>1886</ele>
        <time>2012-12-29T15:58:44+01:00</time>
      </trkpt>
      <trkpt lat="46.31989" lon="6.81089">
        <ele>1887</ele>
        <time>2012-12-29T15:58:45+01:00</time>
      </trkpt>
      <trkpt lat="46.31992" lon="6.81097">
        <ele>1885</ele>
        <time>2012-12-29T15:58:47+01:00</time>
      </trkpt>
      <trkpt lat="46.31997" lon="6.81101">
        <ele>1885</ele>
        <time>2012-12-29T15:58:49+01:00</time>
      </trkpt>
      <trkpt lat="46.32" lon="6.81107">
        <ele>1883</ele>
        <time>2012-12-29T15:58:51+01:00</time>
      </trkpt>
      <trkpt lat="46.32003" lon="6.81116">
        <ele>1884</ele>
        <time>2012-12-29T15:58:53+01:00</time>
      </trkpt>
      <trkpt lat="46.32006" lon="6.8112">
        <ele>1883</ele>
        <time>2012-12-29T15:58:54+01:00</time>
      </trkpt>
      <trkpt lat="46.32009" lon="6.81129">
        <ele>1883</ele>
        <time>2012-12-29T15:58:56+01:00</time>
      </trkpt>
      <trkpt lat="46.32013" lon="6.81139">
        <ele>1883</ele>
        <time>2012-12-29T15:58:58+01:00</time>
      </trkpt>
      <trkpt lat="46.32012" lon="6.81146">
        <ele>1883</ele>
        <time>2012-12-29T15:59:00+01:00</time>
      </trkpt>
      <trkpt lat="46.32016" lon="6.8115">
        <ele>1882</ele>
        <time>2012-12-29T15:59:22+01:00</time>
      </trkpt>
      <trkpt lat="46.32015" lon="6.81155">
        <ele>1883</ele>
        <time>2012-12-29T15:59:23+01:00</time>
      </trkpt>
      <trkpt lat="46.32011" lon="6.81163">
        <ele>1881</ele>
        <time>2012-12-29T15:59:25+01:00</time>
      </trkpt>
      <trkpt lat="46.32009" lon="6.81169">
        <ele>1881</ele>
        <time>2012-12-29T15:59:26+01:00</time>
      </trkpt>
      <trkpt lat="46.3201" lon="6.81178">
        <ele>1881</ele>
        <time>2012-12-29T15:59:29+01:00</time>
      </trkpt>
      <trkpt lat="46.32013" lon="6.81182">
        <ele>1881</ele>
        <time>2012-12-29T15:59:30+01:00</time>
      </trkpt>
      <trkpt lat="46.32017" lon="6.81189">
        <ele>1880</ele>
        <time>2012-12-29T15:59:32+01:00</time>
      </trkpt>
      <trkpt lat="46.32022" lon="6.81195">
        <ele>1880</ele>
        <time>2012-12-29T15:59:34+01:00</time>
      </trkpt>
      <trkpt lat="46.32022" lon="6.81201">
        <ele>1880</ele>
        <time>2012-12-29T15:59:35+01:00</time>
      </trkpt>
      <trkpt lat="46.32021" lon="6.81212">
        <ele>1880</ele>
        <time>2012-12-29T15:59:37+01:00</time>
      </trkpt>
      <trkpt lat="46.32024" lon="6.81215">
        <ele>1880</ele>
        <time>2012-12-29T15:59:39+01:00</time>
      </trkpt>
      <trkpt lat="46.32031" lon="6.81217">
        <ele>1880</ele>
        <time>2012-12-29T16:00:05+01:00</time>
      </trkpt>
      <trkpt lat="46.32033" lon="6.81224">
        <ele>1880</ele>
        <time>2012-12-29T16:00:07+01:00</time>
      </trkpt>
      <trkpt lat="46.32036" lon="6.81231">
        <ele>1880</ele>
        <time>2012-12-29T16:00:08+01:00</time>
      </trkpt>
      <trkpt lat="46.32041" lon="6.81232">
        <ele>1880</ele>
        <time>2012-12-29T16:00:09+01:00</time>
      </trkpt>
      <trkpt lat="46.32043" lon="6.81238">
        <ele>1879</ele>
        <time>2012-12-29T16:00:41+01:00</time>
      </trkpt>
      <trkpt lat="46.3204" lon="6.81244">
        <ele>1879</ele>
        <time>2012-12-29T16:00:46+01:00</time>
      </trkpt>
      <trkpt lat="46.32037" lon="6.81253">
        <ele>1879</ele>
        <time>2012-12-29T16:00:49+01:00</time>
      </trkpt>
      <trkpt lat="46.32037" lon="6.81262">
        <ele>1879</ele>
        <time>2012-12-29T16:00:53+01:00</time>
      </trkpt>
      <trkpt lat="46.32037" lon="6.81268">
        <ele>1879</ele>
        <time>2012-12-29T16:00:55+01:00</time>
      </trkpt>
      <trkpt lat="46.32039" lon="6.81277">
        <ele>1878</ele>
        <time>2012-12-29T16:00:58+01:00</time>
      </trkpt>
      <trkpt lat="46.32038" lon="6.81283">
        <ele>1878</ele>
        <time>2012-12-29T16:01:00+01:00</time>
      </trkpt>
      <trkpt lat="46.32038" lon="6.8129">
        <ele>1878</ele>
        <time>2012-12-29T16:01:02+01:00</time>
      </trkpt>
      <trkpt lat="46.32043" lon="6.81292">
        <ele>1878</ele>
        <time>2012-12-29T16:01:04+01:00</time>
      </trkpt>
      <trkpt lat="46.32048" lon="6.81296">
        <ele>1878</ele>
        <time>2012-12-29T16:01:17+01:00</time>
      </trkpt>
      <trkpt lat="46.32054" lon="6.81296">
        <ele>1878</ele>
        <time>2012-12-29T16:01:19+01:00</time>
      </trkpt>
      <trkpt lat="46.32059" lon="6.81296">
        <ele>1878</ele>
        <time>2012-12-29T16:01:21+01:00</time>
      </trkpt>
      <trkpt lat="46.32065" lon="6.813">
        <ele>1878</ele>
        <time>2012-12-29T16:01:24+01:00</time>
      </trkpt>
      <trkpt lat="46.32068" lon="6.81306">
        <ele>1878</ele>
        <time>2012-12-29T16:01:26+01:00</time>
      </trkpt>
      <trkpt lat="46.32069" lon="6.81315">
        <ele>1878</ele>
        <time>2012-12-29T16:01:28+01:00</time>
      </trkpt>
      <trkpt lat="46.3207" lon="6.81321">
        <ele>1878</ele>
        <time>2012-12-29T16:01:29+01:00</time>
      </trkpt>
      <trkpt lat="46.3207" lon="6.8133">
        <ele>1878</ele>
        <time>2012-12-29T16:01:31+01:00</time>
      </trkpt>
      <trkpt lat="46.32067" lon="6.81335">
        <ele>1878</ele>
        <time>2012-12-29T16:01:33+01:00</time>
      </trkpt>
      <trkpt lat="46.32065" lon="6.81343">
        <ele>1878</ele>
        <time>2012-12-29T16:01:36+01:00</time>
      </trkpt>
      <trkpt lat="46.32067" lon="6.81349">
        <ele>1878</ele>
        <time>2012-12-29T16:01:37+01:00</time>
      </trkpt>
      <trkpt lat="46.32065" lon="6.81356">
        <ele>1878</ele>
        <time>2012-12-29T16:01:38+01:00</time>
      </trkpt>
      <trkpt lat="46.3206" lon="6.81361">
        <ele>1878</ele>
        <time>2012-12-29T16:01:39+01:00</time>
      </trkpt>
      <trkpt lat="46.3206" lon="6.81369">
        <ele>1878</ele>
        <time>2012-12-29T16:01:41+01:00</time>
      </trkpt>
      <trkpt lat="46.32062" lon="6.81376">
        <ele>1878</ele>
        <time>2012-12-29T16:01:43+01:00</time>
      </trkpt>
      <trkpt lat="46.32061" lon="6.81383">
        <ele>1878</ele>
        <time>2012-12-29T16:01:44+01:00</time>
      </trkpt>
      <trkpt lat="46.32059" lon="6.8139">
        <ele>1878</ele>
        <time>2012-12-29T16:01:45+01:00</time>
      </trkpt>
      <trkpt lat="46.32058" lon="6.81399">
        <ele>1878</ele>
        <time>2012-12-29T16:01:47+01:00</time>
      </trkpt>
      <trkpt lat="46.32054" lon="6.81402">
        <ele>1878</ele>
        <time>2012-12-29T16:01:48+01:00</time>
      </trkpt>
      <trkpt lat="46.32053" lon="6.81412">
        <ele>1878</ele>
        <time>2012-12-29T16:01:50+01:00</time>
      </trkpt>
      <trkpt lat="46.3205" lon="6.81418">
        <ele>1878</ele>
        <time>2012-12-29T16:01:51+01:00</time>
      </trkpt>
      <trkpt lat="46.32052" lon="6.81423">
        <ele>1878</ele>
        <time>2012-12-29T16:01:52+01:00</time>
      </trkpt>
      <trkpt lat="46.32041" lon="6.81425">
        <ele>1878</ele>
        <time>2012-12-29T16:01:53+01:00</time>
      </trkpt>
      <trkpt lat="46.32029" lon="6.81425">
        <ele>1878</ele>
        <time>2012-12-29T16:02:01+01:00</time>
      </trkpt>
      <trkpt lat="46.32087" lon="6.81468">
        <ele>1878</ele>
        <time>2012-12-29T16:02:03+01:00</time>
      </trkpt>
      <trkpt lat="46.32116" lon="6.81497">
        <ele>1877</ele>
        <time>2012-12-29T16:02:11+01:00</time>
      </trkpt>
      <trkpt lat="46.32118" lon="6.8151">
        <ele>1876</ele>
        <time>2012-12-29T16:02:12+01:00</time>
      </trkpt>
      <trkpt lat="46.3212" lon="6.81522">
        <ele>1875</ele>
        <time>2012-12-29T16:02:13+01:00</time>
      </trkpt>
      <trkpt lat="46.32114" lon="6.81533">
        <ele>1876</ele>
        <time>2012-12-29T16:02:16+01:00</time>
      </trkpt>
      <trkpt lat="46.32115" lon="6.8154">
        <ele>1875</ele>
        <time>2012-12-29T16:02:17+01:00</time>
      </trkpt>
      <trkpt lat="46.32118" lon="6.81549">
        <ele>1873</ele>
        <time>2012-12-29T16:02:19+01:00</time>
      </trkpt>
      <trkpt lat="46.3212" lon="6.81555">
        <ele>1874</ele>
        <time>2012-12-29T16:02:20+01:00</time>
      </trkpt>
      <trkpt lat="46.32123" lon="6.81563">
        <ele>1873</ele>
        <time>2012-12-29T16:02:24+01:00</time>
      </trkpt>
      <trkpt lat="46.32127" lon="6.81555">
        <ele>1872</ele>
        <time>2012-12-29T16:02:26+01:00</time>
      </trkpt>
      <trkpt lat="46.3213" lon="6.81548">
        <ele>1872</ele>
        <time>2012-12-29T16:02:27+01:00</time>
      </trkpt>
      <trkpt lat="46.32133" lon="6.81534">
        <ele>1871</ele>
        <time>2012-12-29T16:02:28+01:00</time>
      </trkpt>
      <trkpt lat="46.32135" lon="6.81526">
        <ele>1871</ele>
        <time>2012-12-29T16:02:29+01:00</time>
      </trkpt>
      <trkpt lat="46.32138" lon="6.8153">
        <ele>1871</ele>
        <time>2012-12-29T16:02:56+01:00</time>
      </trkpt>
      <trkpt lat="46.32142" lon="6.81535">
        <ele>1871</ele>
        <time>2012-12-29T16:02:57+01:00</time>
      </trkpt>
      <trkpt lat="46.32142" lon="6.8153">
        <ele>1872</ele>
        <time>2012-12-29T16:03:15+01:00</time>
      </trkpt>
      <trkpt lat="46.32144" lon="6.81517">
        <ele>1873</ele>
        <time>2012-12-29T16:03:27+01:00</time>
      </trkpt>
      <trkpt lat="46.32148" lon="6.81513">
        <ele>1873</ele>
        <time>2012-12-29T16:03:32+01:00</time>
      </trkpt>
      <trkpt lat="46.32153" lon="6.81514">
        <ele>1873</ele>
        <time>2012-12-29T16:03:34+01:00</time>
      </trkpt>
      <trkpt lat="46.3216" lon="6.81517">
        <ele>1870</ele>
        <time>2012-12-29T16:03:39+01:00</time>
      </trkpt>
      <trkpt lat="46.32164" lon="6.81521">
        <ele>1869</ele>
        <time>2012-12-29T16:03:42+01:00</time>
      </trkpt>
      <trkpt lat="46.32169" lon="6.8153">
        <ele>1869</ele>
        <time>2012-12-29T16:04:05+01:00</time>
      </trkpt>
      <trkpt lat="46.32164" lon="6.8153">
        <ele>1869</ele>
        <time>2012-12-29T16:04:08+01:00</time>
      </trkpt>
      <trkpt lat="46.32158" lon="6.8153">
        <ele>1869</ele>
        <time>2012-12-29T16:04:10+01:00</time>
      </trkpt>
      <trkpt lat="46.32166" lon="6.81542">
        <ele>1869</ele>
        <time>2012-12-29T16:04:11+01:00</time>
      </trkpt>
      <trkpt lat="46.3217" lon="6.81551">
        <ele>1869</ele>
        <time>2012-12-29T16:04:12+01:00</time>
      </trkpt>
      <trkpt lat="46.32176" lon="6.81556">
        <ele>1869</ele>
        <time>2012-12-29T16:04:14+01:00</time>
      </trkpt>
      <trkpt lat="46.32177" lon="6.81565">
        <ele>1869</ele>
        <time>2012-12-29T16:04:15+01:00</time>
      </trkpt>
      <trkpt lat="46.32175" lon="6.81573">
        <ele>1869</ele>
        <time>2012-12-29T16:04:17+01:00</time>
      </trkpt>
      <trkpt lat="46.32164" lon="6.81579">
        <ele>1869</ele>
        <time>2012-12-29T16:04:18+01:00</time>
      </trkpt>
      <trkpt lat="46.32159" lon="6.81588">
        <ele>1869</ele>
        <time>2012-12-29T16:04:20+01:00</time>
      </trkpt>
      <trkpt lat="46.32162" lon="6.81593">
        <ele>1869</ele>
        <time>2012-12-29T16:04:22+01:00</time>
      </trkpt>
      <trkpt lat="46.32167" lon="6.8159">
        <ele>1869</ele>
        <time>2012-12-29T16:04:23+01:00</time>
      </trkpt>
      <trkpt lat="46.32173" lon="6.81587">
        <ele>1868</ele>
        <time>2012-12-29T16:04:24+01:00</time>
      </trkpt>
      <trkpt lat="46.3218" lon="6.81586">
        <ele>1868</ele>
        <time>2012-12-29T16:04:26+01:00</time>
      </trkpt>
      <trkpt lat="46.32168" lon="6.81586">
        <ele>1864</ele>
        <time>2012-12-29T16:04:34+01:00</time>
      </trkpt>
      <trkpt lat="46.32161" lon="6.81588">
        <ele>1865</ele>
        <time>2012-12-29T16:04:42+01:00</time>
      </trkpt>
      <trkpt lat="46.32156" lon="6.81594">
        <ele>1865</ele>
        <time>2012-12-29T16:04:45+01:00</time>
      </trkpt>
      <trkpt lat="46.3216" lon="6.81599">
        <ele>1865</ele>
        <time>2012-12-29T16:04:47+01:00</time>
      </trkpt>
      <trkpt lat="46.32143" lon="6.81592">
        <ele>1863</ele>
        <time>2012-12-29T16:05:01+01:00</time>
      </trkpt>
      <trkpt lat="46.32141" lon="6.81604">
        <ele>1861</ele>
        <time>2012-12-29T16:05:02+01:00</time>
      </trkpt>
      <trkpt lat="46.32133" lon="6.81612">
        <ele>1862</ele>
        <time>2012-12-29T16:05:05+01:00</time>
      </trkpt>
      <trkpt lat="46.32128" lon="6.81618">
        <ele>1861</ele>
        <time>2012-12-29T16:05:07+01:00</time>
      </trkpt>
      <trkpt lat="46.32123" lon="6.81624">
        <ele>1861</ele>
        <time>2012-12-29T16:05:08+01:00</time>
      </trkpt>
      <trkpt lat="46.32128" lon="6.81625">
        <ele>1861</ele>
        <time>2012-12-29T16:05:29+01:00</time>
      </trkpt>
      <trkpt lat="46.32133" lon="6.81626">
        <ele>1861</ele>
        <time>2012-12-29T16:05:32+01:00</time>
      </trkpt>
      <trkpt lat="46.32137" lon="6.81631">
        <ele>1861</ele>
        <time>2012-12-29T16:05:35+01:00</time>
      </trkpt>
      <trkpt lat="46.32135" lon="6.81637">
        <ele>1861</ele>
        <time>2012-12-29T16:05:38+01:00</time>
      </trkpt>
      <trkpt lat="46.3214" lon="6.81642">
        <ele>1861</ele>
        <time>2012-12-29T16:05:40+01:00</time>
      </trkpt>
      <trkpt lat="46.32146" lon="6.81648">
        <ele>1860</ele>
        <time>2012-12-29T16:05:42+01:00</time>
      </trkpt>
      <trkpt lat="46.32148" lon="6.8166">
        <ele>1855</ele>
        <time>2012-12-29T16:05:44+01:00</time>
      </trkpt>
      <trkpt lat="46.32149" lon="6.81669">
        <ele>1853</ele>
        <time>2012-12-29T16:05:45+01:00</time>
      </trkpt>
      <trkpt lat="46.3215" lon="6.81679">
        <ele>1852</ele>
        <time>2012-12-29T16:05:46+01:00</time>
      </trkpt>
      <trkpt lat="46.32152" lon="6.81689">
        <ele>1850</ele>
        <time>2012-12-29T16:05:47+01:00</time>
      </trkpt>
      <trkpt lat="46.32156" lon="6.81699">
        <ele>1849</ele>
        <time>2012-12-29T16:05:48+01:00</time>
      </trkpt>
      <trkpt lat="46.3216" lon="6.81708">
        <ele>1846</ele>
        <time>2012-12-29T16:05:49+01:00</time>
      </trkpt>
      <trkpt lat="46.32161" lon="6.81717">
        <ele>1843</ele>
        <time>2012-12-29T16:05:50+01:00</time>
      </trkpt>
      <trkpt lat="46.32163" lon="6.81727">
        <ele>1839</ele>
        <time>2012-12-29T16:05:51+01:00</time>
      </trkpt>
      <trkpt lat="46.32165" lon="6.81738">
        <ele>1835</ele>
        <time>2012-12-29T16:05:52+01:00</time>
      </trkpt>
      <trkpt lat="46.32166" lon="6.81747">
        <ele>1832</ele>
        <time>2012-12-29T16:05:53+01:00</time>
      </trkpt>
      <trkpt lat="46.32168" lon="6.81757">
        <ele>1826</ele>
        <time>2012-12-29T16:05:54+01:00</time>
      </trkpt>
      <trkpt lat="46.32166" lon="6.81768">
        <ele>1818</ele>
        <time>2012-12-29T16:05:55+01:00</time>
      </trkpt>
      <trkpt lat="46.32164" lon="6.81777">
        <ele>1806</ele>
        <time>2012-12-29T16:05:56+01:00</time>
      </trkpt>
      <trkpt lat="46.3216" lon="6.81784">
        <ele>1798</ele>
        <time>2012-12-29T16:05:57+01:00</time>
      </trkpt>
      <trkpt lat="46.32159" lon="6.81792">
        <ele>1794</ele>
        <time>2012-12-29T16:05:58+01:00</time>
      </trkpt>
      <trkpt lat="46.32159" lon="6.81799">
        <ele>1788</ele>
        <time>2012-12-29T16:05:59+01:00</time>
      </trkpt>
      <trkpt lat="46.32155" lon="6.81803">
        <ele>1778</ele>
        <time>2012-12-29T16:06:00+01:00</time>
      </trkpt>
      <trkpt lat="46.32152" lon="6.81809">
        <ele>1774</ele>
        <time>2012-12-29T16:06:01+01:00</time>
      </trkpt>
      <trkpt lat="46.32149" lon="6.81817">
        <ele>1766</ele>
        <time>2012-12-29T16:06:02+01:00</time>
      </trkpt>
      <trkpt lat="46.32146" lon="6.81826">
        <ele>1759</ele>
        <time>2012-12-29T16:06:03+01:00</time>
      </trkpt>
      <trkpt lat="46.32145" lon="6.81836">
        <ele>1755</ele>
        <time>2012-12-29T16:06:04+01:00</time>
      </trkpt>
      <trkpt lat="46.32144" lon="6.81844">
        <ele>1750</ele>
        <time>2012-12-29T16:06:05+01:00</time>
      </trkpt>
      <trkpt lat="46.32143" lon="6.81852">
        <ele>1747</ele>
        <time>2012-12-29T16:06:06+01:00</time>
      </trkpt>
      <trkpt lat="46.32143" lon="6.81861">
        <ele>1734</ele>
        <time>2012-12-29T16:06:08+01:00</time>
      </trkpt>
      <trkpt lat="46.32143" lon="6.81867">
        <ele>1731</ele>
        <time>2012-12-29T16:06:09+01:00</time>
      </trkpt>
      <trkpt lat="46.32145" lon="6.81873">
        <ele>1727</ele>
        <time>2012-12-29T16:06:10+01:00</time>
      </trkpt>
      <trkpt lat="46.32144" lon="6.81884">
        <ele>1719</ele>
        <time>2012-12-29T16:06:12+01:00</time>
      </trkpt>
      <trkpt lat="46.32145" lon="6.8189">
        <ele>1719</ele>
        <time>2012-12-29T16:06:13+01:00</time>
      </trkpt>
      <trkpt lat="46.32146" lon="6.81902">
        <ele>1718</ele>
        <time>2012-12-29T16:06:16+01:00</time>
      </trkpt>
      <trkpt lat="46.32148" lon="6.8191">
        <ele>1715</ele>
        <time>2012-12-29T16:06:19+01:00</time>
      </trkpt>
      <trkpt lat="46.3215" lon="6.81916">
        <ele>1712</ele>
        <time>2012-12-29T16:06:21+01:00</time>
      </trkpt>
      <trkpt lat="46.32152" lon="6.81925">
        <ele>1711</ele>
        <time>2012-12-29T16:06:23+01:00</time>
      </trkpt>
      <trkpt lat="46.32156" lon="6.81934">
        <ele>1711</ele>
        <time>2012-12-29T16:06:26+01:00</time>
      </trkpt>
      <trkpt lat="46.32159" lon="6.8194">
        <ele>1710</ele>
        <time>2012-12-29T16:06:28+01:00</time>
      </trkpt>
      <trkpt lat="46.32162" lon="6.81948">
        <ele>1710</ele>
        <time>2012-12-29T16:06:30+01:00</time>
      </trkpt>
      <trkpt lat="46.32168" lon="6.81959">
        <ele>1709</ele>
        <time>2012-12-29T16:06:33+01:00</time>
      </trkpt>
      <trkpt lat="46.32171" lon="6.81967">
        <ele>1709</ele>
        <time>2012-12-29T16:06:34+01:00</time>
      </trkpt>
      <trkpt lat="46.32172" lon="6.81976">
        <ele>1706</ele>
        <time>2012-12-29T16:06:36+01:00</time>
      </trkpt>
      <trkpt lat="46.32173" lon="6.81982">
        <ele>1708</ele>
        <time>2012-12-29T16:06:37+01:00</time>
      </trkpt>
      <trkpt lat="46.32174" lon="6.81989">
        <ele>1708</ele>
        <time>2012-12-29T16:06:38+01:00</time>
      </trkpt>
      <trkpt lat="46.32177" lon="6.81998">
        <ele>1707</ele>
        <time>2012-12-29T16:06:40+01:00</time>
      </trkpt>
      <trkpt lat="46.32181" lon="6.82007">
        <ele>1707</ele>
        <time>2012-12-29T16:06:42+01:00</time>
      </trkpt>
      <trkpt lat="46.32181" lon="6.82014">
        <ele>1707</ele>
        <time>2012-12-29T16:06:43+01:00</time>
      </trkpt>
      <trkpt lat="46.32181" lon="6.82021">
        <ele>1707</ele>
        <time>2012-12-29T16:06:44+01:00</time>
      </trkpt>
      <trkpt lat="46.32184" lon="6.82032">
        <ele>1707</ele>
        <time>2012-12-29T16:06:46+01:00</time>
      </trkpt>
      <trkpt lat="46.32188" lon="6.82041">
        <ele>1707</ele>
        <time>2012-12-29T16:06:48+01:00</time>
      </trkpt>
      <trkpt lat="46.32191" lon="6.82046">
        <ele>1707</ele>
        <time>2012-12-29T16:06:50+01:00</time>
      </trkpt>
      <trkpt lat="46.32195" lon="6.82041">
        <ele>1704</ele>
        <time>2012-12-29T16:06:59+01:00</time>
      </trkpt>
      <trkpt lat="46.32199" lon="6.82034">
        <ele>1704</ele>
        <time>2012-12-29T16:07:14+01:00</time>
      </trkpt>
      <trkpt lat="46.32207" lon="6.8203">
        <ele>1704</ele>
        <time>2012-12-29T16:07:17+01:00</time>
      </trkpt>
      <trkpt lat="46.32213" lon="6.82028">
        <ele>1704</ele>
        <time>2012-12-29T16:07:19+01:00</time>
      </trkpt>
      <trkpt lat="46.32217" lon="6.82034">
        <ele>1704</ele>
        <time>2012-12-29T16:07:25+01:00</time>
      </trkpt>
      <trkpt lat="46.32222" lon="6.82038">
        <ele>1704</ele>
        <time>2012-12-29T16:07:29+01:00</time>
      </trkpt>
      <trkpt lat="46.32219" lon="6.82047">
        <ele>1704</ele>
        <time>2012-12-29T16:07:32+01:00</time>
      </trkpt>
      <trkpt lat="46.32217" lon="6.82057">
        <ele>1704</ele>
        <time>2012-12-29T16:07:34+01:00</time>
      </trkpt>
      <trkpt lat="46.32219" lon="6.82062">
        <ele>1704</ele>
        <time>2012-12-29T16:07:35+01:00</time>
      </trkpt>
      <trkpt lat="46.32219" lon="6.82068">
        <ele>1704</ele>
        <time>2012-12-29T16:07:36+01:00</time>
      </trkpt>
      <trkpt lat="46.32216" lon="6.82075">
        <ele>1704</ele>
        <time>2012-12-29T16:07:37+01:00</time>
      </trkpt>
      <trkpt lat="46.32217" lon="6.82083">
        <ele>1704</ele>
        <time>2012-12-29T16:07:38+01:00</time>
      </trkpt>
      <trkpt lat="46.32215" lon="6.8209">
        <ele>1704</ele>
        <time>2012-12-29T16:07:39+01:00</time>
      </trkpt>
      <trkpt lat="46.32216" lon="6.82097">
        <ele>1704</ele>
        <time>2012-12-29T16:07:40+01:00</time>
      </trkpt>
      <trkpt lat="46.32218" lon="6.82107">
        <ele>1704</ele>
        <time>2012-12-29T16:07:42+01:00</time>
      </trkpt>
      <trkpt lat="46.32218" lon="6.82118">
        <ele>1704</ele>
        <time>2012-12-29T16:07:45+01:00</time>
      </trkpt>
      <trkpt lat="46.32217" lon="6.82132">
        <ele>1704</ele>
        <time>2012-12-29T16:07:47+01:00</time>
      </trkpt>
      <trkpt lat="46.32217" lon="6.82143">
        <ele>1704</ele>
        <time>2012-12-29T16:07:48+01:00</time>
      </trkpt>
      <trkpt lat="46.32218" lon="6.8215">
        <ele>1704</ele>
        <time>2012-12-29T16:07:49+01:00</time>
      </trkpt>
      <trkpt lat="46.32218" lon="6.82159">
        <ele>1704</ele>
        <time>2012-12-29T16:07:50+01:00</time>
      </trkpt>
      <trkpt lat="46.32218" lon="6.82174">
        <ele>1704</ele>
        <time>2012-12-29T16:07:52+01:00</time>
      </trkpt>
      <trkpt lat="46.32216" lon="6.82185">
        <ele>1704</ele>
        <time>2012-12-29T16:07:54+01:00</time>
      </trkpt>
      <trkpt lat="46.32216" lon="6.82192">
        <ele>1704</ele>
        <time>2012-12-29T16:07:57+01:00</time>
      </trkpt>
      <trkpt lat="46.32217" lon="6.822">
        <ele>1704</ele>
        <time>2012-12-29T16:08:02+01:00</time>
      </trkpt>
      <trkpt lat="46.32219" lon="6.82206">
        <ele>1704</ele>
        <time>2012-12-29T16:08:04+01:00</time>
      </trkpt>
      <trkpt lat="46.32223" lon="6.82214">
        <ele>1704</ele>
        <time>2012-12-29T16:08:07+01:00</time>
      </trkpt>
      <trkpt lat="46.32226" lon="6.82223">
        <ele>1703</ele>
        <time>2012-12-29T16:08:10+01:00</time>
      </trkpt>
      <trkpt lat="46.32227" lon="6.82229">
        <ele>1704</ele>
        <time>2012-12-29T16:08:11+01:00</time>
      </trkpt>
      <trkpt lat="46.32229" lon="6.82244">
        <ele>1704</ele>
        <time>2012-12-29T16:08:13+01:00</time>
      </trkpt>
      <trkpt lat="46.32226" lon="6.82253">
        <ele>1704</ele>
        <time>2012-12-29T16:08:14+01:00</time>
      </trkpt>
      <trkpt lat="46.32225" lon="6.82261">
        <ele>1703</ele>
        <time>2012-12-29T16:08:15+01:00</time>
      </trkpt>
      <trkpt lat="46.32225" lon="6.82271">
        <ele>1703</ele>
        <time>2012-12-29T16:08:17+01:00</time>
      </trkpt>
      <trkpt lat="46.32223" lon="6.82277">
        <ele>1703</ele>
        <time>2012-12-29T16:08:19+01:00</time>
      </trkpt>
      <trkpt lat="46.32222" lon="6.82283">
        <ele>1703</ele>
        <time>2012-12-29T16:08:21+01:00</time>
      </trkpt>
      <trkpt lat="46.32221" lon="6.82292">
        <ele>1703</ele>
        <time>2012-12-29T16:08:23+01:00</time>
      </trkpt>
      <trkpt lat="46.32222" lon="6.82299">
        <ele>1703</ele>
        <time>2012-12-29T16:08:24+01:00</time>
      </trkpt>
      <trkpt lat="46.32223" lon="6.82306">
        <ele>1703</ele>
        <time>2012-12-29T16:08:25+01:00</time>
      </trkpt>
      <trkpt lat="46.32224" lon="6.82313">
        <ele>1703</ele>
        <time>2012-12-29T16:08:26+01:00</time>
      </trkpt>
      <trkpt lat="46.32223" lon="6.82328">
        <ele>1703</ele>
        <time>2012-12-29T16:08:28+01:00</time>
      </trkpt>
      <trkpt lat="46.32226" lon="6.82337">
        <ele>1703</ele>
        <time>2012-12-29T16:08:29+01:00</time>
      </trkpt>
      <trkpt lat="46.32237" lon="6.82347">
        <ele>1703</ele>
        <time>2012-12-29T16:08:30+01:00</time>
      </trkpt>
      <trkpt lat="46.32243" lon="6.8236">
        <ele>1703</ele>
        <time>2012-12-29T16:08:31+01:00</time>
      </trkpt>
      <trkpt lat="46.32249" lon="6.82373">
        <ele>1702</ele>
        <time>2012-12-29T16:08:32+01:00</time>
      </trkpt>
      <trkpt lat="46.32255" lon="6.82388">
        <ele>1702</ele>
        <time>2012-12-29T16:08:33+01:00</time>
      </trkpt>
      <trkpt lat="46.32258" lon="6.82401">
        <ele>1702</ele>
        <time>2012-12-29T16:08:34+01:00</time>
      </trkpt>
      <trkpt lat="46.32253" lon="6.82419">
        <ele>1702</ele>
        <time>2012-12-29T16:08:36+01:00</time>
      </trkpt>
      <trkpt lat="46.32251" lon="6.82428">
        <ele>1702</ele>
        <time>2012-12-29T16:08:38+01:00</time>
      </trkpt>
      <trkpt lat="46.32252" lon="6.82434">
        <ele>1702</ele>
        <time>2012-12-29T16:08:39+01:00</time>
      </trkpt>
      <trkpt lat="46.32253" lon="6.8244">
        <ele>1702</ele>
        <time>2012-12-29T16:08:40+01:00</time>
      </trkpt>
      <trkpt lat="46.32255" lon="6.82448">
        <ele>1702</ele>
        <time>2012-12-29T16:08:41+01:00</time>
      </trkpt>
      <trkpt lat="46.32255" lon="6.82459">
        <ele>1702</ele>
        <time>2012-12-29T16:08:43+01:00</time>
      </trkpt>
      <trkpt lat="46.32257" lon="6.82466">
        <ele>1701</ele>
        <time>2012-12-29T16:08:44+01:00</time>
      </trkpt>
      <trkpt lat="46.32256" lon="6.82472">
        <ele>1702</ele>
        <time>2012-12-29T16:09:14+01:00</time>
      </trkpt>
      <trkpt lat="46.32254" lon="6.82478">
        <ele>1701</ele>
        <time>2012-12-29T16:09:42+01:00</time>
      </trkpt>
      <trkpt lat="46.32253" lon="6.82484">
        <ele>1701</ele>
        <time>2012-12-29T16:09:44+01:00</time>
      </trkpt>
      <trkpt lat="46.32252" lon="6.82491">
        <ele>1701</ele>
        <time>2012-12-29T16:09:46+01:00</time>
      </trkpt>
      <trkpt lat="46.3225" lon="6.82498">
        <ele>1701</ele>
        <time>2012-12-29T16:09:50+01:00</time>
      </trkpt>
      <trkpt lat="46.32249" lon="6.82503">
        <ele>1700</ele>
        <time>2012-12-29T16:09:51+01:00</time>
      </trkpt>
      <trkpt lat="46.32248" lon="6.82512">
        <ele>1701</ele>
        <time>2012-12-29T16:09:53+01:00</time>
      </trkpt>
      <trkpt lat="46.32244" lon="6.82517">
        <ele>1700</ele>
        <time>2012-12-29T16:10:03+01:00</time>
      </trkpt>
      <trkpt lat="46.32245" lon="6.82523">
        <ele>1700</ele>
        <time>2012-12-29T16:10:05+01:00</time>
      </trkpt>
      <trkpt lat="46.32246" lon="6.82532">
        <ele>1700</ele>
        <time>2012-12-29T16:10:07+01:00</time>
      </trkpt>
      <trkpt lat="46.32243" lon="6.82541">
        <ele>1699</ele>
        <time>2012-12-29T16:10:14+01:00</time>
      </trkpt>
      <trkpt lat="46.32241" lon="6.82549">
        <ele>1699</ele>
        <time>2012-12-29T16:10:18+01:00</time>
      </trkpt>
      <trkpt lat="46.32238" lon="6.82554">
        <ele>1699</ele>
        <time>2012-12-29T16:10:23+01:00</time>
      </trkpt>
      <trkpt lat="46.32237" lon="6.8256">
        <ele>1699</ele>
        <time>2012-12-29T16:10:26+01:00</time>
      </trkpt>
      <trkpt lat="46.32234" lon="6.82571">
        <ele>1698</ele>
        <time>2012-12-29T16:10:30+01:00</time>
      </trkpt>
      <trkpt lat="46.32235" lon="6.82576">
        <ele>1698</ele>
        <time>2012-12-29T16:10:31+01:00</time>
      </trkpt>
      <trkpt lat="46.32234" lon="6.82586">
        <ele>1698</ele>
        <time>2012-12-29T16:10:32+01:00</time>
      </trkpt>
      <trkpt lat="46.32233" lon="6.82598">
        <ele>1698</ele>
        <time>2012-12-29T16:10:33+01:00</time>
      </trkpt>
      <trkpt lat="46.32233" lon="6.82612">
        <ele>1698</ele>
        <time>2012-12-29T16:10:34+01:00</time>
      </trkpt>
      <trkpt lat="46.32233" lon="6.82629">
        <ele>1698</ele>
        <time>2012-12-29T16:10:36+01:00</time>
      </trkpt>
      <trkpt lat="46.32232" lon="6.82636">
        <ele>1698</ele>
        <time>2012-12-29T16:10:37+01:00</time>
      </trkpt>
      <trkpt lat="46.32231" lon="6.82644">
        <ele>1698</ele>
        <time>2012-12-29T16:10:38+01:00</time>
      </trkpt>
      <trkpt lat="46.3223" lon="6.82652">
        <ele>1698</ele>
        <time>2012-12-29T16:10:39+01:00</time>
      </trkpt>
      <trkpt lat="46.32228" lon="6.82663">
        <ele>1698</ele>
        <time>2012-12-29T16:10:41+01:00</time>
      </trkpt>
      <trkpt lat="46.32227" lon="6.82674">
        <ele>1698</ele>
        <time>2012-12-29T16:10:43+01:00</time>
      </trkpt>
      <trkpt lat="46.32232" lon="6.82687">
        <ele>1698</ele>
        <time>2012-12-29T16:10:44+01:00</time>
      </trkpt>
      <trkpt lat="46.32232" lon="6.82702">
        <ele>1698</ele>
        <time>2012-12-29T16:10:46+01:00</time>
      </trkpt>
      <trkpt lat="46.32235" lon="6.8271">
        <ele>1697</ele>
        <time>2012-12-29T16:10:47+01:00</time>
      </trkpt>
      <trkpt lat="46.3224" lon="6.8272">
        <ele>1697</ele>
        <time>2012-12-29T16:10:48+01:00</time>
      </trkpt>
      <trkpt lat="46.32241" lon="6.82731">
        <ele>1697</ele>
        <time>2012-12-29T16:10:49+01:00</time>
      </trkpt>
      <trkpt lat="46.32243" lon="6.8274">
        <ele>1697</ele>
        <time>2012-12-29T16:10:50+01:00</time>
      </trkpt>
      <trkpt lat="46.32244" lon="6.82749">
        <ele>1698</ele>
        <time>2012-12-29T16:10:51+01:00</time>
      </trkpt>
      <trkpt lat="46.32247" lon="6.8276">
        <ele>1697</ele>
        <time>2012-12-29T16:10:53+01:00</time>
      </trkpt>
      <trkpt lat="46.32248" lon="6.82768">
        <ele>1697</ele>
        <time>2012-12-29T16:10:54+01:00</time>
      </trkpt>
      <trkpt lat="46.32247" lon="6.82775">
        <ele>1697</ele>
        <time>2012-12-29T16:10:55+01:00</time>
      </trkpt>
      <trkpt lat="46.32243" lon="6.82768">
        <ele>1697</ele>
        <time>2012-12-29T16:10:57+01:00</time>
      </trkpt>
      <trkpt lat="46.32241" lon="6.82747">
        <ele>1697</ele>
        <time>2012-12-29T16:10:58+01:00</time>
      </trkpt>
      <trkpt lat="46.32238" lon="6.82738">
        <ele>1697</ele>
        <time>2012-12-29T16:11:17+01:00</time>
      </trkpt>
      <trkpt lat="46.32234" lon="6.82742">
        <ele>1697</ele>
        <time>2012-12-29T16:11:19+01:00</time>
      </trkpt>
      <trkpt lat="46.32237" lon="6.82749">
        <ele>1697</ele>
        <time>2012-12-29T16:11:22+01:00</time>
      </trkpt>
      <trkpt lat="46.32244" lon="6.82753">
        <ele>1697</ele>
        <time>2012-12-29T16:11:25+01:00</time>
      </trkpt>
      <trkpt lat="46.32249" lon="6.82759">
        <ele>1697</ele>
        <time>2012-12-29T16:11:27+01:00</time>
      </trkpt>
      <trkpt lat="46.32256" lon="6.82766">
        <ele>1697</ele>
        <time>2012-12-29T16:11:29+01:00</time>
      </trkpt>
      <trkpt lat="46.3226" lon="6.8277">
        <ele>1697</ele>
        <time>2012-12-29T16:11:30+01:00</time>
      </trkpt>
      <trkpt lat="46.32264" lon="6.82777">
        <ele>1697</ele>
        <time>2012-12-29T16:11:32+01:00</time>
      </trkpt>
      <trkpt lat="46.32262" lon="6.82783">
        <ele>1697</ele>
        <time>2012-12-29T16:11:34+01:00</time>
      </trkpt>
      <trkpt lat="46.32258" lon="6.82791">
        <ele>1697</ele>
        <time>2012-12-29T16:11:35+01:00</time>
      </trkpt>
      <trkpt lat="46.32255" lon="6.828">
        <ele>1697</ele>
        <time>2012-12-29T16:11:37+01:00</time>
      </trkpt>
      <trkpt lat="46.32259" lon="6.8281">
        <ele>1697</ele>
        <time>2012-12-29T16:11:38+01:00</time>
      </trkpt>
      <trkpt lat="46.32258" lon="6.82819">
        <ele>1697</ele>
        <time>2012-12-29T16:11:39+01:00</time>
      </trkpt>
      <trkpt lat="46.32267" lon="6.8283">
        <ele>1697</ele>
        <time>2012-12-29T16:11:40+01:00</time>
      </trkpt>
      <trkpt lat="46.32259" lon="6.82839">
        <ele>1697</ele>
        <time>2012-12-29T16:11:41+01:00</time>
      </trkpt>
      <trkpt lat="46.32262" lon="6.82851">
        <ele>1697</ele>
        <time>2012-12-29T16:11:42+01:00</time>
      </trkpt>
      <trkpt lat="46.32262" lon="6.82862">
        <ele>1697</ele>
        <time>2012-12-29T16:11:43+01:00</time>
      </trkpt>
      <trkpt lat="46.32261" lon="6.82873">
        <ele>1697</ele>
        <time>2012-12-29T16:11:44+01:00</time>
      </trkpt>
      <trkpt lat="46.32258" lon="6.82882">
        <ele>1697</ele>
        <time>2012-12-29T16:11:45+01:00</time>
      </trkpt>
      <trkpt lat="46.32256" lon="6.82892">
        <ele>1697</ele>
        <time>2012-12-29T16:11:46+01:00</time>
      </trkpt>
      <trkpt lat="46.32265" lon="6.82926">
        <ele>1696</ele>
        <time>2012-12-29T16:11:47+01:00</time>
      </trkpt>
      <trkpt lat="46.32274" lon="6.82948">
        <ele>1696</ele>
        <time>2012-12-29T16:11:48+01:00</time>
      </trkpt>
      <trkpt lat="46.32275" lon="6.82963">
        <ele>1697</ele>
        <time>2012-12-29T16:11:49+01:00</time>
      </trkpt>
      <trkpt lat="46.32273" lon="6.82972">
        <ele>1696</ele>
        <time>2012-12-29T16:11:50+01:00</time>
      </trkpt>
      <trkpt lat="46.32273" lon="6.82985">
        <ele>1696</ele>
        <time>2012-12-29T16:11:51+01:00</time>
      </trkpt>
      <trkpt lat="46.32279" lon="6.83001">
        <ele>1696</ele>
        <time>2012-12-29T16:11:52+01:00</time>
      </trkpt>
      <trkpt lat="46.32296" lon="6.83027">
        <ele>1696</ele>
        <time>2012-12-29T16:11:53+01:00</time>
      </trkpt>
      <trkpt lat="46.32298" lon="6.83044">
        <ele>1696</ele>
        <time>2012-12-29T16:11:54+01:00</time>
      </trkpt>
      <trkpt lat="46.32296" lon="6.83053">
        <ele>1696</ele>
        <time>2012-12-29T16:11:55+01:00</time>
      </trkpt>
      <trkpt lat="46.32295" lon="6.83065">
        <ele>1696</ele>
        <time>2012-12-29T16:11:56+01:00</time>
      </trkpt>
      <trkpt lat="46.32292" lon="6.83072">
        <ele>1696</ele>
        <time>2012-12-29T16:11:57+01:00</time>
      </trkpt>
      <trkpt lat="46.32294" lon="6.83083">
        <ele>1696</ele>
        <time>2012-12-29T16:11:58+01:00</time>
      </trkpt>
      <trkpt lat="46.32291" lon="6.83091">
        <ele>1696</ele>
        <time>2012-12-29T16:11:59+01:00</time>
      </trkpt>
      <trkpt lat="46.32286" lon="6.83099">
        <ele>1696</ele>
        <time>2012-12-29T16:12:00+01:00</time>
      </trkpt>
      <trkpt lat="46.32282" lon="6.83105">
        <ele>1696</ele>
        <time>2012-12-29T16:12:01+01:00</time>
      </trkpt>
      <trkpt lat="46.32276" lon="6.83108">
        <ele>1696</ele>
        <time>2012-12-29T16:12:02+01:00</time>
      </trkpt>
      <trkpt lat="46.3227" lon="6.8311">
        <ele>1696</ele>
        <time>2012-12-29T16:12:03+01:00</time>
      </trkpt>
      <trkpt lat="46.32266" lon="6.8312">
        <ele>1696</ele>
        <time>2012-12-29T16:12:05+01:00</time>
      </trkpt>
      <trkpt lat="46.32262" lon="6.83129">
        <ele>1696</ele>
        <time>2012-12-29T16:12:07+01:00</time>
      </trkpt>
      <trkpt lat="46.32258" lon="6.83135">
        <ele>1696</ele>
        <time>2012-12-29T16:12:09+01:00</time>
      </trkpt>
      <trkpt lat="46.32252" lon="6.8314">
        <ele>1696</ele>
        <time>2012-12-29T16:12:11+01:00</time>
      </trkpt>
      <trkpt lat="46.32253" lon="6.8315">
        <ele>1696</ele>
        <time>2012-12-29T16:12:13+01:00</time>
      </trkpt>
      <trkpt lat="46.32253" lon="6.83159">
        <ele>1696</ele>
        <time>2012-12-29T16:12:14+01:00</time>
      </trkpt>
      <trkpt lat="46.32255" lon="6.83169">
        <ele>1696</ele>
        <time>2012-12-29T16:12:15+01:00</time>
      </trkpt>
      <trkpt lat="46.32256" lon="6.83179">
        <ele>1696</ele>
        <time>2012-12-29T16:12:16+01:00</time>
      </trkpt>
      <trkpt lat="46.32257" lon="6.83187">
        <ele>1696</ele>
        <time>2012-12-29T16:12:17+01:00</time>
      </trkpt>
      <trkpt lat="46.3226" lon="6.83194">
        <ele>1696</ele>
        <time>2012-12-29T16:12:19+01:00</time>
      </trkpt>
      <trkpt lat="46.32263" lon="6.83215">
        <ele>1696</ele>
        <time>2012-12-29T16:12:47+01:00</time>
      </trkpt>
      <trkpt lat="46.32261" lon="6.83208">
        <ele>1696</ele>
        <time>2012-12-29T16:13:04+01:00</time>
      </trkpt>
      <trkpt lat="46.32255" lon="6.8321">
        <ele>1694</ele>
        <time>2012-12-29T16:13:07+01:00</time>
      </trkpt>
      <trkpt lat="46.32252" lon="6.83218">
        <ele>1691</ele>
        <time>2012-12-29T16:13:09+01:00</time>
      </trkpt>
      <trkpt lat="46.32248" lon="6.83228">
        <ele>1689</ele>
        <time>2012-12-29T16:13:10+01:00</time>
      </trkpt>
      <trkpt lat="46.32245" lon="6.83235">
        <ele>1685</ele>
        <time>2012-12-29T16:13:11+01:00</time>
      </trkpt>
      <trkpt lat="46.32241" lon="6.83244">
        <ele>1680</ele>
        <time>2012-12-29T16:13:12+01:00</time>
      </trkpt>
      <trkpt lat="46.32239" lon="6.83253">
        <ele>1675</ele>
        <time>2012-12-29T16:13:13+01:00</time>
      </trkpt>
      <trkpt lat="46.32234" lon="6.83252">
        <ele>1658</ele>
        <time>2012-12-29T16:13:15+01:00</time>
      </trkpt>
      <trkpt lat="46.32238" lon="6.83277">
        <ele>1672</ele>
        <time>2012-12-29T16:13:16+01:00</time>
      </trkpt>
      <trkpt lat="46.32242" lon="6.83295">
        <ele>1670</ele>
        <time>2012-12-29T16:13:17+01:00</time>
      </trkpt>
      <trkpt lat="46.3224" lon="6.83304">
        <ele>1668</ele>
        <time>2012-12-29T16:13:19+01:00</time>
      </trkpt>
      <trkpt lat="46.32233" lon="6.8329">
        <ele>1661</ele>
        <time>2012-12-29T16:13:21+01:00</time>
      </trkpt>
      <trkpt lat="46.32227" lon="6.83275">
        <ele>1649</ele>
        <time>2012-12-29T16:13:22+01:00</time>
      </trkpt>
      <trkpt lat="46.32226" lon="6.83291">
        <ele>1662</ele>
        <time>2012-12-29T16:13:23+01:00</time>
      </trkpt>
      <trkpt lat="46.32226" lon="6.83318">
        <ele>1660</ele>
        <time>2012-12-29T16:13:24+01:00</time>
      </trkpt>
      <trkpt lat="46.32228" lon="6.83338">
        <ele>1654</ele>
        <time>2012-12-29T16:13:27+01:00</time>
      </trkpt>
      <trkpt lat="46.32226" lon="6.83346">
        <ele>1654</ele>
        <time>2012-12-29T16:13:29+01:00</time>
      </trkpt>
      <trkpt lat="46.32228" lon="6.83352">
        <ele>1650</ele>
        <time>2012-12-29T16:13:30+01:00</time>
      </trkpt>
      <trkpt lat="46.32222" lon="6.83349">
        <ele>1644</ele>
        <time>2012-12-29T16:13:32+01:00</time>
      </trkpt>
      <trkpt lat="46.32216" lon="6.83339">
        <ele>1638</ele>
        <time>2012-12-29T16:13:33+01:00</time>
      </trkpt>
      <trkpt lat="46.32211" lon="6.83326">
        <ele>1631</ele>
        <time>2012-12-29T16:13:34+01:00</time>
      </trkpt>
      <trkpt lat="46.32203" lon="6.83314">
        <ele>1625</ele>
        <time>2012-12-29T16:13:35+01:00</time>
      </trkpt>
      <trkpt lat="46.32196" lon="6.83303">
        <ele>1618</ele>
        <time>2012-12-29T16:13:36+01:00</time>
      </trkpt>
      <trkpt lat="46.32192" lon="6.83293">
        <ele>1612</ele>
        <time>2012-12-29T16:13:37+01:00</time>
      </trkpt>
      <trkpt lat="46.32187" lon="6.83284">
        <ele>1601</ele>
        <time>2012-12-29T16:13:39+01:00</time>
      </trkpt>
      <trkpt lat="46.32191" lon="6.83298">
        <ele>1606</ele>
        <time>2012-12-29T16:13:41+01:00</time>
      </trkpt>
      <trkpt lat="46.32189" lon="6.83306">
        <ele>1603</ele>
        <time>2012-12-29T16:13:43+01:00</time>
      </trkpt>
      <trkpt lat="46.32187" lon="6.83313">
        <ele>1602</ele>
        <time>2012-12-29T16:13:44+01:00</time>
      </trkpt>
      <trkpt lat="46.32186" lon="6.83326">
        <ele>1601</ele>
        <time>2012-12-29T16:13:45+01:00</time>
      </trkpt>
      <trkpt lat="46.32183" lon="6.83337">
        <ele>1603</ele>
        <time>2012-12-29T16:13:46+01:00</time>
      </trkpt>
      <trkpt lat="46.3218" lon="6.83349">
        <ele>1604</ele>
        <time>2012-12-29T16:13:47+01:00</time>
      </trkpt>
      <trkpt lat="46.32179" lon="6.83359">
        <ele>1605</ele>
        <time>2012-12-29T16:13:48+01:00</time>
      </trkpt>
      <trkpt lat="46.32175" lon="6.83364">
        <ele>1604</ele>
        <time>2012-12-29T16:13:49+01:00</time>
      </trkpt>
      <trkpt lat="46.32171" lon="6.8337">
        <ele>1599</ele>
        <time>2012-12-29T16:13:51+01:00</time>
      </trkpt>
      <trkpt lat="46.32169" lon="6.83376">
        <ele>1580</ele>
        <time>2012-12-29T16:14:00+01:00</time>
      </trkpt>
      <trkpt lat="46.32166" lon="6.83382">
        <ele>1580</ele>
        <time>2012-12-29T16:14:03+01:00</time>
      </trkpt>
      <trkpt lat="46.32167" lon="6.83388">
        <ele>1579</ele>
        <time>2012-12-29T16:14:05+01:00</time>
      </trkpt>
      <trkpt lat="46.32168" lon="6.83395">
        <ele>1576</ele>
        <time>2012-12-29T16:14:07+01:00</time>
      </trkpt>
      <trkpt lat="46.32166" lon="6.83405">
        <ele>1578</ele>
        <time>2012-12-29T16:14:10+01:00</time>
      </trkpt>
      <trkpt lat="46.32164" lon="6.83412">
        <ele>1579</ele>
        <time>2012-12-29T16:14:15+01:00</time>
      </trkpt>
      <trkpt lat="46.32166" lon="6.8342">
        <ele>1577</ele>
        <time>2012-12-29T16:14:19+01:00</time>
      </trkpt>
      <trkpt lat="46.32169" lon="6.83429">
        <ele>1571</ele>
        <time>2012-12-29T16:14:26+01:00</time>
      </trkpt>
      <trkpt lat="46.32169" lon="6.83439">
        <ele>1566</ele>
        <time>2012-12-29T16:14:28+01:00</time>
      </trkpt>
      <trkpt lat="46.32172" lon="6.83448">
        <ele>1562</ele>
        <time>2012-12-29T16:14:32+01:00</time>
      </trkpt>
      <trkpt lat="46.3217" lon="6.83457">
        <ele>1555</ele>
        <time>2012-12-29T16:14:34+01:00</time>
      </trkpt>
      <trkpt lat="46.32169" lon="6.83471">
        <ele>1553</ele>
        <time>2012-12-29T16:14:36+01:00</time>
      </trkpt>
      <trkpt lat="46.32169" lon="6.8348">
        <ele>1553</ele>
        <time>2012-12-29T16:14:37+01:00</time>
      </trkpt>
      <trkpt lat="46.32166" lon="6.83489">
        <ele>1556</ele>
        <time>2012-12-29T16:14:38+01:00</time>
      </trkpt>
      <trkpt lat="46.32162" lon="6.83496">
        <ele>1556</ele>
        <time>2012-12-29T16:14:39+01:00</time>
      </trkpt>
      <trkpt lat="46.32158" lon="6.835">
        <ele>1554</ele>
        <time>2012-12-29T16:14:40+01:00</time>
      </trkpt>
      <trkpt lat="46.32152" lon="6.83507">
        <ele>1552</ele>
        <time>2012-12-29T16:14:43+01:00</time>
      </trkpt>
      <trkpt lat="46.32147" lon="6.83518">
        <ele>1553</ele>
        <time>2012-12-29T16:14:45+01:00</time>
      </trkpt>
      <trkpt lat="46.3215" lon="6.8353">
        <ele>1553</ele>
        <time>2012-12-29T16:14:53+01:00</time>
      </trkpt>
      <trkpt lat="46.32149" lon="6.83537">
        <ele>1554</ele>
        <time>2012-12-29T16:14:54+01:00</time>
      </trkpt>
      <trkpt lat="46.32149" lon="6.83547">
        <ele>1554</ele>
        <time>2012-12-29T16:15:03+01:00</time>
      </trkpt>
      <trkpt lat="46.3215" lon="6.83559">
        <ele>1553</ele>
        <time>2012-12-29T16:15:06+01:00</time>
      </trkpt>
      <trkpt lat="46.3215" lon="6.8357">
        <ele>1552</ele>
        <time>2012-12-29T16:15:08+01:00</time>
      </trkpt>
      <trkpt lat="46.32149" lon="6.83577">
        <ele>1553</ele>
        <time>2012-12-29T16:15:09+01:00</time>
      </trkpt>
      <trkpt lat="46.32147" lon="6.83583">
        <ele>1549</ele>
        <time>2012-12-29T16:15:10+01:00</time>
      </trkpt>
      <trkpt lat="46.32141" lon="6.83596">
        <ele>1544</ele>
        <time>2012-12-29T16:15:12+01:00</time>
      </trkpt>
      <trkpt lat="46.32141" lon="6.83606">
        <ele>1541</ele>
        <time>2012-12-29T16:15:13+01:00</time>
      </trkpt>
      <trkpt lat="46.32142" lon="6.83621">
        <ele>1539</ele>
        <time>2012-12-29T16:15:14+01:00</time>
      </trkpt>
      <trkpt lat="46.32143" lon="6.83636">
        <ele>1542</ele>
        <time>2012-12-29T16:15:15+01:00</time>
      </trkpt>
      <trkpt lat="46.32146" lon="6.83652">
        <ele>1546</ele>
        <time>2012-12-29T16:15:16+01:00</time>
      </trkpt>
      <trkpt lat="46.32147" lon="6.83665">
        <ele>1550</ele>
        <time>2012-12-29T16:15:17+01:00</time>
      </trkpt>
      <trkpt lat="46.32148" lon="6.8368">
        <ele>1555</ele>
        <time>2012-12-29T16:15:18+01:00</time>
      </trkpt>
      <trkpt lat="46.3215" lon="6.83693">
        <ele>1560</ele>
        <time>2012-12-29T16:15:19+01:00</time>
      </trkpt>
      <trkpt lat="46.32151" lon="6.83708">
        <ele>1565</ele>
        <time>2012-12-29T16:15:20+01:00</time>
      </trkpt>
      <trkpt lat="46.3215" lon="6.83716">
        <ele>1566</ele>
        <time>2012-12-29T16:15:21+01:00</time>
      </trkpt>
      <trkpt lat="46.32144" lon="6.83718">
        <ele>1566</ele>
        <time>2012-12-29T16:15:23+01:00</time>
      </trkpt>
      <trkpt lat="46.32138" lon="6.83717">
        <ele>1559</ele>
        <time>2012-12-29T16:15:27+01:00</time>
      </trkpt>
      <trkpt lat="46.32136" lon="6.83723">
        <ele>1555</ele>
        <time>2012-12-29T16:15:44+01:00</time>
      </trkpt>
      <trkpt lat="46.32138" lon="6.83732">
        <ele>1550</ele>
        <time>2012-12-29T16:15:54+01:00</time>
      </trkpt>
      <trkpt lat="46.32141" lon="6.83737">
        <ele>1547</ele>
        <time>2012-12-29T16:15:56+01:00</time>
      </trkpt>
      <trkpt lat="46.32145" lon="6.83742">
        <ele>1544</ele>
        <time>2012-12-29T16:15:58+01:00</time>
      </trkpt>
      <trkpt lat="46.32147" lon="6.83749">
        <ele>1543</ele>
        <time>2012-12-29T16:16:01+01:00</time>
      </trkpt>
      <trkpt lat="46.32149" lon="6.83755">
        <ele>1543</ele>
        <time>2012-12-29T16:16:04+01:00</time>
      </trkpt>
      <trkpt lat="46.32151" lon="6.83761">
        <ele>1542</ele>
        <time>2012-12-29T16:16:05+01:00</time>
      </trkpt>
      <trkpt lat="46.32152" lon="6.8377">
        <ele>1540</ele>
        <time>2012-12-29T16:16:08+01:00</time>
      </trkpt>
      <trkpt lat="46.32156" lon="6.83779">
        <ele>1540</ele>
        <time>2012-12-29T16:16:10+01:00</time>
      </trkpt>
      <trkpt lat="46.3216" lon="6.83783">
        <ele>1541</ele>
        <time>2012-12-29T16:16:11+01:00</time>
      </trkpt>
      <trkpt lat="46.32164" lon="6.8379">
        <ele>1540</ele>
        <time>2012-12-29T16:16:13+01:00</time>
      </trkpt>
      <trkpt lat="46.32167" lon="6.83794">
        <ele>1541</ele>
        <time>2012-12-29T16:16:14+01:00</time>
      </trkpt>
      <trkpt lat="46.3217" lon="6.83804">
        <ele>1543</ele>
        <time>2012-12-29T16:16:16+01:00</time>
      </trkpt>
      <trkpt lat="46.32172" lon="6.83811">
        <ele>1543</ele>
        <time>2012-12-29T16:16:17+01:00</time>
      </trkpt>
      <trkpt lat="46.32174" lon="6.83818">
        <ele>1542</ele>
        <time>2012-12-29T16:16:19+01:00</time>
      </trkpt>
      <trkpt lat="46.32175" lon="6.83826">
        <ele>1542</ele>
        <time>2012-12-29T16:16:22+01:00</time>
      </trkpt>
      <trkpt lat="46.32176" lon="6.83835">
        <ele>1540</ele>
        <time>2012-12-29T16:16:25+01:00</time>
      </trkpt>
      <trkpt lat="46.32177" lon="6.83841">
        <ele>1540</ele>
        <time>2012-12-29T16:16:27+01:00</time>
      </trkpt>
      <trkpt lat="46.32178" lon="6.83852">
        <ele>1541</ele>
        <time>2012-12-29T16:16:30+01:00</time>
      </trkpt>
      <trkpt lat="46.32179" lon="6.83861">
        <ele>1537</ele>
        <time>2012-12-29T16:16:34+01:00</time>
      </trkpt>
      <trkpt lat="46.3218" lon="6.83867">
        <ele>1538</ele>
        <time>2012-12-29T16:16:36+01:00</time>
      </trkpt>
      <trkpt lat="46.32185" lon="6.83873">
        <ele>1542</ele>
        <time>2012-12-29T16:16:42+01:00</time>
      </trkpt>
      <trkpt lat="46.32185" lon="6.83882">
        <ele>1541</ele>
        <time>2012-12-29T16:16:48+01:00</time>
      </trkpt>
      <trkpt lat="46.32188" lon="6.8389">
        <ele>1544</ele>
        <time>2012-12-29T16:16:53+01:00</time>
      </trkpt>
      <trkpt lat="46.32189" lon="6.83897">
        <ele>1544</ele>
        <time>2012-12-29T16:16:58+01:00</time>
      </trkpt>
      <trkpt lat="46.32188" lon="6.83903">
        <ele>1540</ele>
        <time>2012-12-29T16:17:03+01:00</time>
      </trkpt>
      <trkpt lat="46.32187" lon="6.83909">
        <ele>1539</ele>
        <time>2012-12-29T16:17:05+01:00</time>
      </trkpt>
      <trkpt lat="46.32188" lon="6.83916">
        <ele>1537</ele>
        <time>2012-12-29T16:17:08+01:00</time>
      </trkpt>
      <trkpt lat="46.32192" lon="6.83923">
        <ele>1533</ele>
        <time>2012-12-29T16:17:12+01:00</time>
      </trkpt>
      <trkpt lat="46.32193" lon="6.83929">
        <ele>1533</ele>
        <time>2012-12-29T16:17:15+01:00</time>
      </trkpt>
      <trkpt lat="46.32196" lon="6.83938">
        <ele>1533</ele>
        <time>2012-12-29T16:17:20+01:00</time>
      </trkpt>
      <trkpt lat="46.32196" lon="6.83946">
        <ele>1538</ele>
        <time>2012-12-29T16:17:29+01:00</time>
      </trkpt>
      <trkpt lat="46.32198" lon="6.83953">
        <ele>1536</ele>
        <time>2012-12-29T16:18:09+01:00</time>
      </trkpt>
      <trkpt lat="46.32195" lon="6.83958">
        <ele>1536</ele>
        <time>2012-12-29T16:18:11+01:00</time>
      </trkpt>
      <trkpt lat="46.32196" lon="6.83966">
        <ele>1534</ele>
        <time>2012-12-29T16:18:17+01:00</time>
      </trkpt>
      <trkpt lat="46.32198" lon="6.83974">
        <ele>1533</ele>
        <time>2012-12-29T16:18:36+01:00</time>
      </trkpt>
      <trkpt lat="46.32196" lon="6.83983">
        <ele>1532</ele>
        <time>2012-12-29T16:18:50+01:00</time>
      </trkpt>
      <trkpt lat="46.32195" lon="6.83989">
        <ele>1531</ele>
        <time>2012-12-29T16:19:12+01:00</time>
      </trkpt>
      <trkpt lat="46.32196" lon="6.83997">
        <ele>1531</ele>
        <time>2012-12-29T16:19:17+01:00</time>
      </trkpt>
      <trkpt lat="46.32196" lon="6.84006">
        <ele>1526</ele>
        <time>2012-12-29T16:19:22+01:00</time>
      </trkpt>
      <trkpt lat="46.32195" lon="6.84013">
        <ele>1521</ele>
        <time>2012-12-29T16:19:25+01:00</time>
      </trkpt>
      <trkpt lat="46.32191" lon="6.84021">
        <ele>1513</ele>
        <time>2012-12-29T16:19:28+01:00</time>
      </trkpt>
      <trkpt lat="46.3219" lon="6.84027">
        <ele>1510</ele>
        <time>2012-12-29T16:19:29+01:00</time>
      </trkpt>
      <trkpt lat="46.32189" lon="6.84038">
        <ele>1503</ele>
        <time>2012-12-29T16:19:31+01:00</time>
      </trkpt>
      <trkpt lat="46.32191" lon="6.84051">
        <ele>1495</ele>
        <time>2012-12-29T16:19:33+01:00</time>
      </trkpt>
      <trkpt lat="46.32193" lon="6.84061">
        <ele>1493</ele>
        <time>2012-12-29T16:19:34+01:00</time>
      </trkpt>
      <trkpt lat="46.32195" lon="6.84074">
        <ele>1494</ele>
        <time>2012-12-29T16:19:35+01:00</time>
      </trkpt>
      <trkpt lat="46.32193" lon="6.84087">
        <ele>1504</ele>
        <time>2012-12-29T16:19:36+01:00</time>
      </trkpt>
      <trkpt lat="46.3219" lon="6.84095">
        <ele>1506</ele>
        <time>2012-12-29T16:19:37+01:00</time>
      </trkpt>
      <trkpt lat="46.32189" lon="6.8411">
        <ele>1506</ele>
        <time>2012-12-29T16:19:39+01:00</time>
      </trkpt>
      <trkpt lat="46.32189" lon="6.84122">
        <ele>1505</ele>
        <time>2012-12-29T16:19:41+01:00</time>
      </trkpt>
      <trkpt lat="46.32185" lon="6.84127">
        <ele>1505</ele>
        <time>2012-12-29T16:19:44+01:00</time>
      </trkpt>
      <trkpt lat="46.32181" lon="6.84131">
        <ele>1505</ele>
        <time>2012-12-29T16:19:46+01:00</time>
      </trkpt>
      <trkpt lat="46.32175" lon="6.84133">
        <ele>1505</ele>
        <time>2012-12-29T16:19:48+01:00</time>
      </trkpt>
      <trkpt lat="46.32174" lon="6.84139">
        <ele>1505</ele>
        <time>2012-12-29T16:19:50+01:00</time>
      </trkpt>
      <trkpt lat="46.32174" lon="6.84147">
        <ele>1505</ele>
        <time>2012-12-29T16:19:52+01:00</time>
      </trkpt>
      <trkpt lat="46.32175" lon="6.84155">
        <ele>1504</ele>
        <time>2012-12-29T16:19:55+01:00</time>
      </trkpt>
      <trkpt lat="46.32176" lon="6.84161">
        <ele>1504</ele>
        <time>2012-12-29T16:19:58+01:00</time>
      </trkpt>
      <trkpt lat="46.32179" lon="6.84167">
        <ele>1504</ele>
        <time>2012-12-29T16:20:04+01:00</time>
      </trkpt>
      <trkpt lat="46.32179" lon="6.84175">
        <ele>1504</ele>
        <time>2012-12-29T16:20:07+01:00</time>
      </trkpt>
      <trkpt lat="46.32182" lon="6.84182">
        <ele>1504</ele>
        <time>2012-12-29T16:20:09+01:00</time>
      </trkpt>
      <trkpt lat="46.32186" lon="6.84187">
        <ele>1504</ele>
        <time>2012-12-29T16:20:12+01:00</time>
      </trkpt>
      <trkpt lat="46.32191" lon="6.84193">
        <ele>1504</ele>
        <time>2012-12-29T16:20:16+01:00</time>
      </trkpt>
      <trkpt lat="46.3219" lon="6.84199">
        <ele>1504</ele>
        <time>2012-12-29T16:20:18+01:00</time>
      </trkpt>
      <trkpt lat="46.32188" lon="6.84206">
        <ele>1505</ele>
        <time>2012-12-29T16:20:20+01:00</time>
      </trkpt>
      <trkpt lat="46.32186" lon="6.84216">
        <ele>1505</ele>
        <time>2012-12-29T16:20:22+01:00</time>
      </trkpt>
      <trkpt lat="46.32187" lon="6.84225">
        <ele>1505</ele>
        <time>2012-12-29T16:20:24+01:00</time>
      </trkpt>
      <trkpt lat="46.3219" lon="6.84232">
        <ele>1505</ele>
        <time>2012-12-29T16:20:26+01:00</time>
      </trkpt>
      <trkpt lat="46.32194" lon="6.84236">
        <ele>1504</ele>
        <time>2012-12-29T16:20:30+01:00</time>
      </trkpt>
      <trkpt lat="46.32196" lon="6.84241">
        <ele>1504</ele>
        <time>2012-12-29T16:20:31+01:00</time>
      </trkpt>
      <trkpt lat="46.32195" lon="6.84252">
        <ele>1505</ele>
        <time>2012-12-29T16:20:33+01:00</time>
      </trkpt>
      <trkpt lat="46.32196" lon="6.84259">
        <ele>1505</ele>
        <time>2012-12-29T16:20:34+01:00</time>
      </trkpt>
      <trkpt lat="46.32196" lon="6.84267">
        <ele>1504</ele>
        <time>2012-12-29T16:20:35+01:00</time>
      </trkpt>
      <trkpt lat="46.32198" lon="6.84283">
        <ele>1505</ele>
        <time>2012-12-29T16:20:37+01:00</time>
      </trkpt>
      <trkpt lat="46.32198" lon="6.84294">
        <ele>1505</ele>
        <time>2012-12-29T16:20:39+01:00</time>
      </trkpt>
      <trkpt lat="46.32196" lon="6.84303">
        <ele>1505</ele>
        <time>2012-12-29T16:20:47+01:00</time>
      </trkpt>
      <trkpt lat="46.32187" lon="6.84309">
        <ele>1504</ele>
        <time>2012-12-29T16:20:50+01:00</time>
      </trkpt>
      <trkpt lat="46.32186" lon="6.8432">
        <ele>1504</ele>
        <time>2012-12-29T16:21:03+01:00</time>
      </trkpt>
      <trkpt lat="46.32186" lon="6.84328">
        <ele>1504</ele>
        <time>2012-12-29T16:21:07+01:00</time>
      </trkpt>
      <trkpt lat="46.32189" lon="6.84336">
        <ele>1504</ele>
        <time>2012-12-29T16:21:10+01:00</time>
      </trkpt>
      <trkpt lat="46.3219" lon="6.84345">
        <ele>1504</ele>
        <time>2012-12-29T16:21:20+01:00</time>
      </trkpt>
      <trkpt lat="46.32188" lon="6.84354">
        <ele>1504</ele>
        <time>2012-12-29T16:21:25+01:00</time>
      </trkpt>
      <trkpt lat="46.32187" lon="6.8436">
        <ele>1504</ele>
        <time>2012-12-29T16:21:27+01:00</time>
      </trkpt>
      <trkpt lat="46.32186" lon="6.84368">
        <ele>1504</ele>
        <time>2012-12-29T16:21:29+01:00</time>
      </trkpt>
      <trkpt lat="46.32188" lon="6.84375">
        <ele>1504</ele>
        <time>2012-12-29T16:21:39+01:00</time>
      </trkpt>
      <trkpt lat="46.32188" lon="6.84384">
        <ele>1504</ele>
        <time>2012-12-29T16:22:05+01:00</time>
      </trkpt>
      <trkpt lat="46.32188" lon="6.84392">
        <ele>1504</ele>
        <time>2012-12-29T16:22:08+01:00</time>
      </trkpt>
      <trkpt lat="46.32188" lon="6.84401">
        <ele>1504</ele>
        <time>2012-12-29T16:22:12+01:00</time>
      </trkpt>
      <trkpt lat="46.32187" lon="6.84407">
        <ele>1504</ele>
        <time>2012-12-29T16:22:14+01:00</time>
      </trkpt>
      <trkpt lat="46.3219" lon="6.84414">
        <ele>1504</ele>
        <time>2012-12-29T16:22:41+01:00</time>
      </trkpt>
      <trkpt lat="46.32189" lon="6.84422">
        <ele>1504</ele>
        <time>2012-12-29T16:23:24+01:00</time>
      </trkpt>
      <trkpt lat="46.32188" lon="6.84429">
        <ele>1505</ele>
        <time>2012-12-29T16:23:28+01:00</time>
      </trkpt>
      <trkpt lat="46.32186" lon="6.84435">
        <ele>1504</ele>
        <time>2012-12-29T16:23:35+01:00</time>
      </trkpt>
      <trkpt lat="46.32184" lon="6.84444">
        <ele>1504</ele>
        <time>2012-12-29T16:23:40+01:00</time>
      </trkpt>
      <trkpt lat="46.3218" lon="6.8445">
        <ele>1504</ele>
        <time>2012-12-29T16:23:51+01:00</time>
      </trkpt>
      <trkpt lat="46.32179" lon="6.84457">
        <ele>1503</ele>
        <time>2012-12-29T16:24:08+01:00</time>
      </trkpt>
      <trkpt lat="46.32177" lon="6.84463">
        <ele>1503</ele>
        <time>2012-12-29T16:24:22+01:00</time>
      </trkpt>
      <trkpt lat="46.3217" lon="6.84476">
        <ele>1504</ele>
        <time>2012-12-29T16:25:47+01:00</time>
      </trkpt>
      <trkpt lat="46.3217" lon="6.84489">
        <ele>1504</ele>
        <time>2012-12-29T16:26:34+01:00</time>
      </trkpt>
      <trkpt lat="46.32172" lon="6.84494">
        <ele>1505</ele>
        <time>2012-12-29T16:26:35+01:00</time>
      </trkpt>
      <trkpt lat="46.32176" lon="6.84506">
        <ele>1506</ele>
        <time>2012-12-29T16:26:39+01:00</time>
      </trkpt>
      <trkpt lat="46.32175" lon="6.84513">
        <ele>1505</ele>
        <time>2012-12-29T16:26:52+01:00</time>
      </trkpt>
      <trkpt lat="46.32174" lon="6.84518">
        <ele>1503</ele>
        <time>2012-12-29T16:26:54+01:00</time>
      </trkpt>
      <trkpt lat="46.32171" lon="6.84525">
        <ele>1500</ele>
        <time>2012-12-29T16:26:56+01:00</time>
      </trkpt>
      <trkpt lat="46.32165" lon="6.84534">
        <ele>1501</ele>
        <time>2012-12-29T16:26:58+01:00</time>
      </trkpt>
      <trkpt lat="46.32161" lon="6.84539">
        <ele>1500</ele>
        <time>2012-12-29T16:27:00+01:00</time>
      </trkpt>
      <trkpt lat="46.32155" lon="6.84541">
        <ele>1500</ele>
        <time>2012-12-29T16:27:02+01:00</time>
      </trkpt>
      <trkpt lat="46.32151" lon="6.84544">
        <ele>1500</ele>
        <time>2012-12-29T16:27:03+01:00</time>
      </trkpt>
      <trkpt lat="46.32147" lon="6.84549">
        <ele>1499</ele>
        <time>2012-12-29T16:27:04+01:00</time>
      </trkpt>
      <trkpt lat="46.32143" lon="6.84553">
        <ele>1499</ele>
        <time>2012-12-29T16:27:05+01:00</time>
      </trkpt>
      <trkpt lat="46.32135" lon="6.84558">
        <ele>1498</ele>
        <time>2012-12-29T16:27:07+01:00</time>
      </trkpt>
      <trkpt lat="46.32128" lon="6.84564">
        <ele>1499</ele>
        <time>2012-12-29T16:27:09+01:00</time>
      </trkpt>
      <trkpt lat="46.32123" lon="6.84567">
        <ele>1498</ele>
        <time>2012-12-29T16:27:11+01:00</time>
      </trkpt>
      <trkpt lat="46.32117" lon="6.84571">
        <ele>1499</ele>
        <time>2012-12-29T16:27:14+01:00</time>
      </trkpt>
      <trkpt lat="46.32113" lon="6.84573">
        <ele>1498</ele>
        <time>2012-12-29T16:27:16+01:00</time>
      </trkpt>
      <trkpt lat="46.32108" lon="6.84577">
        <ele>1498</ele>
        <time>2012-12-29T16:27:20+01:00</time>
      </trkpt>
      <trkpt lat="46.32104" lon="6.84583">
        <ele>1498</ele>
        <time>2012-12-29T16:27:24+01:00</time>
      </trkpt>
      <trkpt lat="46.32101" lon="6.84588">
        <ele>1498</ele>
        <time>2012-12-29T16:27:27+01:00</time>
      </trkpt>
      <trkpt lat="46.32097" lon="6.84592">
        <ele>1498</ele>
        <time>2012-12-29T16:27:30+01:00</time>
      </trkpt>
      <trkpt lat="46.32092" lon="6.846">
        <ele>1498</ele>
        <time>2012-12-29T16:27:33+01:00</time>
      </trkpt>
      <trkpt lat="46.32089" lon="6.84605">
        <ele>1498</ele>
        <time>2012-12-29T16:27:36+01:00</time>
      </trkpt>
      <trkpt lat="46.32085" lon="6.84613">
        <ele>1498</ele>
        <time>2012-12-29T16:27:39+01:00</time>
      </trkpt>
      <trkpt lat="46.32079" lon="6.8462">
        <ele>1498</ele>
        <time>2012-12-29T16:27:43+01:00</time>
      </trkpt>
      <trkpt lat="46.32075" lon="6.84624">
        <ele>1497</ele>
        <time>2012-12-29T16:27:45+01:00</time>
      </trkpt>
      <trkpt lat="46.32069" lon="6.84631">
        <ele>1497</ele>
        <time>2012-12-29T16:27:48+01:00</time>
      </trkpt>
      <trkpt lat="46.32066" lon="6.8464">
        <ele>1497</ele>
        <time>2012-12-29T16:27:49+01:00</time>
      </trkpt>
      <trkpt lat="46.32061" lon="6.84647">
        <ele>1497</ele>
        <time>2012-12-29T16:27:50+01:00</time>
      </trkpt>
      <trkpt lat="46.32058" lon="6.84656">
        <ele>1497</ele>
        <time>2012-12-29T16:27:51+01:00</time>
      </trkpt>
      <trkpt lat="46.32055" lon="6.84661">
        <ele>1497</ele>
        <time>2012-12-29T16:27:52+01:00</time>
      </trkpt>
      <trkpt lat="46.32051" lon="6.84668">
        <ele>1498</ele>
        <time>2012-12-29T16:27:54+01:00</time>
      </trkpt>
      <trkpt lat="46.32045" lon="6.8467">
        <ele>1494</ele>
        <time>2012-12-29T16:27:57+01:00</time>
      </trkpt>
      <trkpt lat="46.32039" lon="6.84664">
        <ele>1494</ele>
        <time>2012-12-29T16:28:00+01:00</time>
      </trkpt>
      <trkpt lat="46.32032" lon="6.84663">
        <ele>1493</ele>
        <time>2012-12-29T16:28:02+01:00</time>
      </trkpt>
      <trkpt lat="46.32027" lon="6.84663">
        <ele>1493</ele>
        <time>2012-12-29T16:28:03+01:00</time>
      </trkpt>
      <trkpt lat="46.32021" lon="6.84665">
        <ele>1493</ele>
        <time>2012-12-29T16:28:09+01:00</time>
      </trkpt>
      <trkpt lat="46.32016" lon="6.84667">
        <ele>1493</ele>
        <time>2012-12-29T16:28:11+01:00</time>
      </trkpt>
      <trkpt lat="46.32009" lon="6.84667">
        <ele>1493</ele>
        <time>2012-12-29T16:28:13+01:00</time>
      </trkpt>
      <trkpt lat="46.32003" lon="6.84667">
        <ele>1493</ele>
        <time>2012-12-29T16:28:16+01:00</time>
      </trkpt>
      <trkpt lat="46.31996" lon="6.84665">
        <ele>1493</ele>
        <time>2012-12-29T16:28:19+01:00</time>
      </trkpt>
      <trkpt lat="46.31991" lon="6.84665">
        <ele>1493</ele>
        <time>2012-12-29T16:28:21+01:00</time>
      </trkpt>
      <trkpt lat="46.31985" lon="6.84665">
        <ele>1493</ele>
        <time>2012-12-29T16:28:23+01:00</time>
      </trkpt>
      <trkpt lat="46.31977" lon="6.84663">
        <ele>1493</ele>
        <time>2012-12-29T16:28:25+01:00</time>
      </trkpt>
      <trkpt lat="46.3197" lon="6.84661">
        <ele>1493</ele>
        <time>2012-12-29T16:28:27+01:00</time>
      </trkpt>
      <trkpt lat="46.31968" lon="6.84654">
        <ele>1493</ele>
        <time>2012-12-29T16:28:33+01:00</time>
      </trkpt>
      <trkpt lat="46.31972" lon="6.8465">
        <ele>1493</ele>
        <time>2012-12-29T16:28:38+01:00</time>
      </trkpt>
      <trkpt lat="46.31973" lon="6.84644">
        <ele>1491</ele>
        <time>2012-12-29T16:28:43+01:00</time>
      </trkpt>
      <trkpt lat="46.3197" lon="6.84639">
        <ele>1492</ele>
        <time>2012-12-29T16:29:50+01:00</time>
      </trkpt>
      <trkpt lat="46.31968" lon="6.84633">
        <ele>1489</ele>
        <time>2012-12-29T16:31:20+01:00</time>
      </trkpt>
      <trkpt lat="46.31967" lon="6.84627">
        <ele>1485</ele>
        <time>2012-12-29T16:31:22+01:00</time>
      </trkpt>
      <trkpt lat="46.31966" lon="6.8462">
        <ele>1479</ele>
        <time>2012-12-29T16:31:25+01:00</time>
      </trkpt>
      <trkpt lat="46.31963" lon="6.84609">
        <ele>1478</ele>
        <time>2012-12-29T16:31:28+01:00</time>
      </trkpt>
      <trkpt lat="46.31959" lon="6.84603">
        <ele>1476</ele>
        <time>2012-12-29T16:31:29+01:00</time>
      </trkpt>
      <trkpt lat="46.31956" lon="6.84596">
        <ele>1475</ele>
        <time>2012-12-29T16:31:31+01:00</time>
      </trkpt>
      <trkpt lat="46.31951" lon="6.84592">
        <ele>1476</ele>
        <time>2012-12-29T16:31:33+01:00</time>
      </trkpt>
      <trkpt lat="46.31946" lon="6.84588">
        <ele>1474</ele>
        <time>2012-12-29T16:31:35+01:00</time>
      </trkpt>
      <trkpt lat="46.31943" lon="6.84581">
        <ele>1470</ele>
        <time>2012-12-29T16:31:40+01:00</time>
      </trkpt>
      <trkpt lat="46.31937" lon="6.84575">
        <ele>1467</ele>
        <time>2012-12-29T16:31:42+01:00</time>
      </trkpt>
      <trkpt lat="46.31931" lon="6.84572">
        <ele>1468</ele>
        <time>2012-12-29T16:31:44+01:00</time>
      </trkpt>
      <trkpt lat="46.31928" lon="6.84564">
        <ele>1465</ele>
        <time>2012-12-29T16:31:48+01:00</time>
      </trkpt>
      <trkpt lat="46.31929" lon="6.84555">
        <ele>1460</ele>
        <time>2012-12-29T16:31:49+01:00</time>
      </trkpt>
      <trkpt lat="46.31925" lon="6.84551">
        <ele>1459</ele>
        <time>2012-12-29T16:31:53+01:00</time>
      </trkpt>
      <trkpt lat="46.31919" lon="6.84547">
        <ele>1462</ele>
        <time>2012-12-29T16:31:55+01:00</time>
      </trkpt>
      <trkpt lat="46.31914" lon="6.84539">
        <ele>1459</ele>
        <time>2012-12-29T16:31:57+01:00</time>
      </trkpt>
      <trkpt lat="46.31908" lon="6.84532">
        <ele>1460</ele>
        <time>2012-12-29T16:32:02+01:00</time>
      </trkpt>
      <trkpt lat="46.31903" lon="6.84528">
        <ele>1460</ele>
        <time>2012-12-29T16:32:05+01:00</time>
      </trkpt>
      <trkpt lat="46.319" lon="6.84524">
        <ele>1460</ele>
        <time>2012-12-29T16:32:07+01:00</time>
      </trkpt>
      <trkpt lat="46.31896" lon="6.84519">
        <ele>1460</ele>
        <time>2012-12-29T16:32:10+01:00</time>
      </trkpt>
      <trkpt lat="46.31892" lon="6.84513">
        <ele>1460</ele>
        <time>2012-12-29T16:32:15+01:00</time>
      </trkpt>
      <trkpt lat="46.31886" lon="6.84506">
        <ele>1460</ele>
        <time>2012-12-29T16:32:18+01:00</time>
      </trkpt>
      <trkpt lat="46.31883" lon="6.84502">
        <ele>1460</ele>
        <time>2012-12-29T16:32:22+01:00</time>
      </trkpt>
      <trkpt lat="46.31877" lon="6.84496">
        <ele>1461</ele>
        <time>2012-12-29T16:32:24+01:00</time>
      </trkpt>
      <trkpt lat="46.31872" lon="6.84489">
        <ele>1460</ele>
        <time>2012-12-29T16:32:26+01:00</time>
      </trkpt>
      <trkpt lat="46.31866" lon="6.84484">
        <ele>1459</ele>
        <time>2012-12-29T16:32:30+01:00</time>
      </trkpt>
      <trkpt lat="46.31861" lon="6.84481">
        <ele>1457</ele>
        <time>2012-12-29T16:32:32+01:00</time>
      </trkpt>
      <trkpt lat="46.31854" lon="6.84476">
        <ele>1455</ele>
        <time>2012-12-29T16:32:34+01:00</time>
      </trkpt>
      <trkpt lat="46.3185" lon="6.84472">
        <ele>1454</ele>
        <time>2012-12-29T16:32:36+01:00</time>
      </trkpt>
      <trkpt lat="46.31845" lon="6.84468">
        <ele>1452</ele>
        <time>2012-12-29T16:32:38+01:00</time>
      </trkpt>
      <trkpt lat="46.31839" lon="6.84467">
        <ele>1451</ele>
        <time>2012-12-29T16:32:41+01:00</time>
      </trkpt>
      <trkpt lat="46.31834" lon="6.84467">
        <ele>1451</ele>
        <time>2012-12-29T16:32:42+01:00</time>
      </trkpt>
      <trkpt lat="46.31828" lon="6.84466">
        <ele>1449</ele>
        <time>2012-12-29T16:32:44+01:00</time>
      </trkpt>
      <trkpt lat="46.31821" lon="6.84461">
        <ele>1445</ele>
        <time>2012-12-29T16:32:46+01:00</time>
      </trkpt>
      <trkpt lat="46.31813" lon="6.84463">
        <ele>1443</ele>
        <time>2012-12-29T16:32:48+01:00</time>
      </trkpt>
      <trkpt lat="46.31809" lon="6.84463">
        <ele>1442</ele>
        <time>2012-12-29T16:32:49+01:00</time>
      </trkpt>
      <trkpt lat="46.31803" lon="6.84465">
        <ele>1441</ele>
        <time>2012-12-29T16:32:51+01:00</time>
      </trkpt>
      <trkpt lat="46.31798" lon="6.84466">
        <ele>1440</ele>
        <time>2012-12-29T16:32:52+01:00</time>
      </trkpt>
      <trkpt lat="46.31793" lon="6.84464">
        <ele>1438</ele>
        <time>2012-12-29T16:32:54+01:00</time>
      </trkpt>
      <trkpt lat="46.31787" lon="6.84461">
        <ele>1436</ele>
        <time>2012-12-29T16:32:56+01:00</time>
      </trkpt>
      <trkpt lat="46.31779" lon="6.84467">
        <ele>1438</ele>
        <time>2012-12-29T16:32:58+01:00</time>
      </trkpt>
      <trkpt lat="46.31773" lon="6.84468">
        <ele>1438</ele>
        <time>2012-12-29T16:33:00+01:00</time>
      </trkpt>
      <trkpt lat="46.31766" lon="6.84468">
        <ele>1438</ele>
        <time>2012-12-29T16:33:01+01:00</time>
      </trkpt>
      <trkpt lat="46.3176" lon="6.84468">
        <ele>1437</ele>
        <time>2012-12-29T16:33:02+01:00</time>
      </trkpt>
      <trkpt lat="46.31754" lon="6.84466">
        <ele>1436</ele>
        <time>2012-12-29T16:33:03+01:00</time>
      </trkpt>
      <trkpt lat="46.31749" lon="6.84465">
        <ele>1435</ele>
        <time>2012-12-29T16:33:04+01:00</time>
      </trkpt>
      <trkpt lat="46.3174" lon="6.84465">
        <ele>1434</ele>
        <time>2012-12-29T16:33:06+01:00</time>
      </trkpt>
      <trkpt lat="46.31731" lon="6.84463">
        <ele>1433</ele>
        <time>2012-12-29T16:33:08+01:00</time>
      </trkpt>
      <trkpt lat="46.31726" lon="6.8446">
        <ele>1433</ele>
        <time>2012-12-29T16:33:09+01:00</time>
      </trkpt>
      <trkpt lat="46.31719" lon="6.84455">
        <ele>1428</ele>
        <time>2012-12-29T16:33:11+01:00</time>
      </trkpt>
      <trkpt lat="46.31712" lon="6.84452">
        <ele>1425</ele>
        <time>2012-12-29T16:33:13+01:00</time>
      </trkpt>
      <trkpt lat="46.31702" lon="6.84452">
        <ele>1427</ele>
        <time>2012-12-29T16:33:15+01:00</time>
      </trkpt>
      <trkpt lat="46.31697" lon="6.84452">
        <ele>1427</ele>
        <time>2012-12-29T16:33:16+01:00</time>
      </trkpt>
      <trkpt lat="46.31687" lon="6.84456">
        <ele>1426</ele>
        <time>2012-12-29T16:33:18+01:00</time>
      </trkpt>
      <trkpt lat="46.31675" lon="6.84459">
        <ele>1425</ele>
        <time>2012-12-29T16:33:20+01:00</time>
      </trkpt>
      <trkpt lat="46.31669" lon="6.84456">
        <ele>1425</ele>
        <time>2012-12-29T16:33:21+01:00</time>
      </trkpt>
      <trkpt lat="46.31662" lon="6.84453">
        <ele>1424</ele>
        <time>2012-12-29T16:33:22+01:00</time>
      </trkpt>
      <trkpt lat="46.31656" lon="6.84451">
        <ele>1422</ele>
        <time>2012-12-29T16:33:23+01:00</time>
      </trkpt>
      <trkpt lat="46.31648" lon="6.84448">
        <ele>1421</ele>
        <time>2012-12-29T16:33:25+01:00</time>
      </trkpt>
      <trkpt lat="46.31642" lon="6.84454">
        <ele>1419</ele>
        <time>2012-12-29T16:33:27+01:00</time>
      </trkpt>
      <trkpt lat="46.31638" lon="6.84457">
        <ele>1419</ele>
        <time>2012-12-29T16:33:28+01:00</time>
      </trkpt>
      <trkpt lat="46.31632" lon="6.84459">
        <ele>1418</ele>
        <time>2012-12-29T16:33:29+01:00</time>
      </trkpt>
      <trkpt lat="46.31623" lon="6.84463">
        <ele>1417</ele>
        <time>2012-12-29T16:33:31+01:00</time>
      </trkpt>
      <trkpt lat="46.31615" lon="6.84466">
        <ele>1416</ele>
        <time>2012-12-29T16:33:35+01:00</time>
      </trkpt>
      <trkpt lat="46.3161" lon="6.84468">
        <ele>1415</ele>
        <time>2012-12-29T16:33:37+01:00</time>
      </trkpt>
      <trkpt lat="46.31605" lon="6.84469">
        <ele>1414</ele>
        <time>2012-12-29T16:33:38+01:00</time>
      </trkpt>
      <trkpt lat="46.31596" lon="6.84472">
        <ele>1416</ele>
        <time>2012-12-29T16:33:40+01:00</time>
      </trkpt>
      <trkpt lat="46.31591" lon="6.84474">
        <ele>1416</ele>
        <time>2012-12-29T16:33:41+01:00</time>
      </trkpt>
      <trkpt lat="46.31585" lon="6.84474">
        <ele>1416</ele>
        <time>2012-12-29T16:33:43+01:00</time>
      </trkpt>
      <trkpt lat="46.31578" lon="6.84476">
        <ele>1415</ele>
        <time>2012-12-29T16:33:45+01:00</time>
      </trkpt>
      <trkpt lat="46.31574" lon="6.84476">
        <ele>1414</ele>
        <time>2012-12-29T16:33:46+01:00</time>
      </trkpt>
      <trkpt lat="46.31568" lon="6.84476">
        <ele>1410</ele>
        <time>2012-12-29T16:33:48+01:00</time>
      </trkpt>
      <trkpt lat="46.31562" lon="6.84478">
        <ele>1407</ele>
        <time>2012-12-29T16:33:50+01:00</time>
      </trkpt>
      <trkpt lat="46.31557" lon="6.8448">
        <ele>1407</ele>
        <time>2012-12-29T16:33:51+01:00</time>
      </trkpt>
      <trkpt lat="46.3155" lon="6.84484">
        <ele>1407</ele>
        <time>2012-12-29T16:33:52+01:00</time>
      </trkpt>
      <trkpt lat="46.31541" lon="6.84487">
        <ele>1407</ele>
        <time>2012-12-29T16:33:54+01:00</time>
      </trkpt>
      <trkpt lat="46.31535" lon="6.84491">
        <ele>1408</ele>
        <time>2012-12-29T16:33:56+01:00</time>
      </trkpt>
      <trkpt lat="46.31529" lon="6.84491">
        <ele>1403</ele>
        <time>2012-12-29T16:34:59+01:00</time>
      </trkpt>
      <trkpt lat="46.31522" lon="6.84491">
        <ele>1400</ele>
        <time>2012-12-29T16:35:31+01:00</time>
      </trkpt>
      <trkpt lat="46.31517" lon="6.84489">
        <ele>1395</ele>
        <time>2012-12-29T16:35:34+01:00</time>
      </trkpt>
      <trkpt lat="46.31512" lon="6.84483">
        <ele>1389</ele>
        <time>2012-12-29T16:35:37+01:00</time>
      </trkpt>
      <trkpt lat="46.31506" lon="6.84482">
        <ele>1388</ele>
        <time>2012-12-29T16:35:39+01:00</time>
      </trkpt>
      <trkpt lat="46.31498" lon="6.8448">
        <ele>1388</ele>
        <time>2012-12-29T16:35:41+01:00</time>
      </trkpt>
      <trkpt lat="46.31493" lon="6.84479">
        <ele>1389</ele>
        <time>2012-12-29T16:35:42+01:00</time>
      </trkpt>
      <trkpt lat="46.31488" lon="6.84478">
        <ele>1389</ele>
        <time>2012-12-29T16:35:43+01:00</time>
      </trkpt>
      <trkpt lat="46.3148" lon="6.84484">
        <ele>1393</ele>
        <time>2012-12-29T16:35:45+01:00</time>
      </trkpt>
      <trkpt lat="46.31475" lon="6.84491">
        <ele>1393</ele>
        <time>2012-12-29T16:35:47+01:00</time>
      </trkpt>
      <trkpt lat="46.31471" lon="6.84495">
        <ele>1391</ele>
        <time>2012-12-29T16:35:48+01:00</time>
      </trkpt>
      <trkpt lat="46.31466" lon="6.84506">
        <ele>1386</ele>
        <time>2012-12-29T16:35:51+01:00</time>
      </trkpt>
      <trkpt lat="46.31463" lon="6.84511">
        <ele>1382</ele>
        <time>2012-12-29T16:35:53+01:00</time>
      </trkpt>
      <trkpt lat="46.31459" lon="6.84517">
        <ele>1383</ele>
        <time>2012-12-29T16:35:55+01:00</time>
      </trkpt>
      <trkpt lat="46.31456" lon="6.84521">
        <ele>1381</ele>
        <time>2012-12-29T16:35:56+01:00</time>
      </trkpt>
      <trkpt lat="46.3145" lon="6.84524">
        <ele>1373</ele>
        <time>2012-12-29T16:35:58+01:00</time>
      </trkpt>
      <trkpt lat="46.31442" lon="6.84522">
        <ele>1361</ele>
        <time>2012-12-29T16:36:01+01:00</time>
      </trkpt>
      <trkpt lat="46.31437" lon="6.84521">
        <ele>1370</ele>
        <time>2012-12-29T16:36:03+01:00</time>
      </trkpt>
      <trkpt lat="46.31432" lon="6.84515">
        <ele>1367</ele>
        <time>2012-12-29T16:36:05+01:00</time>
      </trkpt>
      <trkpt lat="46.31425" lon="6.84512">
        <ele>1368</ele>
        <time>2012-12-29T16:36:07+01:00</time>
      </trkpt>
      <trkpt lat="46.31418" lon="6.84514">
        <ele>1368</ele>
        <time>2012-12-29T16:36:09+01:00</time>
      </trkpt>
      <trkpt lat="46.31409" lon="6.84511">
        <ele>1368</ele>
        <time>2012-12-29T16:36:12+01:00</time>
      </trkpt>
      <trkpt lat="46.31404" lon="6.84509">
        <ele>1368</ele>
        <time>2012-12-29T16:36:13+01:00</time>
      </trkpt>
      <trkpt lat="46.31398" lon="6.84506">
        <ele>1368</ele>
        <time>2012-12-29T16:36:14+01:00</time>
      </trkpt>
      <trkpt lat="46.31392" lon="6.84509">
        <ele>1368</ele>
        <time>2012-12-29T16:36:15+01:00</time>
      </trkpt>
      <trkpt lat="46.31392" lon="6.84519">
        <ele>1371</ele>
        <time>2012-12-29T16:36:29+01:00</time>
      </trkpt>
      <trkpt lat="46.31397" lon="6.84523">
        <ele>1373</ele>
        <time>2012-12-29T16:36:31+01:00</time>
      </trkpt>
      <trkpt lat="46.31403" lon="6.84527">
        <ele>1373</ele>
        <time>2012-12-29T16:36:33+01:00</time>
      </trkpt>
      <trkpt lat="46.31408" lon="6.84528">
        <ele>1371</ele>
        <time>2012-12-29T16:36:35+01:00</time>
      </trkpt>
      <trkpt lat="46.31414" lon="6.8453">
        <ele>1369</ele>
        <time>2012-12-29T16:36:37+01:00</time>
      </trkpt>
      <trkpt lat="46.31419" lon="6.84532">
        <ele>1368</ele>
        <time>2012-12-29T16:36:38+01:00</time>
      </trkpt>
      <trkpt lat="46.31425" lon="6.84538">
        <ele>1366</ele>
        <time>2012-12-29T16:36:40+01:00</time>
      </trkpt>
      <trkpt lat="46.3143" lon="6.84544">
        <ele>1367</ele>
        <time>2012-12-29T16:36:41+01:00</time>
      </trkpt>
      <trkpt lat="46.31439" lon="6.84551">
        <ele>1368</ele>
        <time>2012-12-29T16:36:43+01:00</time>
      </trkpt>
      <trkpt lat="46.31444" lon="6.84554">
        <ele>1369</ele>
        <time>2012-12-29T16:36:44+01:00</time>
      </trkpt>
      <trkpt lat="46.31451" lon="6.84552">
        <ele>1371</ele>
        <time>2012-12-29T16:36:45+01:00</time>
      </trkpt>
      <trkpt lat="46.31459" lon="6.84552">
        <ele>1373</ele>
        <time>2012-12-29T16:36:46+01:00</time>
      </trkpt>
      <trkpt lat="46.31467" lon="6.8455">
        <ele>1374</ele>
        <time>2012-12-29T16:36:47+01:00</time>
      </trkpt>
      <trkpt lat="46.31474" lon="6.84547">
        <ele>1373</ele>
        <time>2012-12-29T16:36:48+01:00</time>
      </trkpt>
      <trkpt lat="46.31482" lon="6.84545">
        <ele>1377</ele>
        <time>2012-12-29T16:36:49+01:00</time>
      </trkpt>
      <trkpt lat="46.31495" lon="6.84544">
        <ele>1379</ele>
        <time>2012-12-29T16:36:51+01:00</time>
      </trkpt>
      <trkpt lat="46.315" lon="6.84547">
        <ele>1381</ele>
        <time>2012-12-29T16:36:54+01:00</time>
      </trkpt>
      <trkpt lat="46.31505" lon="6.84553">
        <ele>1375</ele>
        <time>2012-12-29T16:36:56+01:00</time>
      </trkpt>
      <trkpt lat="46.31509" lon="6.84555">
        <ele>1365</ele>
        <time>2012-12-29T16:36:57+01:00</time>
      </trkpt>
      <trkpt lat="46.31514" lon="6.84561">
        <ele>1358</ele>
        <time>2012-12-29T16:36:58+01:00</time>
      </trkpt>
      <trkpt lat="46.3152" lon="6.84567">
        <ele>1351</ele>
        <time>2012-12-29T16:37:00+01:00</time>
      </trkpt>
      <trkpt lat="46.31526" lon="6.84571">
        <ele>1348</ele>
        <time>2012-12-29T16:37:02+01:00</time>
      </trkpt>
      <trkpt lat="46.31531" lon="6.84574">
        <ele>1349</ele>
        <time>2012-12-29T16:37:03+01:00</time>
      </trkpt>
      <trkpt lat="46.31531" lon="6.84583">
        <ele>1349</ele>
        <time>2012-12-29T16:37:49+01:00</time>
      </trkpt>
      <trkpt lat="46.31534" lon="6.84589">
        <ele>1349</ele>
        <time>2012-12-29T16:37:52+01:00</time>
      </trkpt>
      <trkpt lat="46.31534" lon="6.84596">
        <ele>1348</ele>
        <time>2012-12-29T16:37:54+01:00</time>
      </trkpt>
      <trkpt lat="46.3153" lon="6.84598">
        <ele>1349</ele>
        <time>2012-12-29T16:37:55+01:00</time>
      </trkpt>
      <trkpt lat="46.31523" lon="6.84603">
        <ele>1349</ele>
        <time>2012-12-29T16:37:57+01:00</time>
      </trkpt>
      <trkpt lat="46.31517" lon="6.84603">
        <ele>1347</ele>
        <time>2012-12-29T16:38:00+01:00</time>
      </trkpt>
      <trkpt lat="46.31513" lon="6.84607">
        <ele>1347</ele>
        <time>2012-12-29T16:38:03+01:00</time>
      </trkpt>
      <trkpt lat="46.31511" lon="6.84615">
        <ele>1346</ele>
        <time>2012-12-29T16:38:07+01:00</time>
      </trkpt>
      <trkpt lat="46.31511" lon="6.84624">
        <ele>1346</ele>
        <time>2012-12-29T16:38:11+01:00</time>
      </trkpt>
      <trkpt lat="46.31512" lon="6.8463">
        <ele>1345</ele>
        <time>2012-12-29T16:38:12+01:00</time>
      </trkpt>
      <trkpt lat="46.31515" lon="6.84638">
        <ele>1342</ele>
        <time>2012-12-29T16:38:13+01:00</time>
      </trkpt>
      <trkpt lat="46.31516" lon="6.84652">
        <ele>1344</ele>
        <time>2012-12-29T16:38:15+01:00</time>
      </trkpt>
      <trkpt lat="46.31515" lon="6.84665">
        <ele>1342</ele>
        <time>2012-12-29T16:38:17+01:00</time>
      </trkpt>
      <trkpt lat="46.31515" lon="6.84675">
        <ele>1341</ele>
        <time>2012-12-29T16:38:18+01:00</time>
      </trkpt>
      <trkpt lat="46.31513" lon="6.84689">
        <ele>1341</ele>
        <time>2012-12-29T16:38:20+01:00</time>
      </trkpt>
      <trkpt lat="46.31516" lon="6.84686">
        <ele>1341</ele>
        <time>2012-12-29T16:38:22+01:00</time>
      </trkpt>
      <trkpt lat="46.31516" lon="6.84691">
        <ele>1338</ele>
        <time>2012-12-29T16:38:35+01:00</time>
      </trkpt>
      <trkpt lat="46.31515" lon="6.84701">
        <ele>1336</ele>
        <time>2012-12-29T16:38:39+01:00</time>
      </trkpt>
      <trkpt lat="46.31512" lon="6.84706">
        <ele>1335</ele>
        <time>2012-12-29T16:38:41+01:00</time>
      </trkpt>
      <trkpt lat="46.31513" lon="6.84712">
        <ele>1330</ele>
        <time>2012-12-29T16:38:44+01:00</time>
      </trkpt>
      <trkpt lat="46.31517" lon="6.8472">
        <ele>1328</ele>
        <time>2012-12-29T16:38:46+01:00</time>
      </trkpt>
      <trkpt lat="46.31517" lon="6.84731">
        <ele>1329</ele>
        <time>2012-12-29T16:38:48+01:00</time>
      </trkpt>
      <trkpt lat="46.31514" lon="6.84738">
        <ele>1329</ele>
        <time>2012-12-29T16:38:51+01:00</time>
      </trkpt>
      <trkpt lat="46.31511" lon="6.84746">
        <ele>1322</ele>
        <time>2012-12-29T16:38:53+01:00</time>
      </trkpt>
      <trkpt lat="46.31506" lon="6.84751">
        <ele>1318</ele>
        <time>2012-12-29T16:38:55+01:00</time>
      </trkpt>
      <trkpt lat="46.31503" lon="6.84757">
        <ele>1315</ele>
        <time>2012-12-29T16:38:57+01:00</time>
      </trkpt>
      <trkpt lat="46.31504" lon="6.84764">
        <ele>1315</ele>
        <time>2012-12-29T16:39:15+01:00</time>
      </trkpt>
      <trkpt lat="46.31512" lon="6.84766">
        <ele>1315</ele>
        <time>2012-12-29T16:39:23+01:00</time>
      </trkpt>
      <trkpt lat="46.31516" lon="6.84766">
        <ele>1315</ele>
        <time>2012-12-29T16:39:25+01:00</time>
      </trkpt>
      <trkpt lat="46.31522" lon="6.84766">
        <ele>1315</ele>
        <time>2012-12-29T16:39:27+01:00</time>
      </trkpt>
      <trkpt lat="46.31527" lon="6.84766">
        <ele>1315</ele>
        <time>2012-12-29T16:39:30+01:00</time>
      </trkpt>
      <trkpt lat="46.31532" lon="6.84772">
        <ele>1315</ele>
        <time>2012-12-29T16:39:35+01:00</time>
      </trkpt>
      <trkpt lat="46.31537" lon="6.84777">
        <ele>1313</ele>
        <time>2012-12-29T16:39:36+01:00</time>
      </trkpt>
      <trkpt lat="46.31545" lon="6.84781">
        <ele>1305</ele>
        <time>2012-12-29T16:39:38+01:00</time>
      </trkpt>
      <trkpt lat="46.31545" lon="6.84791">
        <ele>1308</ele>
        <time>2012-12-29T16:39:40+01:00</time>
      </trkpt>
      <trkpt lat="46.31545" lon="6.84799">
        <ele>1307</ele>
        <time>2012-12-29T16:39:41+01:00</time>
      </trkpt>
      <trkpt lat="46.31544" lon="6.84806">
        <ele>1306</ele>
        <time>2012-12-29T16:39:42+01:00</time>
      </trkpt>
      <trkpt lat="46.31539" lon="6.84808">
        <ele>1304</ele>
        <time>2012-12-29T16:39:43+01:00</time>
      </trkpt>
      <trkpt lat="46.3153" lon="6.84809">
        <ele>1300</ele>
        <time>2012-12-29T16:39:45+01:00</time>
      </trkpt>
      <trkpt lat="46.31528" lon="6.84814">
        <ele>1304</ele>
        <time>2012-12-29T16:39:46+01:00</time>
      </trkpt>
      <trkpt lat="46.31528" lon="6.84821">
        <ele>1303</ele>
        <time>2012-12-29T16:39:47+01:00</time>
      </trkpt>
      <trkpt lat="46.31525" lon="6.84828">
        <ele>1302</ele>
        <time>2012-12-29T16:39:49+01:00</time>
      </trkpt>
      <trkpt lat="46.31517" lon="6.84831">
        <ele>1301</ele>
        <time>2012-12-29T16:39:51+01:00</time>
      </trkpt>
      <trkpt lat="46.31511" lon="6.84832">
        <ele>1300</ele>
        <time>2012-12-29T16:39:52+01:00</time>
      </trkpt>
      <trkpt lat="46.31504" lon="6.84833">
        <ele>1298</ele>
        <time>2012-12-29T16:39:53+01:00</time>
      </trkpt>
      <trkpt lat="46.315" lon="6.84836">
        <ele>1301</ele>
        <time>2012-12-29T16:39:54+01:00</time>
      </trkpt>
      <trkpt lat="46.315" lon="6.84842">
        <ele>1300</ele>
        <time>2012-12-29T16:39:55+01:00</time>
      </trkpt>
      <trkpt lat="46.315" lon="6.84851">
        <ele>1300</ele>
        <time>2012-12-29T16:39:56+01:00</time>
      </trkpt>
      <trkpt lat="46.315" lon="6.8486">
        <ele>1300</ele>
        <time>2012-12-29T16:39:57+01:00</time>
      </trkpt>
      <trkpt lat="46.31496" lon="6.84875">
        <ele>1300</ele>
        <time>2012-12-29T16:39:59+01:00</time>
      </trkpt>
      <trkpt lat="46.31494" lon="6.84885">
        <ele>1297</ele>
        <time>2012-12-29T16:40:00+01:00</time>
      </trkpt>
      <trkpt lat="46.31489" lon="6.84891">
        <ele>1291</ele>
        <time>2012-12-29T16:40:02+01:00</time>
      </trkpt>
      <trkpt lat="46.31488" lon="6.84899">
        <ele>1294</ele>
        <time>2012-12-29T16:40:04+01:00</time>
      </trkpt>
      <trkpt lat="46.31488" lon="6.84907">
        <ele>1292</ele>
        <time>2012-12-29T16:40:06+01:00</time>
      </trkpt>
      <trkpt lat="46.3149" lon="6.84913">
        <ele>1291</ele>
        <time>2012-12-29T16:40:07+01:00</time>
      </trkpt>
      <trkpt lat="46.31492" lon="6.8492">
        <ele>1291</ele>
        <time>2012-12-29T16:40:08+01:00</time>
      </trkpt>
      <trkpt lat="46.31492" lon="6.84927">
        <ele>1287</ele>
        <time>2012-12-29T16:40:09+01:00</time>
      </trkpt>
      <trkpt lat="46.31485" lon="6.84911">
        <ele>1274</ele>
        <time>2012-12-29T16:40:12+01:00</time>
      </trkpt>
      <trkpt lat="46.31486" lon="6.84916">
        <ele>1274</ele>
        <time>2012-12-29T16:40:19+01:00</time>
      </trkpt>
      <trkpt lat="46.31487" lon="6.84921">
        <ele>1274</ele>
        <time>2012-12-29T16:40:20+01:00</time>
      </trkpt>
      <trkpt lat="46.31484" lon="6.84931">
        <ele>1274</ele>
        <time>2012-12-29T16:40:22+01:00</time>
      </trkpt>
      <trkpt lat="46.31482" lon="6.84938">
        <ele>1271</ele>
        <time>2012-12-29T16:40:39+01:00</time>
      </trkpt>
      <trkpt lat="46.31481" lon="6.84943">
        <ele>1272</ele>
        <time>2012-12-29T16:40:41+01:00</time>
      </trkpt>
      <trkpt lat="46.31486" lon="6.84948">
        <ele>1272</ele>
        <time>2012-12-29T16:40:54+01:00</time>
      </trkpt>
      <trkpt lat="46.31491" lon="6.8495">
        <ele>1273</ele>
        <time>2012-12-29T16:40:57+01:00</time>
      </trkpt>
      <trkpt lat="46.31497" lon="6.84953">
        <ele>1273</ele>
        <time>2012-12-29T16:41:04+01:00</time>
      </trkpt>
      <trkpt lat="46.31498" lon="6.84959">
        <ele>1268</ele>
        <time>2012-12-29T16:41:38+01:00</time>
      </trkpt>
      <trkpt lat="46.31497" lon="6.84965">
        <ele>1263</ele>
        <time>2012-12-29T16:41:55+01:00</time>
      </trkpt>
      <trkpt lat="46.31496" lon="6.84971">
        <ele>1258</ele>
        <time>2012-12-29T16:41:58+01:00</time>
      </trkpt>
      <trkpt lat="46.31493" lon="6.84978">
        <ele>1253</ele>
        <time>2012-12-29T16:42:02+01:00</time>
      </trkpt>
      <trkpt lat="46.3149" lon="6.84985">
        <ele>1249</ele>
        <time>2012-12-29T16:43:38+01:00</time>
      </trkpt>
      <trkpt lat="46.31486" lon="6.84991">
        <ele>1251</ele>
        <time>2012-12-29T16:44:03+01:00</time>
      </trkpt>
      <trkpt lat="46.31483" lon="6.84995">
        <ele>1247</ele>
        <time>2012-12-29T16:44:13+01:00</time>
      </trkpt>
      <trkpt lat="46.31481" lon="6.85001">
        <ele>1249</ele>
        <time>2012-12-29T16:44:16+01:00</time>
      </trkpt>
      <trkpt lat="46.3148" lon="6.8501">
        <ele>1248</ele>
        <time>2012-12-29T16:44:22+01:00</time>
      </trkpt>
      <trkpt lat="46.31477" lon="6.85017">
        <ele>1248</ele>
        <time>2012-12-29T16:44:39+01:00</time>
      </trkpt>
      <trkpt lat="46.31473" lon="6.85021">
        <ele>1248</ele>
        <time>2012-12-29T16:45:40+01:00</time>
      </trkpt>
    </trkseg>
  </trk>
</gpx>